PWSweather.com
Personal Weather Stations
Station Observations

Enon Chester, VA 23836

Lat: 37.3609267, Lon: -77.31545840000001

Elevation: 89

Station Type: Acurite

http://www.wunderground.com/personal-weather-station/dashboard?ID=KVACHEST67

High Low Average
Temperature 30.7°F-0.7°C 17.6°F-8.0°C 22.6°F-5.2°C
Dew Point 11.1°F-11.6°C 5.4°F-14.8°C 7.7°F-13.5°C
Winds 19.1 mph 30.7 kmh Calm Calm 6.0 mph SE9.7 kmh SE
Wind Gusts 19.1 mph30.7 kmh 2.7 mph4.3 kmh 10.0 mph16.1 kmh
Humidity 68% 36% 53%
Pressure 30.68 in1038.9 mb 30.49 in1032.5 mb -
Precipitation 0.00 in0.0 mm - -
Hour Temp Dew Point Humidity Winds Wind Gusts Pressure Precip Precip Rate Daily Precip Total
12:00 AM 23.7°F-4.6°C 8.7°F-12.9°C 52% 11.4 mph NNE18.3 kmh NNE 15.5 mph24.9 kmh 30.50 in1032.8 mb 0.00 in0.0 mm 0.00 in0.0 mm 0.00 in0.0 mm
12:01 AM 23.7°F-4.6°C 8.7°F-12.9°C 52% 11.9 mph NNE19.2 kmh NNE 15.5 mph24.9 kmh 30.50 in1032.8 mb 0.00 in0.0 mm 0.00 in0.0 mm 0.00 in0.0 mm
12:02 AM 23.7°F-4.6°C 8.7°F-12.9°C 52% 13.0 mph NNE20.9 kmh NNE 15.5 mph24.9 kmh 30.50 in1032.8 mb 0.00 in0.0 mm 0.00 in0.0 mm 0.00 in0.0 mm
12:03 AM 23.7°F-4.6°C 8.3°F-13.2°C 51% 11.4 mph NNW18.3 kmh NNW 15.5 mph24.9 kmh 30.50 in1032.8 mb 0.00 in0.0 mm 0.00 in0.0 mm 0.00 in0.0 mm
12:04 AM 23.7°F-4.6°C 8.3°F-13.2°C 51% 10.4 mph NNE16.7 kmh NNE 14.5 mph23.3 kmh 30.50 in1032.8 mb 0.00 in0.0 mm 0.00 in0.0 mm 0.00 in0.0 mm
12:05 AM 23.7°F-4.6°C 8.3°F-13.2°C 51% 11.9 mph NNW19.2 kmh NNW 14.5 mph23.3 kmh 30.50 in1032.8 mb 0.00 in0.0 mm 0.00 in0.0 mm 0.00 in0.0 mm
12:06 AM 23.7°F-4.6°C 8.3°F-13.2°C 51% 11.9 mph NNW19.2 kmh NNW 14.5 mph23.3 kmh 30.50 in1032.8 mb 0.00 in0.0 mm 0.00 in0.0 mm 0.00 in0.0 mm
12:07 AM 23.7°F-4.6°C 8.7°F-12.9°C 52% 12.5 mph N20.1 kmh N 14.5 mph23.3 kmh 30.50 in1032.8 mb 0.00 in0.0 mm 0.00 in0.0 mm 0.00 in0.0 mm
12:08 AM 23.7°F-4.6°C 8.7°F-12.9°C 52% 8.3 mph SE13.4 kmh SE 14.0 mph22.5 kmh 30.50 in1032.8 mb 0.00 in0.0 mm 0.00 in0.0 mm 0.00 in0.0 mm
12:09 AM 23.5°F-4.7°C 8.5°F-13.1°C 52% 9.4 mph NE15.1 kmh NE 14.0 mph22.5 kmh 30.50 in1032.8 mb 0.00 in0.0 mm 0.00 in0.0 mm 0.00 in0.0 mm
12:10 AM 23.5°F-4.7°C 8.5°F-13.1°C 52% 6.8 mph NNW10.9 kmh NNW 13.5 mph21.7 kmh 30.50 in1032.8 mb 0.00 in0.0 mm 0.00 in0.0 mm 0.00 in0.0 mm
12:11 AM 23.5°F-4.7°C 8.5°F-13.1°C 52% 10.9 mph NNE17.5 kmh NNE 13.5 mph21.7 kmh 30.50 in1032.8 mb 0.00 in0.0 mm 0.00 in0.0 mm 0.00 in0.0 mm
12:12 AM 23.5°F-4.7°C 8.5°F-13.1°C 52% 8.9 mph ESE14.3 kmh ESE 13.5 mph21.7 kmh 30.50 in1032.8 mb 0.00 in0.0 mm 0.00 in0.0 mm 0.00 in0.0 mm
12:13 AM 23.4°F-4.8°C 8.4°F-13.1°C 52% 13.0 mph W20.9 kmh W 13.5 mph21.7 kmh 30.50 in1032.8 mb 0.00 in0.0 mm 0.00 in0.0 mm 0.00 in0.0 mm
12:14 AM 23.4°F-4.8°C 8.4°F-13.1°C 52% 12.5 mph NNE20.1 kmh NNE 13.0 mph20.9 kmh 30.50 in1032.8 mb 0.00 in0.0 mm 0.00 in0.0 mm 0.00 in0.0 mm
12:15 AM 23.4°F-4.8°C 8.4°F-13.1°C 52% 10.9 mph NNE17.5 kmh NNE 13.0 mph20.9 kmh 30.50 in1032.8 mb 0.00 in0.0 mm 0.00 in0.0 mm 0.00 in0.0 mm
12:16 AM 23.4°F-4.8°C 8.4°F-13.1°C 52% 4.7 mph NNE7.6 kmh NNE 13.0 mph20.9 kmh 30.50 in1032.8 mb 0.00 in0.0 mm 0.00 in0.0 mm 0.00 in0.0 mm
12:17 AM 23.4°F-4.8°C 8.4°F-13.1°C 52% 13.5 mph NNE21.7 kmh NNE 13.5 mph21.7 kmh 30.50 in1032.8 mb 0.00 in0.0 mm 0.00 in0.0 mm 0.00 in0.0 mm
12:18 AM 23.4°F-4.8°C 8.4°F-13.1°C 52% 7.8 mph NE12.6 kmh NE 14.0 mph22.5 kmh 30.50 in1032.8 mb 0.00 in0.0 mm 0.00 in0.0 mm 0.00 in0.0 mm
12:19 AM 23.4°F-4.8°C 8.4°F-13.1°C 52% 3.7 mph ESE6.0 kmh ESE 14.0 mph22.5 kmh 30.50 in1032.8 mb 0.00 in0.0 mm 0.00 in0.0 mm 0.00 in0.0 mm
12:20 AM 23.2°F-4.9°C 8.6°F-13.0°C 53% 3.2 mph NE5.1 kmh NE 14.0 mph22.5 kmh 30.50 in1032.8 mb 0.00 in0.0 mm 0.00 in0.0 mm 0.00 in0.0 mm
12:21 AM 23.2°F-4.9°C 8.6°F-13.0°C 53% 7.3 mph NW11.7 kmh NW 14.0 mph22.5 kmh 30.50 in1032.8 mb 0.00 in0.0 mm 0.00 in0.0 mm 0.00 in0.0 mm
12:22 AM 23.2°F-4.9°C 9.1°F-12.7°C 54% 4.2 mph NNE6.8 kmh NNE 14.0 mph22.5 kmh 30.50 in1032.8 mb 0.00 in0.0 mm 0.00 in0.0 mm 0.00 in0.0 mm
12:23 AM 23.2°F-4.9°C 9.1°F-12.7°C 54% 5.3 mph NNE8.5 kmh NNE 14.0 mph22.5 kmh 30.50 in1032.8 mb 0.00 in0.0 mm 0.00 in0.0 mm 0.00 in0.0 mm
12:24 AM 23.2°F-4.9°C 9.1°F-12.7°C 54% 12.5 mph NNE20.1 kmh NNE 14.0 mph22.5 kmh 30.50 in1032.8 mb 0.00 in0.0 mm 0.00 in0.0 mm 0.00 in0.0 mm
12:25 AM 23.2°F-4.9°C 8.6°F-13.0°C 53% 8.3 mph NE13.4 kmh NE 14.0 mph22.5 kmh 30.50 in1032.8 mb 0.00 in0.0 mm 0.00 in0.0 mm 0.00 in0.0 mm
12:26 AM 23.2°F-4.9°C 8.6°F-13.0°C 53% 10.4 mph NNE16.7 kmh NNE 14.0 mph22.5 kmh 30.50 in1032.8 mb 0.00 in0.0 mm 0.00 in0.0 mm 0.00 in0.0 mm
12:27 AM 23.2°F-4.9°C 8.6°F-13.0°C 53% 7.3 mph N11.7 kmh N 14.0 mph22.5 kmh 30.50 in1032.8 mb 0.00 in0.0 mm 0.00 in0.0 mm 0.00 in0.0 mm
12:28 AM 23.2°F-4.9°C 8.6°F-13.0°C 53% 11.4 mph NW18.3 kmh NW 15.5 mph24.9 kmh 30.50 in1032.8 mb 0.00 in0.0 mm 0.00 in0.0 mm 0.00 in0.0 mm
12:29 AM 23.2°F-4.9°C 8.6°F-13.0°C 53% 8.9 mph NNE14.3 kmh NNE 15.5 mph24.9 kmh 30.49 in1032.5 mb 0.00 in0.0 mm 0.00 in0.0 mm 0.00 in0.0 mm
12:30 AM 23.2°F-4.9°C 8.6°F-13.0°C 53% 9.4 mph S15.1 kmh S 15.5 mph24.9 kmh 30.49 in1032.5 mb 0.00 in0.0 mm 0.00 in0.0 mm 0.00 in0.0 mm
12:31 AM 23.0°F-5.0°C 8.5°F-13.1°C 53% 13.0 mph NW20.9 kmh NW 15.5 mph24.9 kmh 30.49 in1032.5 mb 0.00 in0.0 mm 0.00 in0.0 mm 0.00 in0.0 mm
12:32 AM 23.0°F-5.0°C 8.5°F-13.1°C 53% 6.3 mph NNE10.1 kmh NNE 15.5 mph24.9 kmh 30.49 in1032.5 mb 0.00 in0.0 mm 0.00 in0.0 mm 0.00 in0.0 mm
12:33 AM 23.0°F-5.0°C 8.5°F-13.1°C 53% 8.9 mph N14.3 kmh N 15.5 mph24.9 kmh 30.49 in1032.5 mb 0.00 in0.0 mm 0.00 in0.0 mm 0.00 in0.0 mm
12:34 AM 23.0°F-5.0°C 8.0°F-13.3°C 52% 10.9 mph NNE17.5 kmh NNE 15.5 mph24.9 kmh 30.49 in1032.5 mb 0.00 in0.0 mm 0.00 in0.0 mm 0.00 in0.0 mm
12:35 AM 23.0°F-5.0°C 8.0°F-13.3°C 52% 7.8 mph NNW12.6 kmh NNW 16.1 mph25.9 kmh 30.49 in1032.5 mb 0.00 in0.0 mm 0.00 in0.0 mm 0.00 in0.0 mm
12:36 AM 23.0°F-5.0°C 8.0°F-13.3°C 52% 11.9 mph W19.2 kmh W 16.1 mph25.9 kmh 30.49 in1032.5 mb 0.00 in0.0 mm 0.00 in0.0 mm 0.00 in0.0 mm
12:37 AM 23.0°F-5.0°C 8.0°F-13.3°C 52% 10.4 mph NNE16.7 kmh NNE 16.1 mph25.9 kmh 30.49 in1032.5 mb 0.00 in0.0 mm 0.00 in0.0 mm 0.00 in0.0 mm
12:38 AM 23.0°F-5.0°C 8.0°F-13.3°C 52% 15.5 mph E24.9 kmh E 16.1 mph25.9 kmh 30.49 in1032.5 mb 0.00 in0.0 mm 0.00 in0.0 mm 0.00 in0.0 mm
12:39 AM 23.0°F-5.0°C 8.0°F-13.3°C 52% 6.8 mph NNW10.9 kmh NNW 16.1 mph25.9 kmh 30.49 in1032.5 mb 0.00 in0.0 mm 0.00 in0.0 mm 0.00 in0.0 mm
12:40 AM 23.0°F-5.0°C 8.0°F-13.3°C 52% 10.4 mph N16.7 kmh N 16.1 mph25.9 kmh 30.49 in1032.5 mb 0.00 in0.0 mm 0.00 in0.0 mm 0.00 in0.0 mm
12:41 AM 23.0°F-5.0°C 8.0°F-13.3°C 52% 9.9 mph NNE15.9 kmh NNE 16.1 mph25.9 kmh 30.50 in1032.8 mb 0.00 in0.0 mm 0.00 in0.0 mm 0.00 in0.0 mm
12:42 AM 23.0°F-5.0°C 8.0°F-13.3°C 52% 9.9 mph NNE15.9 kmh NNE 16.1 mph25.9 kmh 30.50 in1032.8 mb 0.00 in0.0 mm 0.00 in0.0 mm 0.00 in0.0 mm
12:43 AM 23.0°F-5.0°C 8.5°F-13.1°C 53% 7.3 mph NNW11.7 kmh NNW 16.1 mph25.9 kmh 30.50 in1032.8 mb 0.00 in0.0 mm 0.00 in0.0 mm 0.00 in0.0 mm
12:44 AM 22.8°F-5.1°C 8.3°F-13.2°C 53% 8.9 mph NE14.3 kmh NE 16.1 mph25.9 kmh 30.50 in1032.8 mb 0.00 in0.0 mm 0.00 in0.0 mm 0.00 in0.0 mm
12:45 AM 22.8°F-5.1°C 8.3°F-13.2°C 53% 7.8 mph NNE12.6 kmh NNE 15.5 mph24.9 kmh 30.50 in1032.8 mb 0.00 in0.0 mm 0.00 in0.0 mm 0.00 in0.0 mm
12:46 AM 22.8°F-5.1°C 8.3°F-13.2°C 53% 15.5 mph NNE24.9 kmh NNE 15.5 mph24.9 kmh 30.50 in1032.8 mb 0.00 in0.0 mm 0.00 in0.0 mm 0.00 in0.0 mm
12:47 AM 22.8°F-5.1°C 8.3°F-13.2°C 53% 9.9 mph NNE15.9 kmh NNE 15.5 mph24.9 kmh 30.50 in1032.8 mb 0.00 in0.0 mm 0.00 in0.0 mm 0.00 in0.0 mm
12:48 AM 22.8°F-5.1°C 8.3°F-13.2°C 53% 14.0 mph NE22.5 kmh NE 15.5 mph24.9 kmh 30.50 in1032.8 mb 0.00 in0.0 mm 0.00 in0.0 mm 0.00 in0.0 mm
12:49 AM 22.8°F-5.1°C 8.3°F-13.2°C 53% 9.9 mph NE15.9 kmh NE 15.5 mph24.9 kmh 30.50 in1032.8 mb 0.00 in0.0 mm 0.00 in0.0 mm 0.00 in0.0 mm
12:50 AM 22.8°F-5.1°C 8.3°F-13.2°C 53% 13.0 mph NNE20.9 kmh NNE 15.5 mph24.9 kmh 30.50 in1032.8 mb 0.00 in0.0 mm 0.00 in0.0 mm 0.00 in0.0 mm
12:51 AM 22.8°F-5.1°C 8.3°F-13.2°C 53% 10.9 mph NNE17.5 kmh NNE 15.5 mph24.9 kmh 30.50 in1032.8 mb 0.00 in0.0 mm 0.00 in0.0 mm 0.00 in0.0 mm
12:52 AM 22.6°F-5.2°C 8.1°F-13.3°C 53% 15.5 mph WNW24.9 kmh WNW 15.5 mph24.9 kmh 30.50 in1032.8 mb 0.00 in0.0 mm 0.00 in0.0 mm 0.00 in0.0 mm
12:53 AM 22.6°F-5.2°C 8.1°F-13.3°C 53% 8.9 mph NNE14.3 kmh NNE 15.5 mph24.9 kmh 30.50 in1032.8 mb 0.00 in0.0 mm 0.00 in0.0 mm 0.00 in0.0 mm
12:54 AM 22.6°F-5.2°C 8.1°F-13.3°C 53% 5.8 mph NNE9.3 kmh NNE 15.5 mph24.9 kmh 30.50 in1032.8 mb 0.00 in0.0 mm 0.00 in0.0 mm 0.00 in0.0 mm
12:55 AM 22.6°F-5.2°C 8.1°F-13.3°C 53% 9.9 mph NNW15.9 kmh NNW 15.5 mph24.9 kmh 30.50 in1032.8 mb 0.00 in0.0 mm 0.00 in0.0 mm 0.00 in0.0 mm
12:56 AM 22.6°F-5.2°C 8.5°F-13.1°C 54% 7.3 mph ESE11.7 kmh ESE 15.5 mph24.9 kmh 30.50 in1032.8 mb 0.00 in0.0 mm 0.00 in0.0 mm 0.00 in0.0 mm
12:57 AM 22.6°F-5.2°C 8.5°F-13.1°C 54% 13.5 mph NE21.7 kmh NE 15.5 mph24.9 kmh 30.50 in1032.8 mb 0.00 in0.0 mm 0.00 in0.0 mm 0.00 in0.0 mm
12:58 AM 22.6°F-5.2°C 8.5°F-13.1°C 54% 9.9 mph NE15.9 kmh NE 15.5 mph24.9 kmh 30.50 in1032.8 mb 0.00 in0.0 mm 0.00 in0.0 mm 0.00 in0.0 mm
12:59 AM 22.5°F-5.3°C 8.4°F-13.1°C 54% 6.3 mph NE10.1 kmh NE 15.5 mph24.9 kmh 30.50 in1032.8 mb 0.00 in0.0 mm 0.00 in0.0 mm 0.00 in0.0 mm
01:00 AM 22.5°F-5.3°C 8.4°F-13.1°C 54% 7.8 mph E12.6 kmh E 15.5 mph24.9 kmh 30.50 in1032.8 mb 0.00 in0.0 mm 0.00 in0.0 mm 0.00 in0.0 mm
01:01 AM 22.5°F-5.3°C 8.4°F-13.1°C 54% 13.5 mph N21.7 kmh N 15.5 mph24.9 kmh 30.50 in1032.8 mb 0.00 in0.0 mm 0.00 in0.0 mm 0.00 in0.0 mm
01:02 AM 22.5°F-5.3°C 8.4°F-13.1°C 54% 8.3 mph NNE13.4 kmh NNE 15.5 mph24.9 kmh 30.50 in1032.8 mb 0.00 in0.0 mm 0.00 in0.0 mm 0.00 in0.0 mm
01:03 AM 22.5°F-5.3°C 8.4°F-13.1°C 54% 10.9 mph E17.5 kmh E 15.5 mph24.9 kmh 30.50 in1032.8 mb 0.00 in0.0 mm 0.00 in0.0 mm 0.00 in0.0 mm
01:04 AM 22.5°F-5.3°C 8.4°F-13.1°C 54% 11.4 mph NNE18.3 kmh NNE 15.5 mph24.9 kmh 30.50 in1032.8 mb 0.00 in0.0 mm 0.00 in0.0 mm 0.00 in0.0 mm
01:05 AM 22.5°F-5.3°C 8.4°F-13.1°C 54% 7.8 mph NNE12.6 kmh NNE 15.5 mph24.9 kmh 30.50 in1032.8 mb 0.00 in0.0 mm 0.00 in0.0 mm 0.00 in0.0 mm
01:06 AM 22.5°F-5.3°C 8.4°F-13.1°C 54% 5.8 mph NNW9.3 kmh NNW 15.5 mph24.9 kmh 30.50 in1032.8 mb 0.00 in0.0 mm 0.00 in0.0 mm 0.00 in0.0 mm
01:07 AM 22.5°F-5.3°C 8.4°F-13.1°C 54% 9.9 mph NNE15.9 kmh NNE 13.5 mph21.7 kmh 30.50 in1032.8 mb 0.00 in0.0 mm 0.00 in0.0 mm 0.00 in0.0 mm
01:08 AM 22.5°F-5.3°C 8.4°F-13.1°C 54% 7.8 mph N12.6 kmh N 13.5 mph21.7 kmh 30.50 in1032.8 mb 0.00 in0.0 mm 0.00 in0.0 mm 0.00 in0.0 mm
01:09 AM 22.5°F-5.3°C 8.4°F-13.1°C 54% 9.9 mph NE15.9 kmh NE 13.5 mph21.7 kmh 30.50 in1032.8 mb 0.00 in0.0 mm 0.00 in0.0 mm 0.00 in0.0 mm
01:10 AM 22.3°F-5.4°C 8.2°F-13.2°C 54% 11.4 mph NNE18.3 kmh NNE 13.5 mph21.7 kmh 30.50 in1032.8 mb 0.00 in0.0 mm 0.00 in0.0 mm 0.00 in0.0 mm
01:11 AM 22.3°F-5.4°C 8.2°F-13.2°C 54% 8.9 mph N14.3 kmh N 13.5 mph21.7 kmh 30.50 in1032.8 mb 0.00 in0.0 mm 0.00 in0.0 mm 0.00 in0.0 mm
01:12 AM 22.3°F-5.4°C 8.2°F-13.2°C 54% 7.8 mph NNE12.6 kmh NNE 13.0 mph20.9 kmh 30.50 in1032.8 mb 0.00 in0.0 mm 0.00 in0.0 mm 0.00 in0.0 mm
01:13 AM 22.3°F-5.4°C 9.0°F-12.8°C 56% 9.4 mph NNW15.1 kmh NNW 13.0 mph20.9 kmh 30.50 in1032.8 mb 0.00 in0.0 mm 0.00 in0.0 mm 0.00 in0.0 mm
01:14 AM 22.3°F-5.4°C 9.0°F-12.8°C 56% 13.0 mph NNE20.9 kmh NNE 13.0 mph20.9 kmh 30.50 in1032.8 mb 0.00 in0.0 mm 0.00 in0.0 mm 0.00 in0.0 mm
01:15 AM 22.3°F-5.4°C 9.0°F-12.8°C 56% 8.9 mph NE14.3 kmh NE 13.0 mph20.9 kmh 30.50 in1032.8 mb 0.00 in0.0 mm 0.00 in0.0 mm 0.00 in0.0 mm
01:16 AM 22.3°F-5.4°C 8.6°F-13.0°C 55% 11.9 mph NNE19.2 kmh NNE 13.0 mph20.9 kmh 30.51 in1033.2 mb 0.00 in0.0 mm 0.00 in0.0 mm 0.00 in0.0 mm
01:17 AM 22.3°F-5.4°C 8.6°F-13.0°C 55% 11.9 mph NNE19.2 kmh NNE 13.0 mph20.9 kmh 30.51 in1033.2 mb 0.00 in0.0 mm 0.00 in0.0 mm 0.00 in0.0 mm
01:18 AM 22.3°F-5.4°C 8.6°F-13.0°C 55% 7.8 mph E12.6 kmh E 13.5 mph21.7 kmh 30.51 in1033.2 mb 0.00 in0.0 mm 0.00 in0.0 mm 0.00 in0.0 mm
01:19 AM 22.3°F-5.4°C 8.6°F-13.0°C 55% 7.3 mph NNE11.7 kmh NNE 13.5 mph21.7 kmh 30.51 in1033.2 mb 0.00 in0.0 mm 0.00 in0.0 mm 0.00 in0.0 mm
01:20 AM 22.1°F-5.5°C 8.4°F-13.1°C 55% 11.9 mph NNE19.2 kmh NNE 13.5 mph21.7 kmh 30.51 in1033.2 mb 0.00 in0.0 mm 0.00 in0.0 mm 0.00 in0.0 mm
01:21 AM 22.1°F-5.5°C 8.0°F-13.3°C 54% 7.8 mph NNE12.6 kmh NNE 13.5 mph21.7 kmh 30.51 in1033.2 mb 0.00 in0.0 mm 0.00 in0.0 mm 0.00 in0.0 mm
01:22 AM 22.1°F-5.5°C 8.4°F-13.1°C 55% 8.3 mph NNE13.4 kmh NNE 13.5 mph21.7 kmh 30.51 in1033.2 mb 0.00 in0.0 mm 0.00 in0.0 mm 0.00 in0.0 mm
01:23 AM 22.1°F-5.5°C 8.4°F-13.1°C 55% 6.8 mph NNW10.9 kmh NNW 13.5 mph21.7 kmh 30.51 in1033.2 mb 0.00 in0.0 mm 0.00 in0.0 mm 0.00 in0.0 mm
01:24 AM 22.1°F-5.5°C 8.4°F-13.1°C 55% 12.5 mph NNE20.1 kmh NNE 13.5 mph21.7 kmh 30.51 in1033.2 mb 0.00 in0.0 mm 0.00 in0.0 mm 0.00 in0.0 mm
01:25 AM 22.1°F-5.5°C 8.4°F-13.1°C 55% 6.8 mph NNE10.9 kmh NNE 13.5 mph21.7 kmh 30.51 in1033.2 mb 0.00 in0.0 mm 0.00 in0.0 mm 0.00 in0.0 mm
01:26 AM 22.1°F-5.5°C 8.8°F-12.9°C 56% 4.7 mph NE7.6 kmh NE 13.5 mph21.7 kmh 30.51 in1033.2 mb 0.00 in0.0 mm 0.00 in0.0 mm 0.00 in0.0 mm
01:27 AM 22.1°F-5.5°C 8.8°F-12.9°C 56% 9.4 mph E15.1 kmh E 13.5 mph21.7 kmh 30.51 in1033.2 mb 0.00 in0.0 mm 0.00 in0.0 mm 0.00 in0.0 mm
01:28 AM 22.1°F-5.5°C 8.8°F-12.9°C 56% 10.4 mph NNE16.7 kmh NNE 12.5 mph20.1 kmh 30.51 in1033.2 mb 0.00 in0.0 mm 0.00 in0.0 mm 0.00 in0.0 mm
01:29 AM 21.9°F-5.6°C 8.6°F-13.0°C 56% 8.9 mph NE14.3 kmh NE 12.5 mph20.1 kmh 30.51 in1033.2 mb 0.00 in0.0 mm 0.00 in0.0 mm 0.00 in0.0 mm
01:30 AM 21.9°F-5.6°C 8.6°F-13.0°C 56% 8.3 mph NE13.4 kmh NE 12.5 mph20.1 kmh 30.51 in1033.2 mb 0.00 in0.0 mm 0.00 in0.0 mm 0.00 in0.0 mm
01:31 AM 21.9°F-5.6°C 8.6°F-13.0°C 56% 7.8 mph NE12.6 kmh NE 12.5 mph20.1 kmh 30.51 in1033.2 mb 0.00 in0.0 mm 0.00 in0.0 mm 0.00 in0.0 mm
01:32 AM 21.9°F-5.6°C 8.6°F-13.0°C 56% 7.8 mph NNE12.6 kmh NNE 12.5 mph20.1 kmh 30.51 in1033.2 mb 0.00 in0.0 mm 0.00 in0.0 mm 0.00 in0.0 mm
01:33 AM 21.9°F-5.6°C 8.6°F-13.0°C 56% 6.8 mph WNW10.9 kmh WNW 12.5 mph20.1 kmh 30.51 in1033.2 mb 0.00 in0.0 mm 0.00 in0.0 mm 0.00 in0.0 mm
01:34 AM 21.9°F-5.6°C 8.6°F-13.0°C 56% 5.8 mph NNE9.3 kmh NNE 12.5 mph20.1 kmh 30.51 in1033.2 mb 0.00 in0.0 mm 0.00 in0.0 mm 0.00 in0.0 mm
01:35 AM 21.9°F-5.6°C 8.6°F-13.0°C 56% 6.8 mph NE10.9 kmh NE 10.4 mph16.7 kmh 30.51 in1033.2 mb 0.00 in0.0 mm 0.00 in0.0 mm 0.00 in0.0 mm
01:36 AM 21.9°F-5.6°C 8.6°F-13.0°C 56% 8.9 mph NNE14.3 kmh NNE 10.4 mph16.7 kmh 30.51 in1033.2 mb 0.00 in0.0 mm 0.00 in0.0 mm 0.00 in0.0 mm
01:37 AM 21.7°F-5.7°C 8.8°F-12.9°C 57% 7.8 mph NNE12.6 kmh NNE 10.4 mph16.7 kmh 30.51 in1033.2 mb 0.00 in0.0 mm 0.00 in0.0 mm 0.00 in0.0 mm
01:38 AM 21.7°F-5.7°C 8.8°F-12.9°C 57% 7.3 mph NNE11.7 kmh NNE 10.4 mph16.7 kmh 30.51 in1033.2 mb 0.00 in0.0 mm 0.00 in0.0 mm 0.00 in0.0 mm
01:39 AM 21.7°F-5.7°C 8.5°F-13.1°C 56% 10.9 mph NNE17.5 kmh NNE 10.9 mph17.5 kmh 30.51 in1033.2 mb 0.00 in0.0 mm 0.00 in0.0 mm 0.00 in0.0 mm
01:40 AM 21.7°F-5.7°C 8.5°F-13.1°C 56% 8.9 mph NNE14.3 kmh NNE 10.9 mph17.5 kmh 30.51 in1033.2 mb 0.00 in0.0 mm 0.00 in0.0 mm 0.00 in0.0 mm
01:41 AM 21.7°F-5.7°C 8.5°F-13.1°C 56% 7.8 mph N12.6 kmh N 10.9 mph17.5 kmh 30.51 in1033.2 mb 0.00 in0.0 mm 0.00 in0.0 mm 0.00 in0.0 mm
01:42 AM 21.7°F-5.7°C 8.5°F-13.1°C 56% 7.3 mph NNE11.7 kmh NNE 10.9 mph17.5 kmh 30.51 in1033.2 mb 0.00 in0.0 mm 0.00 in0.0 mm 0.00 in0.0 mm
01:43 AM 21.7°F-5.7°C 8.8°F-12.9°C 57% 6.8 mph NE10.9 kmh NE 10.9 mph17.5 kmh 30.51 in1033.2 mb 0.00 in0.0 mm 0.00 in0.0 mm 0.00 in0.0 mm
01:44 AM 21.7°F-5.7°C 8.8°F-12.9°C 57% 6.8 mph NNW10.9 kmh NNW 10.9 mph17.5 kmh 30.51 in1033.2 mb 0.00 in0.0 mm 0.00 in0.0 mm 0.00 in0.0 mm
01:45 AM 21.7°F-5.7°C 8.8°F-12.9°C 57% 9.9 mph NNE15.9 kmh NNE 10.9 mph17.5 kmh 30.51 in1033.2 mb 0.00 in0.0 mm 0.00 in0.0 mm 0.00 in0.0 mm
01:46 AM 21.7°F-5.7°C 8.8°F-12.9°C 57% 8.9 mph NE14.3 kmh NE 10.9 mph17.5 kmh 30.51 in1033.2 mb 0.00 in0.0 mm 0.00 in0.0 mm 0.00 in0.0 mm
01:47 AM 21.7°F-5.7°C 8.8°F-12.9°C 57% 7.3 mph NNE11.7 kmh NNE 10.9 mph17.5 kmh 30.51 in1033.2 mb 0.00 in0.0 mm 0.00 in0.0 mm 0.00 in0.0 mm
01:48 AM 21.7°F-5.7°C 8.8°F-12.9°C 57% 5.3 mph NE8.5 kmh NE 10.9 mph17.5 kmh 30.51 in1033.2 mb 0.00 in0.0 mm 0.00 in0.0 mm 0.00 in0.0 mm
01:49 AM 21.7°F-5.7°C 8.8°F-12.9°C 57% 10.9 mph NNE17.5 kmh NNE 13.0 mph20.9 kmh 30.51 in1033.2 mb 0.00 in0.0 mm 0.00 in0.0 mm 0.00 in0.0 mm
01:50 AM 21.7°F-5.7°C 8.8°F-12.9°C 57% 13.5 mph NE21.7 kmh NE 13.5 mph21.7 kmh 30.51 in1033.2 mb 0.00 in0.0 mm 0.00 in0.0 mm 0.00 in0.0 mm
01:51 AM 21.7°F-5.7°C 8.5°F-13.1°C 56% 5.8 mph NNW9.3 kmh NNW 13.5 mph21.7 kmh 30.51 in1033.2 mb 0.00 in0.0 mm 0.00 in0.0 mm 0.00 in0.0 mm
01:52 AM 21.7°F-5.7°C 8.8°F-12.9°C 57% 7.8 mph NE12.6 kmh NE 13.5 mph21.7 kmh 30.51 in1033.2 mb 0.00 in0.0 mm 0.00 in0.0 mm 0.00 in0.0 mm
01:53 AM 21.7°F-5.7°C 8.8°F-12.9°C 57% 6.8 mph WNW10.9 kmh WNW 13.5 mph21.7 kmh 30.52 in1033.5 mb 0.00 in0.0 mm 0.00 in0.0 mm 0.00 in0.0 mm
01:54 AM 21.7°F-5.7°C 9.2°F-12.7°C 58% 4.2 mph NE6.8 kmh NE 13.5 mph21.7 kmh 30.52 in1033.5 mb 0.00 in0.0 mm 0.00 in0.0 mm 0.00 in0.0 mm
01:55 AM 21.6°F-5.8°C 8.8°F-12.9°C 57% 8.3 mph NE13.4 kmh NE 13.5 mph21.7 kmh 30.52 in1033.5 mb 0.00 in0.0 mm 0.00 in0.0 mm 0.00 in0.0 mm
01:56 AM 21.6°F-5.8°C 8.8°F-12.9°C 57% 4.2 mph N6.8 kmh N 13.5 mph21.7 kmh 30.52 in1033.5 mb 0.00 in0.0 mm 0.00 in0.0 mm 0.00 in0.0 mm
01:57 AM 21.6°F-5.8°C 9.1°F-12.7°C 58% 5.3 mph NNE8.5 kmh NNE 13.5 mph21.7 kmh 30.52 in1033.5 mb 0.00 in0.0 mm 0.00 in0.0 mm 0.00 in0.0 mm
01:58 AM 21.4°F-5.9°C 8.9°F-12.8°C 58% 4.7 mph NNE7.6 kmh NNE 13.5 mph21.7 kmh 30.52 in1033.5 mb 0.00 in0.0 mm 0.00 in0.0 mm 0.00 in0.0 mm
01:59 AM 21.4°F-5.9°C 8.9°F-12.8°C 58% 8.3 mph NNE13.4 kmh NNE 13.5 mph21.7 kmh 30.52 in1033.5 mb 0.00 in0.0 mm 0.00 in0.0 mm 0.00 in0.0 mm
02:00 AM 21.4°F-5.9°C 8.9°F-12.8°C 58% 5.8 mph NW9.3 kmh NW 13.5 mph21.7 kmh 30.52 in1033.5 mb 0.00 in0.0 mm 0.00 in0.0 mm 0.00 in0.0 mm
02:01 AM 21.4°F-5.9°C 9.3°F-12.6°C 59% 5.8 mph NNW9.3 kmh NNW 8.9 mph14.3 kmh 30.52 in1033.5 mb 0.00 in0.0 mm 0.00 in0.0 mm 0.00 in0.0 mm
02:02 AM 21.4°F-5.9°C 9.3°F-12.6°C 59% 6.8 mph NW10.9 kmh NW 8.9 mph14.3 kmh 30.52 in1033.5 mb 0.00 in0.0 mm 0.00 in0.0 mm 0.00 in0.0 mm
02:03 AM 21.4°F-5.9°C 9.3°F-12.6°C 59% 6.8 mph NNW10.9 kmh NNW 8.9 mph14.3 kmh 30.52 in1033.5 mb 0.00 in0.0 mm 0.00 in0.0 mm 0.00 in0.0 mm
02:04 AM 21.4°F-5.9°C 9.3°F-12.6°C 59% 5.8 mph NNE9.3 kmh NNE 8.9 mph14.3 kmh 30.52 in1033.5 mb 0.00 in0.0 mm 0.00 in0.0 mm 0.00 in0.0 mm
02:05 AM 21.4°F-5.9°C 9.3°F-12.6°C 59% 3.2 mph NE5.1 kmh NE 8.9 mph14.3 kmh 30.52 in1033.5 mb 0.00 in0.0 mm 0.00 in0.0 mm 0.00 in0.0 mm
02:06 AM 21.4°F-5.9°C 9.3°F-12.6°C 59% 5.3 mph WNW8.5 kmh WNW 8.9 mph14.3 kmh 30.52 in1033.5 mb 0.00 in0.0 mm 0.00 in0.0 mm 0.00 in0.0 mm
02:07 AM 21.4°F-5.9°C 9.3°F-12.6°C 59% 4.2 mph N6.8 kmh N 8.9 mph14.3 kmh 30.52 in1033.5 mb 0.00 in0.0 mm 0.00 in0.0 mm 0.00 in0.0 mm
02:08 AM 21.4°F-5.9°C 9.7°F-12.4°C 60% 4.7 mph NNW7.6 kmh NNW 8.9 mph14.3 kmh 30.52 in1033.5 mb 0.00 in0.0 mm 0.00 in0.0 mm 0.00 in0.0 mm
02:09 AM 21.2°F-6.0°C 9.5°F-12.5°C 60% 4.7 mph NNE7.6 kmh NNE 8.9 mph14.3 kmh 30.52 in1033.5 mb 0.00 in0.0 mm 0.00 in0.0 mm 0.00 in0.0 mm
02:10 AM 21.2°F-6.0°C 9.5°F-12.5°C 60% 5.3 mph WSW8.5 kmh WSW 8.9 mph14.3 kmh 30.52 in1033.5 mb 0.00 in0.0 mm 0.00 in0.0 mm 0.00 in0.0 mm
02:11 AM 21.2°F-6.0°C 9.5°F-12.5°C 60% 4.2 mph NNW6.8 kmh NNW 8.9 mph14.3 kmh 30.52 in1033.5 mb 0.00 in0.0 mm 0.00 in0.0 mm 0.00 in0.0 mm
02:12 AM 21.2°F-6.0°C 9.5°F-12.5°C 60% 4.7 mph NNW7.6 kmh NNW 8.9 mph14.3 kmh 30.52 in1033.5 mb 0.00 in0.0 mm 0.00 in0.0 mm 0.00 in0.0 mm
02:13 AM 21.2°F-6.0°C 9.5°F-12.5°C 60% 6.3 mph NNE10.1 kmh NNE 7.8 mph12.6 kmh 30.52 in1033.5 mb 0.00 in0.0 mm 0.00 in0.0 mm 0.00 in0.0 mm
02:14 AM 21.2°F-6.0°C 9.1°F-12.7°C 59% 7.3 mph NE11.7 kmh NE 7.8 mph12.6 kmh 30.52 in1033.5 mb 0.00 in0.0 mm 0.00 in0.0 mm 0.00 in0.0 mm
02:15 AM 21.2°F-6.0°C 9.1°F-12.7°C 59% 7.8 mph NNE12.6 kmh NNE 8.9 mph14.3 kmh 30.52 in1033.5 mb 0.00 in0.0 mm 0.00 in0.0 mm 0.00 in0.0 mm
02:16 AM 21.2°F-6.0°C 8.8°F-12.9°C 58% 10.4 mph N16.7 kmh N 15.0 mph24.1 kmh 30.52 in1033.5 mb 0.00 in0.0 mm 0.00 in0.0 mm 0.00 in0.0 mm
02:17 AM 21.2°F-6.0°C 8.4°F-13.1°C 57% 9.9 mph SSE15.9 kmh SSE 15.0 mph24.1 kmh 30.53 in1033.9 mb 0.00 in0.0 mm 0.00 in0.0 mm 0.00 in0.0 mm
02:18 AM 21.2°F-6.0°C 8.4°F-13.1°C 57% 5.8 mph NNW9.3 kmh NNW 15.0 mph24.1 kmh 30.53 in1033.9 mb 0.00 in0.0 mm 0.00 in0.0 mm 0.00 in0.0 mm
02:19 AM 21.2°F-6.0°C 8.8°F-12.9°C 58% 8.9 mph NE14.3 kmh NE 15.0 mph24.1 kmh 30.53 in1033.9 mb 0.00 in0.0 mm 0.00 in0.0 mm 0.00 in0.0 mm
02:20 AM 21.2°F-6.0°C 8.8°F-12.9°C 58% 6.3 mph NE10.1 kmh NE 15.0 mph24.1 kmh 30.53 in1033.9 mb 0.00 in0.0 mm 0.00 in0.0 mm 0.00 in0.0 mm
02:21 AM 21.2°F-6.0°C 9.1°F-12.7°C 59% 5.3 mph N8.5 kmh N 15.0 mph24.1 kmh 30.53 in1033.9 mb 0.00 in0.0 mm 0.00 in0.0 mm 0.00 in0.0 mm
02:22 AM 21.2°F-6.0°C 9.1°F-12.7°C 59% 7.3 mph NW11.7 kmh NW 15.0 mph24.1 kmh 30.53 in1033.9 mb 0.00 in0.0 mm 0.00 in0.0 mm 0.00 in0.0 mm
02:23 AM 21.2°F-6.0°C 9.1°F-12.7°C 59% 8.3 mph NNE13.4 kmh NNE 15.0 mph24.1 kmh 30.53 in1033.9 mb 0.00 in0.0 mm 0.00 in0.0 mm 0.00 in0.0 mm
02:24 AM 21.2°F-6.0°C 9.1°F-12.7°C 59% 9.4 mph NE15.1 kmh NE 15.0 mph24.1 kmh 30.53 in1033.9 mb 0.00 in0.0 mm 0.00 in0.0 mm 0.00 in0.0 mm
02:25 AM 21.2°F-6.0°C 8.8°F-12.9°C 58% 5.8 mph NE9.3 kmh NE 15.0 mph24.1 kmh 30.53 in1033.9 mb 0.00 in0.0 mm 0.00 in0.0 mm 0.00 in0.0 mm
02:26 AM 21.2°F-6.0°C 8.8°F-12.9°C 58% 7.3 mph NNE11.7 kmh NNE 11.4 mph18.3 kmh 30.53 in1033.9 mb 0.00 in0.0 mm 0.00 in0.0 mm 0.00 in0.0 mm
02:27 AM 21.0°F-6.1°C 8.6°F-13.0°C 58% 9.4 mph ESE15.1 kmh ESE 10.9 mph17.5 kmh 30.53 in1033.9 mb 0.00 in0.0 mm 0.00 in0.0 mm 0.00 in0.0 mm
02:28 AM 21.0°F-6.1°C 8.2°F-13.2°C 57% 9.4 mph NNE15.1 kmh NNE 11.4 mph18.3 kmh 30.53 in1033.9 mb 0.00 in0.0 mm 0.00 in0.0 mm 0.00 in0.0 mm
02:29 AM 21.0°F-6.1°C 8.2°F-13.2°C 57% 7.3 mph NNE11.7 kmh NNE 12.5 mph20.1 kmh 30.53 in1033.9 mb 0.00 in0.0 mm 0.00 in0.0 mm 0.00 in0.0 mm
02:30 AM 21.0°F-6.1°C 8.2°F-13.2°C 57% 10.9 mph ESE17.5 kmh ESE 12.5 mph20.1 kmh 30.53 in1033.9 mb 0.00 in0.0 mm 0.00 in0.0 mm 0.00 in0.0 mm
02:31 AM 21.0°F-6.1°C 8.2°F-13.2°C 57% 12.5 mph NE20.1 kmh NE 12.5 mph20.1 kmh 30.53 in1033.9 mb 0.00 in0.0 mm 0.00 in0.0 mm 0.00 in0.0 mm
02:32 AM 21.0°F-6.1°C 8.2°F-13.2°C 57% 7.8 mph NE12.6 kmh NE 12.5 mph20.1 kmh 30.53 in1033.9 mb 0.00 in0.0 mm 0.00 in0.0 mm 0.00 in0.0 mm
02:33 AM 21.0°F-6.1°C 8.2°F-13.2°C 57% 6.8 mph N10.9 kmh N 12.5 mph20.1 kmh 30.53 in1033.9 mb 0.00 in0.0 mm 0.00 in0.0 mm 0.00 in0.0 mm
02:34 AM 21.0°F-6.1°C 8.2°F-13.2°C 57% 7.3 mph NNE11.7 kmh NNE 12.5 mph20.1 kmh 30.53 in1033.9 mb 0.00 in0.0 mm 0.00 in0.0 mm 0.00 in0.0 mm
02:35 AM 21.0°F-6.1°C 8.6°F-13.0°C 58% 2.7 mph NNE4.3 kmh NNE 12.5 mph20.1 kmh 30.53 in1033.9 mb 0.00 in0.0 mm 0.00 in0.0 mm 0.00 in0.0 mm
02:36 AM 21.0°F-6.1°C 8.6°F-13.0°C 58% 5.8 mph NNE9.3 kmh NNE 12.5 mph20.1 kmh 30.53 in1033.9 mb 0.00 in0.0 mm 0.00 in0.0 mm 0.00 in0.0 mm
02:37 AM 21.0°F-6.1°C 9.0°F-12.8°C 59% 8.9 mph NNE14.3 kmh NNE 12.5 mph20.1 kmh 30.53 in1033.9 mb 0.00 in0.0 mm 0.00 in0.0 mm 0.00 in0.0 mm
02:38 AM 21.0°F-6.1°C 9.0°F-12.8°C 59% 5.8 mph N9.3 kmh N 12.5 mph20.1 kmh 30.53 in1033.9 mb 0.00 in0.0 mm 0.00 in0.0 mm 0.00 in0.0 mm
02:39 AM 20.8°F-6.2°C 8.8°F-12.9°C 59% 7.8 mph NNE12.6 kmh NNE 12.5 mph20.1 kmh 30.53 in1033.9 mb 0.00 in0.0 mm 0.00 in0.0 mm 0.00 in0.0 mm
02:40 AM 20.8°F-6.2°C 8.8°F-12.9°C 59% 7.3 mph NNE11.7 kmh NNE 12.5 mph20.1 kmh 30.53 in1033.9 mb 0.00 in0.0 mm 0.00 in0.0 mm 0.00 in0.0 mm
02:41 AM 20.8°F-6.2°C 8.4°F-13.1°C 58% 5.8 mph NNE9.3 kmh NNE 12.5 mph20.1 kmh 30.53 in1033.9 mb 0.00 in0.0 mm 0.00 in0.0 mm 0.00 in0.0 mm
02:42 AM 20.8°F-6.2°C 8.0°F-13.3°C 57% 13.5 mph NNE21.7 kmh NNE 15.5 mph24.9 kmh 30.53 in1033.9 mb 0.00 in0.0 mm 0.00 in0.0 mm 0.00 in0.0 mm
02:43 AM 20.8°F-6.2°C 8.0°F-13.3°C 57% 9.4 mph NNE15.1 kmh NNE 15.5 mph24.9 kmh 30.53 in1033.9 mb 0.00 in0.0 mm 0.00 in0.0 mm 0.00 in0.0 mm
02:44 AM 20.8°F-6.2°C 7.6°F-13.6°C 56% 7.8 mph ESE12.6 kmh ESE 19.1 mph30.7 kmh 30.53 in1033.9 mb 0.00 in0.0 mm 0.00 in0.0 mm 0.00 in0.0 mm
02:45 AM 20.8°F-6.2°C 7.6°F-13.6°C 56% 8.9 mph NNE14.3 kmh NNE 19.1 mph30.7 kmh 30.53 in1033.9 mb 0.00 in0.0 mm 0.00 in0.0 mm 0.00 in0.0 mm
02:46 AM 20.8°F-6.2°C 8.0°F-13.3°C 57% 10.9 mph NNE17.5 kmh NNE 19.1 mph30.7 kmh 30.53 in1033.9 mb 0.00 in0.0 mm 0.00 in0.0 mm 0.00 in0.0 mm
02:47 AM 20.8°F-6.2°C 7.6°F-13.6°C 56% 14.0 mph NNE22.5 kmh NNE 19.1 mph30.7 kmh 30.53 in1033.9 mb 0.00 in0.0 mm 0.00 in0.0 mm 0.00 in0.0 mm
02:48 AM 20.8°F-6.2°C 7.6°F-13.6°C 56% 10.4 mph NE16.7 kmh NE 19.1 mph30.7 kmh 30.53 in1033.9 mb 0.00 in0.0 mm 0.00 in0.0 mm 0.00 in0.0 mm
02:49 AM 20.8°F-6.2°C 8.0°F-13.3°C 57% 9.4 mph NE15.1 kmh NE 19.1 mph30.7 kmh 30.53 in1033.9 mb 0.00 in0.0 mm 0.00 in0.0 mm 0.00 in0.0 mm
02:50 AM 20.8°F-6.2°C 8.0°F-13.3°C 57% 6.3 mph NNE10.1 kmh NNE 19.1 mph30.7 kmh 30.53 in1033.9 mb 0.00 in0.0 mm 0.00 in0.0 mm 0.00 in0.0 mm
02:51 AM 20.7°F-6.3°C 7.9°F-13.4°C 57% 8.3 mph NNE13.4 kmh NNE 19.1 mph30.7 kmh 30.53 in1033.9 mb 0.00 in0.0 mm 0.00 in0.0 mm 0.00 in0.0 mm
02:52 AM 20.7°F-6.3°C 7.9°F-13.4°C 57% 6.8 mph NNE10.9 kmh NNE 19.1 mph30.7 kmh 30.53 in1033.9 mb 0.00 in0.0 mm 0.00 in0.0 mm 0.00 in0.0 mm
02:53 AM 20.7°F-6.3°C 7.9°F-13.4°C 57% 6.3 mph ENE10.1 kmh ENE 19.1 mph30.7 kmh 30.53 in1033.9 mb 0.00 in0.0 mm 0.00 in0.0 mm 0.00 in0.0 mm
02:54 AM 20.7°F-6.3°C 7.9°F-13.4°C 57% 9.4 mph NNW15.1 kmh NNW 14.0 mph22.5 kmh 30.53 in1033.9 mb 0.00 in0.0 mm 0.00 in0.0 mm 0.00 in0.0 mm
02:55 AM 20.7°F-6.3°C 7.9°F-13.4°C 57% 11.4 mph NNE18.3 kmh NNE 14.0 mph22.5 kmh 30.53 in1033.9 mb 0.00 in0.0 mm 0.00 in0.0 mm 0.00 in0.0 mm
02:56 AM 20.7°F-6.3°C 7.9°F-13.4°C 57% 13.5 mph NNE21.7 kmh NNE 14.0 mph22.5 kmh 30.53 in1033.9 mb 0.00 in0.0 mm 0.00 in0.0 mm 0.00 in0.0 mm
02:57 AM 20.7°F-6.3°C 7.9°F-13.4°C 57% 4.7 mph ENE7.6 kmh ENE 13.5 mph21.7 kmh 30.53 in1033.9 mb 0.00 in0.0 mm 0.00 in0.0 mm 0.00 in0.0 mm
02:58 AM 20.7°F-6.3°C 7.9°F-13.4°C 57% 8.3 mph N13.4 kmh N 13.5 mph21.7 kmh 30.53 in1033.9 mb 0.00 in0.0 mm 0.00 in0.0 mm 0.00 in0.0 mm
02:59 AM 20.5°F-6.4°C 7.7°F-13.5°C 57% 6.3 mph NW10.1 kmh NW 13.5 mph21.7 kmh 30.53 in1033.9 mb 0.00 in0.0 mm 0.00 in0.0 mm 0.00 in0.0 mm
03:00 AM 20.5°F-6.4°C 7.7°F-13.5°C 57% 11.9 mph NNE19.2 kmh NNE 13.5 mph21.7 kmh 30.53 in1033.9 mb 0.00 in0.0 mm 0.00 in0.0 mm 0.00 in0.0 mm
03:01 AM 20.5°F-6.4°C 7.7°F-13.5°C 57% 10.9 mph NNE17.5 kmh NNE 13.5 mph21.7 kmh 30.53 in1033.9 mb 0.00 in0.0 mm 0.00 in0.0 mm 0.00 in0.0 mm
03:02 AM 20.5°F-6.4°C 7.7°F-13.5°C 57% 6.8 mph NNE10.9 kmh NNE 13.5 mph21.7 kmh 30.53 in1033.9 mb 0.00 in0.0 mm 0.00 in0.0 mm 0.00 in0.0 mm
03:03 AM 20.5°F-6.4°C 8.1°F-13.3°C 58% 9.9 mph NNE15.9 kmh NNE 13.5 mph21.7 kmh 30.53 in1033.9 mb 0.00 in0.0 mm 0.00 in0.0 mm 0.00 in0.0 mm
03:04 AM 20.5°F-6.4°C 8.1°F-13.3°C 58% 7.8 mph NNE12.6 kmh NNE 13.5 mph21.7 kmh 30.53 in1033.9 mb 0.00 in0.0 mm 0.00 in0.0 mm 0.00 in0.0 mm
03:05 AM 20.5°F-6.4°C 8.1°F-13.3°C 58% 6.3 mph ESE10.1 kmh ESE 13.5 mph21.7 kmh 30.54 in1034.2 mb 0.00 in0.0 mm 0.00 in0.0 mm 0.00 in0.0 mm
03:06 AM 20.5°F-6.4°C 8.1°F-13.3°C 58% 4.7 mph NNE7.6 kmh NNE 13.5 mph21.7 kmh 30.54 in1034.2 mb 0.00 in0.0 mm 0.00 in0.0 mm 0.00 in0.0 mm
03:07 AM 20.5°F-6.4°C 8.1°F-13.3°C 58% 5.3 mph N8.5 kmh N 13.5 mph21.7 kmh 30.54 in1034.2 mb 0.00 in0.0 mm 0.00 in0.0 mm 0.00 in0.0 mm
03:08 AM 20.3°F-6.5°C 8.3°F-13.2°C 59% 10.4 mph NNE16.7 kmh NNE 13.5 mph21.7 kmh 30.54 in1034.2 mb 0.00 in0.0 mm 0.00 in0.0 mm 0.00 in0.0 mm
03:09 AM 20.3°F-6.5°C 8.3°F-13.2°C 59% 5.8 mph N9.3 kmh N 13.5 mph21.7 kmh 30.54 in1034.2 mb 0.00 in0.0 mm 0.00 in0.0 mm 0.00 in0.0 mm
03:10 AM 20.3°F-6.5°C 8.3°F-13.2°C 59% 6.8 mph E10.9 kmh E 13.5 mph21.7 kmh 30.54 in1034.2 mb 0.00 in0.0 mm 0.00 in0.0 mm 0.00 in0.0 mm
03:11 AM 20.3°F-6.5°C 8.3°F-13.2°C 59% 7.3 mph N11.7 kmh N 12.5 mph20.1 kmh 30.54 in1034.2 mb 0.00 in0.0 mm 0.00 in0.0 mm 0.00 in0.0 mm
03:12 AM 20.3°F-6.5°C 8.3°F-13.2°C 59% 6.3 mph NE10.1 kmh NE 10.4 mph16.7 kmh 30.54 in1034.2 mb 0.00 in0.0 mm 0.00 in0.0 mm 0.00 in0.0 mm
03:13 AM 20.3°F-6.5°C 8.3°F-13.2°C 59% 7.8 mph N12.6 kmh N 10.4 mph16.7 kmh 30.54 in1034.2 mb 0.00 in0.0 mm 0.00 in0.0 mm 0.00 in0.0 mm
03:14 AM 20.3°F-6.5°C 8.3°F-13.2°C 59% 10.4 mph NNE16.7 kmh NNE 10.4 mph16.7 kmh 30.54 in1034.2 mb 0.00 in0.0 mm 0.00 in0.0 mm 0.00 in0.0 mm
03:15 AM 20.3°F-6.5°C 8.3°F-13.2°C 59% 8.3 mph NE13.4 kmh NE 10.4 mph16.7 kmh 30.54 in1034.2 mb 0.00 in0.0 mm 0.00 in0.0 mm 0.00 in0.0 mm
03:16 AM 20.3°F-6.5°C 8.3°F-13.2°C 59% 6.8 mph WNW10.9 kmh WNW 10.4 mph16.7 kmh 30.54 in1034.2 mb 0.00 in0.0 mm 0.00 in0.0 mm 0.00 in0.0 mm
03:17 AM 20.3°F-6.5°C 8.3°F-13.2°C 59% 3.7 mph WNW6.0 kmh WNW 10.4 mph16.7 kmh 30.54 in1034.2 mb 0.00 in0.0 mm 0.00 in0.0 mm 0.00 in0.0 mm
03:18 AM 20.3°F-6.5°C 8.3°F-13.2°C 59% 7.3 mph NNE11.7 kmh NNE 10.4 mph16.7 kmh 30.54 in1034.2 mb 0.00 in0.0 mm 0.00 in0.0 mm 0.00 in0.0 mm
03:19 AM 20.3°F-6.5°C 8.3°F-13.2°C 59% 6.3 mph NE10.1 kmh NE 10.4 mph16.7 kmh 30.54 in1034.2 mb 0.00 in0.0 mm 0.00 in0.0 mm 0.00 in0.0 mm
03:20 AM 20.1°F-6.6°C 8.1°F-13.3°C 59% 4.7 mph E7.6 kmh E 10.4 mph16.7 kmh 30.54 in1034.2 mb 0.00 in0.0 mm 0.00 in0.0 mm 0.00 in0.0 mm
03:21 AM 20.1°F-6.6°C 8.5°F-13.1°C 60% 5.8 mph NE9.3 kmh NE 10.4 mph16.7 kmh 30.54 in1034.2 mb 0.00 in0.0 mm 0.00 in0.0 mm 0.00 in0.0 mm
03:22 AM 20.1°F-6.6°C 8.5°F-13.1°C 60% 10.4 mph N16.7 kmh N 10.4 mph16.7 kmh 30.54 in1034.2 mb 0.00 in0.0 mm 0.00 in0.0 mm 0.00 in0.0 mm
03:23 AM 20.1°F-6.6°C 8.5°F-13.1°C 60% 8.9 mph ENE14.3 kmh ENE 10.4 mph16.7 kmh 30.54 in1034.2 mb 0.00 in0.0 mm 0.00 in0.0 mm 0.00 in0.0 mm
03:29 AM 20.1°F-6.6°C 8.5°F-13.1°C 60% 8.3 mph NNW13.4 kmh NNW 10.4 mph16.7 kmh 30.54 in1034.2 mb 0.00 in0.0 mm 0.00 in0.0 mm 0.00 in0.0 mm
03:30 AM 20.1°F-6.6°C 8.1°F-13.3°C 59% 6.3 mph NNE10.1 kmh NNE 10.4 mph16.7 kmh 30.54 in1034.2 mb 0.00 in0.0 mm 0.00 in0.0 mm 0.00 in0.0 mm
03:31 AM 20.1°F-6.6°C 8.1°F-13.3°C 59% 13.0 mph NE20.9 kmh NE 13.0 mph20.9 kmh 30.54 in1034.2 mb 0.00 in0.0 mm 0.00 in0.0 mm 0.00 in0.0 mm
03:32 AM 20.1°F-6.6°C 8.1°F-13.3°C 59% 7.8 mph NNE12.6 kmh NNE 13.0 mph20.9 kmh 30.54 in1034.2 mb 0.00 in0.0 mm 0.00 in0.0 mm 0.00 in0.0 mm
03:33 AM 20.1°F-6.6°C 8.1°F-13.3°C 59% 7.8 mph N12.6 kmh N 13.0 mph20.9 kmh 30.54 in1034.2 mb 0.00 in0.0 mm 0.00 in0.0 mm 0.00 in0.0 mm
03:34 AM 20.1°F-6.6°C 8.1°F-13.3°C 59% 9.9 mph NE15.9 kmh NE 13.0 mph20.9 kmh 30.54 in1034.2 mb 0.00 in0.0 mm 0.00 in0.0 mm 0.00 in0.0 mm
03:35 AM 20.1°F-6.6°C 8.1°F-13.3°C 59% 9.9 mph NNE15.9 kmh NNE 13.0 mph20.9 kmh 30.54 in1034.2 mb 0.00 in0.0 mm 0.00 in0.0 mm 0.00 in0.0 mm
03:36 AM 20.1°F-6.6°C 8.1°F-13.3°C 59% 7.3 mph NNE11.7 kmh NNE 13.0 mph20.9 kmh 30.54 in1034.2 mb 0.00 in0.0 mm 0.00 in0.0 mm 0.00 in0.0 mm
03:37 AM 20.1°F-6.6°C 8.1°F-13.3°C 59% 7.8 mph NW12.6 kmh NW 13.0 mph20.9 kmh 30.54 in1034.2 mb 0.00 in0.0 mm 0.00 in0.0 mm 0.00 in0.0 mm
03:38 AM 20.1°F-6.6°C 8.1°F-13.3°C 59% 10.4 mph ENE16.7 kmh ENE 13.0 mph20.9 kmh 30.54 in1034.2 mb 0.00 in0.0 mm 0.00 in0.0 mm 0.00 in0.0 mm
03:39 AM 20.1°F-6.6°C 8.1°F-13.3°C 59% 10.9 mph ENE17.5 kmh ENE 13.0 mph20.9 kmh 30.54 in1034.2 mb 0.00 in0.0 mm 0.00 in0.0 mm 0.00 in0.0 mm
03:40 AM 20.1°F-6.6°C 8.1°F-13.3°C 59% 11.9 mph NNE19.2 kmh NNE 13.0 mph20.9 kmh 30.54 in1034.2 mb 0.00 in0.0 mm 0.00 in0.0 mm 0.00 in0.0 mm
03:41 AM 19.9°F-6.7°C 7.9°F-13.4°C 59% 15.0 mph NNE24.1 kmh NNE 15.0 mph24.1 kmh 30.54 in1034.2 mb 0.00 in0.0 mm 0.00 in0.0 mm 0.00 in0.0 mm
03:42 AM 19.9°F-6.7°C 7.5°F-13.6°C 58% 12.5 mph ENE20.1 kmh ENE 15.5 mph24.9 kmh 30.54 in1034.2 mb 0.00 in0.0 mm 0.00 in0.0 mm 0.00 in0.0 mm
03:43 AM 19.9°F-6.7°C 7.5°F-13.6°C 58% 9.4 mph N15.1 kmh N 15.5 mph24.9 kmh 30.54 in1034.2 mb 0.00 in0.0 mm 0.00 in0.0 mm 0.00 in0.0 mm
03:44 AM 19.9°F-6.7°C 7.5°F-13.6°C 58% 6.8 mph NNE10.9 kmh NNE 15.5 mph24.9 kmh 30.54 in1034.2 mb 0.00 in0.0 mm 0.00 in0.0 mm 0.00 in0.0 mm
03:45 AM 19.9°F-6.7°C 7.9°F-13.4°C 59% 8.9 mph ESE14.3 kmh ESE 15.5 mph24.9 kmh 30.54 in1034.2 mb 0.00 in0.0 mm 0.00 in0.0 mm 0.00 in0.0 mm
03:46 AM 19.9°F-6.7°C 7.9°F-13.4°C 59% 9.4 mph NNE15.1 kmh NNE 15.5 mph24.9 kmh 30.54 in1034.2 mb 0.00 in0.0 mm 0.00 in0.0 mm 0.00 in0.0 mm
03:47 AM 19.9°F-6.7°C 7.9°F-13.4°C 59% 10.4 mph NNE16.7 kmh NNE 15.5 mph24.9 kmh 30.54 in1034.2 mb 0.00 in0.0 mm 0.00 in0.0 mm 0.00 in0.0 mm
03:48 AM 19.9°F-6.7°C 7.9°F-13.4°C 59% 5.3 mph NNE8.5 kmh NNE 15.5 mph24.9 kmh 30.54 in1034.2 mb 0.00 in0.0 mm 0.00 in0.0 mm 0.00 in0.0 mm
03:49 AM 19.9°F-6.7°C 7.9°F-13.4°C 59% 9.4 mph NNW15.1 kmh NNW 15.5 mph24.9 kmh 30.54 in1034.2 mb 0.00 in0.0 mm 0.00 in0.0 mm 0.00 in0.0 mm
03:50 AM 19.9°F-6.7°C 7.9°F-13.4°C 59% 7.8 mph NE12.6 kmh NE 15.5 mph24.9 kmh 30.54 in1034.2 mb 0.00 in0.0 mm 0.00 in0.0 mm 0.00 in0.0 mm
03:51 AM 19.8°F-6.8°C 7.8°F-13.4°C 59% 7.3 mph NNE11.7 kmh NNE 15.5 mph24.9 kmh 30.54 in1034.2 mb 0.00 in0.0 mm 0.00 in0.0 mm 0.00 in0.0 mm
03:52 AM 19.8°F-6.8°C 7.8°F-13.4°C 59% 10.4 mph NNE16.7 kmh NNE 15.0 mph24.1 kmh 30.54 in1034.2 mb 0.00 in0.0 mm 0.00 in0.0 mm 0.00 in0.0 mm
03:53 AM 19.8°F-6.8°C 7.8°F-13.4°C 59% 10.4 mph N16.7 kmh N 14.0 mph22.5 kmh 30.55 in1034.5 mb 0.00 in0.0 mm 0.00 in0.0 mm 0.00 in0.0 mm
03:54 AM 19.8°F-6.8°C 7.8°F-13.4°C 59% 9.4 mph NNW15.1 kmh NNW 14.0 mph22.5 kmh 30.55 in1034.5 mb 0.00 in0.0 mm 0.00 in0.0 mm 0.00 in0.0 mm
03:55 AM 19.8°F-6.8°C 7.8°F-13.4°C 59% 9.4 mph NNE15.1 kmh NNE 14.0 mph22.5 kmh 30.55 in1034.5 mb 0.00 in0.0 mm 0.00 in0.0 mm 0.00 in0.0 mm
03:56 AM 19.8°F-6.8°C 7.8°F-13.4°C 59% 8.3 mph NNW13.4 kmh NNW 14.0 mph22.5 kmh 30.55 in1034.5 mb 0.00 in0.0 mm 0.00 in0.0 mm 0.00 in0.0 mm
03:57 AM 19.8°F-6.8°C 7.8°F-13.4°C 59% 8.3 mph N13.4 kmh N 14.0 mph22.5 kmh 30.55 in1034.5 mb 0.00 in0.0 mm 0.00 in0.0 mm 0.00 in0.0 mm
03:58 AM 19.8°F-6.8°C 7.8°F-13.4°C 59% 5.8 mph N9.3 kmh N 14.0 mph22.5 kmh 30.55 in1034.5 mb 0.00 in0.0 mm 0.00 in0.0 mm 0.00 in0.0 mm
03:59 AM 19.8°F-6.8°C 7.8°F-13.4°C 59% 9.9 mph NNE15.9 kmh NNE 14.0 mph22.5 kmh 30.55 in1034.5 mb 0.00 in0.0 mm 0.00 in0.0 mm 0.00 in0.0 mm
04:00 AM 19.8°F-6.8°C 7.8°F-13.4°C 59% 9.4 mph NNW15.1 kmh NNW 14.0 mph22.5 kmh 30.55 in1034.5 mb 0.00 in0.0 mm 0.00 in0.0 mm 0.00 in0.0 mm
04:01 AM 19.8°F-6.8°C 7.8°F-13.4°C 59% 8.9 mph NNE14.3 kmh NNE 15.0 mph24.1 kmh 30.55 in1034.5 mb 0.00 in0.0 mm 0.00 in0.0 mm 0.00 in0.0 mm
04:02 AM 19.8°F-6.8°C 7.8°F-13.4°C 59% 7.3 mph NNE11.7 kmh NNE 15.0 mph24.1 kmh 30.55 in1034.5 mb 0.00 in0.0 mm 0.00 in0.0 mm 0.00 in0.0 mm
04:03 AM 19.8°F-6.8°C 7.8°F-13.4°C 59% 5.3 mph SSE8.5 kmh SSE 15.0 mph24.1 kmh 30.55 in1034.5 mb 0.00 in0.0 mm 0.00 in0.0 mm 0.00 in0.0 mm
04:04 AM 19.8°F-6.8°C 8.2°F-13.2°C 60% 5.3 mph NW8.5 kmh NW 15.0 mph24.1 kmh 30.55 in1034.5 mb 0.00 in0.0 mm 0.00 in0.0 mm 0.00 in0.0 mm
04:05 AM 19.8°F-6.8°C 8.2°F-13.2°C 60% 7.3 mph SSW11.7 kmh SSW 15.0 mph24.1 kmh 30.55 in1034.5 mb 0.00 in0.0 mm 0.00 in0.0 mm 0.00 in0.0 mm
04:06 AM 19.6°F-6.9°C 8.0°F-13.3°C 60% 6.3 mph NNW10.1 kmh NNW 15.0 mph24.1 kmh 30.55 in1034.5 mb 0.00 in0.0 mm 0.00 in0.0 mm 0.00 in0.0 mm
04:07 AM 19.6°F-6.9°C 8.0°F-13.3°C 60% 9.9 mph NNE15.9 kmh NNE 15.0 mph24.1 kmh 30.55 in1034.5 mb 0.00 in0.0 mm 0.00 in0.0 mm 0.00 in0.0 mm
04:08 AM 19.6°F-6.9°C 7.6°F-13.6°C 59% 7.3 mph NNE11.7 kmh NNE 15.0 mph24.1 kmh 30.55 in1034.5 mb 0.00 in0.0 mm 0.00 in0.0 mm 0.00 in0.0 mm
04:09 AM 19.6°F-6.9°C 8.0°F-13.3°C 60% 8.9 mph NW14.3 kmh NW 15.0 mph24.1 kmh 30.55 in1034.5 mb 0.00 in0.0 mm 0.00 in0.0 mm 0.00 in0.0 mm
04:10 AM 19.6°F-6.9°C 8.0°F-13.3°C 60% 5.3 mph NNE8.5 kmh NNE 15.0 mph24.1 kmh 30.55 in1034.5 mb 0.00 in0.0 mm 0.00 in0.0 mm 0.00 in0.0 mm
04:11 AM 19.6°F-6.9°C 8.0°F-13.3°C 60% 6.8 mph NW10.9 kmh NW 14.0 mph22.5 kmh 30.55 in1034.5 mb 0.00 in0.0 mm 0.00 in0.0 mm 0.00 in0.0 mm
04:12 AM 19.6°F-6.9°C 8.0°F-13.3°C 60% 6.3 mph NNE10.1 kmh NNE 14.0 mph22.5 kmh 30.55 in1034.5 mb 0.00 in0.0 mm 0.00 in0.0 mm 0.00 in0.0 mm
04:13 AM 19.6°F-6.9°C 8.0°F-13.3°C 60% 5.3 mph NNW8.5 kmh NNW 14.0 mph22.5 kmh 30.55 in1034.5 mb 0.00 in0.0 mm 0.00 in0.0 mm 0.00 in0.0 mm
04:14 AM 19.6°F-6.9°C 8.0°F-13.3°C 60% 13.5 mph NE21.7 kmh NE 14.0 mph22.5 kmh 30.55 in1034.5 mb 0.00 in0.0 mm 0.00 in0.0 mm 0.00 in0.0 mm
04:15 AM 19.6°F-6.9°C 8.0°F-13.3°C 60% 6.8 mph N10.9 kmh N 14.0 mph22.5 kmh 30.55 in1034.5 mb 0.00 in0.0 mm 0.00 in0.0 mm 0.00 in0.0 mm
04:16 AM 19.6°F-6.9°C 8.0°F-13.3°C 60% 8.9 mph NNW14.3 kmh NNW 14.0 mph22.5 kmh 30.55 in1034.5 mb 0.00 in0.0 mm 0.00 in0.0 mm 0.00 in0.0 mm
04:17 AM 19.6°F-6.9°C 8.0°F-13.3°C 60% 11.4 mph NNE18.3 kmh NNE 13.5 mph21.7 kmh 30.55 in1034.5 mb 0.00 in0.0 mm 0.00 in0.0 mm 0.00 in0.0 mm
04:18 AM 19.4°F-7.0°C 7.4°F-13.7°C 59% 5.3 mph NE8.5 kmh NE 13.5 mph21.7 kmh 30.55 in1034.5 mb 0.00 in0.0 mm 0.00 in0.0 mm 0.00 in0.0 mm
04:19 AM 19.4°F-7.0°C 7.8°F-13.4°C 60% 6.3 mph ENE10.1 kmh ENE 13.5 mph21.7 kmh 30.55 in1034.5 mb 0.00 in0.0 mm 0.00 in0.0 mm 0.00 in0.0 mm
04:20 AM 19.4°F-7.0°C 7.8°F-13.4°C 60% 6.8 mph NNE10.9 kmh NNE 13.5 mph21.7 kmh 30.55 in1034.5 mb 0.00 in0.0 mm 0.00 in0.0 mm 0.00 in0.0 mm
04:21 AM 19.4°F-7.0°C 7.8°F-13.4°C 60% 6.8 mph WSW10.9 kmh WSW 13.5 mph21.7 kmh 30.55 in1034.5 mb 0.00 in0.0 mm 0.00 in0.0 mm 0.00 in0.0 mm
04:22 AM 19.4°F-7.0°C 7.8°F-13.4°C 60% 9.4 mph WSW15.1 kmh WSW 13.5 mph21.7 kmh 30.55 in1034.5 mb 0.00 in0.0 mm 0.00 in0.0 mm 0.00 in0.0 mm
04:23 AM 19.4°F-7.0°C 7.8°F-13.4°C 60% 9.4 mph NNE15.1 kmh NNE 13.5 mph21.7 kmh 30.55 in1034.5 mb 0.00 in0.0 mm 0.00 in0.0 mm 0.00 in0.0 mm
04:24 AM 19.4°F-7.0°C 7.8°F-13.4°C 60% 9.4 mph NNE15.1 kmh NNE 13.5 mph21.7 kmh 30.55 in1034.5 mb 0.00 in0.0 mm 0.00 in0.0 mm 0.00 in0.0 mm
04:25 AM 19.4°F-7.0°C 7.8°F-13.4°C 60% 11.9 mph NNW19.2 kmh NNW 13.0 mph20.9 kmh 30.55 in1034.5 mb 0.00 in0.0 mm 0.00 in0.0 mm 0.00 in0.0 mm
04:26 AM 19.4°F-7.0°C 7.8°F-13.4°C 60% 6.8 mph NNE10.9 kmh NNE 13.0 mph20.9 kmh 30.55 in1034.5 mb 0.00 in0.0 mm 0.00 in0.0 mm 0.00 in0.0 mm
04:27 AM 19.4°F-7.0°C 7.8°F-13.4°C 60% 8.3 mph NE13.4 kmh NE 11.9 mph19.2 kmh 30.55 in1034.5 mb 0.00 in0.0 mm 0.00 in0.0 mm 0.00 in0.0 mm
04:28 AM 19.4°F-7.0°C 7.8°F-13.4°C 60% 9.9 mph NNE15.9 kmh NNE 11.9 mph19.2 kmh 30.55 in1034.5 mb 0.00 in0.0 mm 0.00 in0.0 mm 0.00 in0.0 mm
04:34 AM 19.2°F-7.1°C 8.0°F-13.3°C 61% 7.3 mph NNE11.7 kmh NNE 11.9 mph19.2 kmh 30.56 in1034.9 mb 0.00 in0.0 mm 0.00 in0.0 mm 0.00 in0.0 mm
04:35 AM 19.2°F-7.1°C 8.0°F-13.3°C 61% 11.9 mph NNE19.2 kmh NNE 11.9 mph19.2 kmh 30.56 in1034.9 mb 0.00 in0.0 mm 0.00 in0.0 mm 0.00 in0.0 mm
04:36 AM 19.2°F-7.1°C 8.0°F-13.3°C 61% 13.5 mph N21.7 kmh N 13.5 mph21.7 kmh 30.56 in1034.9 mb 0.00 in0.0 mm 0.00 in0.0 mm 0.00 in0.0 mm
04:37 AM 19.2°F-7.1°C 7.3°F-13.7°C 59% 11.9 mph NE19.2 kmh NE 13.5 mph21.7 kmh 30.56 in1034.9 mb 0.00 in0.0 mm 0.00 in0.0 mm 0.00 in0.0 mm
04:38 AM 19.2°F-7.1°C 7.3°F-13.7°C 59% 7.8 mph NNE12.6 kmh NNE 13.5 mph21.7 kmh 30.56 in1034.9 mb 0.00 in0.0 mm 0.00 in0.0 mm 0.00 in0.0 mm
04:39 AM 19.0°F-7.2°C 7.4°F-13.7°C 60% 8.3 mph NNW13.4 kmh NNW 13.5 mph21.7 kmh 30.56 in1034.9 mb 0.00 in0.0 mm 0.00 in0.0 mm 0.00 in0.0 mm
04:40 AM 19.0°F-7.2°C 7.4°F-13.7°C 60% 10.9 mph N17.5 kmh N 13.5 mph21.7 kmh 30.55 in1034.5 mb 0.00 in0.0 mm 0.00 in0.0 mm 0.00 in0.0 mm
04:41 AM 19.0°F-7.2°C 7.4°F-13.7°C 60% 10.4 mph NNE16.7 kmh NNE 13.5 mph21.7 kmh 30.55 in1034.5 mb 0.00 in0.0 mm 0.00 in0.0 mm 0.00 in0.0 mm
04:42 AM 19.0°F-7.2°C 7.4°F-13.7°C 60% 11.9 mph SE19.2 kmh SE 13.5 mph21.7 kmh 30.55 in1034.5 mb 0.00 in0.0 mm 0.00 in0.0 mm 0.00 in0.0 mm
04:43 AM 19.0°F-7.2°C 7.1°F-13.8°C 59% 9.9 mph NNE15.9 kmh NNE 13.5 mph21.7 kmh 30.55 in1034.5 mb 0.00 in0.0 mm 0.00 in0.0 mm 0.00 in0.0 mm
04:44 AM 19.0°F-7.2°C 7.1°F-13.8°C 59% 8.9 mph NNE14.3 kmh NNE 13.5 mph21.7 kmh 30.55 in1034.5 mb 0.00 in0.0 mm 0.00 in0.0 mm 0.00 in0.0 mm
04:45 AM 19.0°F-7.2°C 7.1°F-13.8°C 59% 8.3 mph N13.4 kmh N 13.5 mph21.7 kmh 30.55 in1034.5 mb 0.00 in0.0 mm 0.00 in0.0 mm 0.00 in0.0 mm
04:46 AM 19.0°F-7.2°C 7.4°F-13.7°C 60% 9.4 mph N15.1 kmh N 13.5 mph21.7 kmh 30.55 in1034.5 mb 0.00 in0.0 mm 0.00 in0.0 mm 0.00 in0.0 mm
04:47 AM 19.0°F-7.2°C 7.8°F-13.4°C 61% 5.8 mph NNE9.3 kmh NNE 11.9 mph19.2 kmh 30.55 in1034.5 mb 0.00 in0.0 mm 0.00 in0.0 mm 0.00 in0.0 mm
04:48 AM 19.0°F-7.2°C 7.4°F-13.7°C 60% 6.3 mph NNE10.1 kmh NNE 11.9 mph19.2 kmh 30.55 in1034.5 mb 0.00 in0.0 mm 0.00 in0.0 mm 0.00 in0.0 mm
04:49 AM 18.9°F-7.3°C 7.3°F-13.7°C 60% 3.7 mph NW6.0 kmh NW 11.9 mph19.2 kmh 30.55 in1034.5 mb 0.00 in0.0 mm 0.00 in0.0 mm 0.00 in0.0 mm
04:50 AM 18.9°F-7.3°C 7.7°F-13.5°C 61% 7.3 mph NE11.7 kmh NE 11.9 mph19.2 kmh 30.55 in1034.5 mb 0.00 in0.0 mm 0.00 in0.0 mm 0.00 in0.0 mm
04:51 AM 18.9°F-7.3°C 7.7°F-13.5°C 61% 13.5 mph N21.7 kmh N 13.5 mph21.7 kmh 30.55 in1034.5 mb 0.00 in0.0 mm 0.00 in0.0 mm 0.00 in0.0 mm
04:52 AM 18.9°F-7.3°C 7.7°F-13.5°C 61% 10.4 mph NNE16.7 kmh NNE 13.5 mph21.7 kmh 30.55 in1034.5 mb 0.00 in0.0 mm 0.00 in0.0 mm 0.00 in0.0 mm
04:53 AM 18.9°F-7.3°C 7.3°F-13.7°C 60% 8.3 mph NE13.4 kmh NE 13.5 mph21.7 kmh 30.56 in1034.9 mb 0.00 in0.0 mm 0.00 in0.0 mm 0.00 in0.0 mm
04:54 AM 18.9°F-7.3°C 7.3°F-13.7°C 60% 9.9 mph ESE15.9 kmh ESE 13.5 mph21.7 kmh 30.56 in1034.9 mb 0.00 in0.0 mm 0.00 in0.0 mm 0.00 in0.0 mm
04:55 AM 18.9°F-7.3°C 7.3°F-13.7°C 60% 6.3 mph NNE10.1 kmh NNE 13.5 mph21.7 kmh 30.56 in1034.9 mb 0.00 in0.0 mm 0.00 in0.0 mm 0.00 in0.0 mm
04:56 AM 18.9°F-7.3°C 7.3°F-13.7°C 60% 10.4 mph NNE16.7 kmh NNE 13.5 mph21.7 kmh 30.56 in1034.9 mb 0.00 in0.0 mm 0.00 in0.0 mm 0.00 in0.0 mm
04:57 AM 18.9°F-7.3°C 7.3°F-13.7°C 60% 7.8 mph NE12.6 kmh NE 13.5 mph21.7 kmh 30.56 in1034.9 mb 0.00 in0.0 mm 0.00 in0.0 mm 0.00 in0.0 mm
04:58 AM 18.9°F-7.3°C 7.7°F-13.5°C 61% 8.9 mph NNE14.3 kmh NNE 13.5 mph21.7 kmh 30.56 in1034.9 mb 0.00 in0.0 mm 0.00 in0.0 mm 0.00 in0.0 mm
04:59 AM 18.9°F-7.3°C 7.7°F-13.5°C 61% 5.3 mph ESE8.5 kmh ESE 13.5 mph21.7 kmh 30.56 in1034.9 mb 0.00 in0.0 mm 0.00 in0.0 mm 0.00 in0.0 mm
05:00 AM 18.9°F-7.3°C 7.7°F-13.5°C 61% 6.3 mph SSE10.1 kmh SSE 13.5 mph21.7 kmh 30.56 in1034.9 mb 0.00 in0.0 mm 0.00 in0.0 mm 0.00 in0.0 mm
05:01 AM 18.9°F-7.3°C 7.7°F-13.5°C 61% 2.7 mph NNW4.3 kmh NNW 13.5 mph21.7 kmh 30.56 in1034.9 mb 0.00 in0.0 mm 0.00 in0.0 mm 0.00 in0.0 mm
05:02 AM 18.9°F-7.3°C 7.7°F-13.5°C 61% 4.7 mph NW7.6 kmh NW 12.5 mph20.1 kmh 30.56 in1034.9 mb 0.00 in0.0 mm 0.00 in0.0 mm 0.00 in0.0 mm
05:03 AM 18.9°F-7.3°C 8.1°F-13.3°C 62% 4.2 mph N6.8 kmh N 12.5 mph20.1 kmh 30.56 in1034.9 mb 0.00 in0.0 mm 0.00 in0.0 mm 0.00 in0.0 mm
05:04 AM 18.9°F-7.3°C 8.1°F-13.3°C 62% 6.8 mph NNW10.9 kmh NNW 12.5 mph20.1 kmh 30.56 in1034.9 mb 0.00 in0.0 mm 0.00 in0.0 mm 0.00 in0.0 mm
05:06 AM 18.9°F-7.3°C 8.1°F-13.3°C 62% 12.5 mph NNE20.1 kmh NNE 12.5 mph20.1 kmh 30.57 in1035.2 mb 0.00 in0.0 mm 0.00 in0.0 mm 0.00 in0.0 mm
05:07 AM 18.9°F-7.3°C 7.7°F-13.5°C 61% 9.4 mph NE15.1 kmh NE 12.5 mph20.1 kmh 30.57 in1035.2 mb 0.00 in0.0 mm 0.00 in0.0 mm 0.00 in0.0 mm
05:08 AM 18.9°F-7.3°C 7.7°F-13.5°C 61% 9.4 mph NNE15.1 kmh NNE 12.5 mph20.1 kmh 30.57 in1035.2 mb 0.00 in0.0 mm 0.00 in0.0 mm 0.00 in0.0 mm
05:09 AM 18.9°F-7.3°C 7.7°F-13.5°C 61% 6.8 mph NNW10.9 kmh NNW 12.5 mph20.1 kmh 30.57 in1035.2 mb 0.00 in0.0 mm 0.00 in0.0 mm 0.00 in0.0 mm
05:10 AM 18.9°F-7.3°C 7.7°F-13.5°C 61% 7.3 mph NNW11.7 kmh NNW 14.0 mph22.5 kmh 30.57 in1035.2 mb 0.00 in0.0 mm 0.00 in0.0 mm 0.00 in0.0 mm
05:11 AM 18.9°F-7.3°C 7.7°F-13.5°C 61% 8.3 mph W13.4 kmh W 14.0 mph22.5 kmh 30.57 in1035.2 mb 0.00 in0.0 mm 0.00 in0.0 mm 0.00 in0.0 mm
05:12 AM 18.9°F-7.3°C 7.7°F-13.5°C 61% 8.3 mph NE13.4 kmh NE 14.0 mph22.5 kmh 30.57 in1035.2 mb 0.00 in0.0 mm 0.00 in0.0 mm 0.00 in0.0 mm
05:13 AM 18.9°F-7.3°C 8.1°F-13.3°C 62% 10.9 mph NNE17.5 kmh NNE 14.0 mph22.5 kmh 30.57 in1035.2 mb 0.00 in0.0 mm 0.00 in0.0 mm 0.00 in0.0 mm
05:14 AM 18.9°F-7.3°C 8.1°F-13.3°C 62% 6.3 mph NNE10.1 kmh NNE 14.0 mph22.5 kmh 30.57 in1035.2 mb 0.00 in0.0 mm 0.00 in0.0 mm 0.00 in0.0 mm
05:15 AM 18.9°F-7.3°C 7.7°F-13.5°C 61% 3.2 mph NNE5.1 kmh NNE 14.0 mph22.5 kmh 30.57 in1035.2 mb 0.00 in0.0 mm 0.00 in0.0 mm 0.00 in0.0 mm
05:16 AM 18.9°F-7.3°C 7.7°F-13.5°C 61% 7.3 mph NNE11.7 kmh NNE 14.0 mph22.5 kmh 30.57 in1035.2 mb 0.00 in0.0 mm 0.00 in0.0 mm 0.00 in0.0 mm
05:17 AM 18.9°F-7.3°C 7.7°F-13.5°C 61% 6.8 mph NNE10.9 kmh NNE 14.0 mph22.5 kmh 30.57 in1035.2 mb 0.00 in0.0 mm 0.00 in0.0 mm 0.00 in0.0 mm
05:18 AM 18.9°F-7.3°C 7.7°F-13.5°C 61% 11.9 mph NW19.2 kmh NW 14.0 mph22.5 kmh 30.57 in1035.2 mb 0.00 in0.0 mm 0.00 in0.0 mm 0.00 in0.0 mm
05:19 AM 18.9°F-7.3°C 7.7°F-13.5°C 61% 13.0 mph NW20.9 kmh NW 14.0 mph22.5 kmh 30.57 in1035.2 mb 0.00 in0.0 mm 0.00 in0.0 mm 0.00 in0.0 mm
05:20 AM 18.9°F-7.3°C 7.7°F-13.5°C 61% 8.3 mph NNE13.4 kmh NNE 13.0 mph20.9 kmh 30.57 in1035.2 mb 0.00 in0.0 mm 0.00 in0.0 mm 0.00 in0.0 mm
05:21 AM 18.9°F-7.3°C 7.3°F-13.7°C 60% 14.5 mph NE23.3 kmh NE 14.5 mph23.3 kmh 30.57 in1035.2 mb 0.00 in0.0 mm 0.00 in0.0 mm 0.00 in0.0 mm
05:22 AM 18.9°F-7.3°C 7.3°F-13.7°C 60% 7.8 mph N12.6 kmh N 14.5 mph23.3 kmh 30.57 in1035.2 mb 0.00 in0.0 mm 0.00 in0.0 mm 0.00 in0.0 mm
05:23 AM 18.9°F-7.3°C 7.3°F-13.7°C 60% 10.4 mph N16.7 kmh N 14.5 mph23.3 kmh 30.57 in1035.2 mb 0.00 in0.0 mm 0.00 in0.0 mm 0.00 in0.0 mm
05:24 AM 18.9°F-7.3°C 7.3°F-13.7°C 60% 7.3 mph NE11.7 kmh NE 14.5 mph23.3 kmh 30.57 in1035.2 mb 0.00 in0.0 mm 0.00 in0.0 mm 0.00 in0.0 mm
05:25 AM 18.9°F-7.3°C 7.3°F-13.7°C 60% 7.3 mph NNE11.7 kmh NNE 14.5 mph23.3 kmh 30.57 in1035.2 mb 0.00 in0.0 mm 0.00 in0.0 mm 0.00 in0.0 mm
05:26 AM 18.7°F-7.4°C 7.5°F-13.6°C 61% 9.9 mph NNE15.9 kmh NNE 14.5 mph23.3 kmh 30.57 in1035.2 mb 0.00 in0.0 mm 0.00 in0.0 mm 0.00 in0.0 mm
05:27 AM 18.7°F-7.4°C 7.5°F-13.6°C 61% 8.9 mph NE14.3 kmh NE 14.5 mph23.3 kmh 30.57 in1035.2 mb 0.00 in0.0 mm 0.00 in0.0 mm 0.00 in0.0 mm
05:28 AM 18.7°F-7.4°C 7.5°F-13.6°C 61% 10.9 mph NNE17.5 kmh NNE 14.5 mph23.3 kmh 30.57 in1035.2 mb 0.00 in0.0 mm 0.00 in0.0 mm 0.00 in0.0 mm
05:29 AM 18.7°F-7.4°C 7.5°F-13.6°C 61% 9.4 mph NE15.1 kmh NE 14.5 mph23.3 kmh 30.57 in1035.2 mb 0.00 in0.0 mm 0.00 in0.0 mm 0.00 in0.0 mm
05:30 AM 18.7°F-7.4°C 7.5°F-13.6°C 61% 8.3 mph NNE13.4 kmh NNE 14.5 mph23.3 kmh 30.57 in1035.2 mb 0.00 in0.0 mm 0.00 in0.0 mm 0.00 in0.0 mm
05:31 AM 18.7°F-7.4°C 7.5°F-13.6°C 61% 7.3 mph NNE11.7 kmh NNE 12.5 mph20.1 kmh 30.57 in1035.2 mb 0.00 in0.0 mm 0.00 in0.0 mm 0.00 in0.0 mm
05:32 AM 18.7°F-7.4°C 7.5°F-13.6°C 61% 5.3 mph NNE8.5 kmh NNE 12.5 mph20.1 kmh 30.57 in1035.2 mb 0.00 in0.0 mm 0.00 in0.0 mm 0.00 in0.0 mm
05:33 AM 18.7°F-7.4°C 7.5°F-13.6°C 61% 5.3 mph NE8.5 kmh NE 12.5 mph20.1 kmh 30.57 in1035.2 mb 0.00 in0.0 mm 0.00 in0.0 mm 0.00 in0.0 mm
05:34 AM 18.5°F-7.5°C 7.3°F-13.7°C 61% 10.9 mph NE17.5 kmh NE 12.5 mph20.1 kmh 30.57 in1035.2 mb 0.00 in0.0 mm 0.00 in0.0 mm 0.00 in0.0 mm
05:35 AM 18.5°F-7.5°C 7.3°F-13.7°C 61% 5.8 mph NNE9.3 kmh NNE 12.5 mph20.1 kmh 30.57 in1035.2 mb 0.00 in0.0 mm 0.00 in0.0 mm 0.00 in0.0 mm
05:36 AM 18.5°F-7.5°C 7.3°F-13.7°C 61% 8.9 mph NE14.3 kmh NE 12.5 mph20.1 kmh 30.57 in1035.2 mb 0.00 in0.0 mm 0.00 in0.0 mm 0.00 in0.0 mm
05:37 AM 18.5°F-7.5°C 7.3°F-13.7°C 61% 9.9 mph NNE15.9 kmh NNE 13.0 mph20.9 kmh 30.57 in1035.2 mb 0.00 in0.0 mm 0.00 in0.0 mm 0.00 in0.0 mm
05:38 AM 18.5°F-7.5°C 7.3°F-13.7°C 61% 6.8 mph NNE10.9 kmh NNE 13.0 mph20.9 kmh 30.57 in1035.2 mb 0.00 in0.0 mm 0.00 in0.0 mm 0.00 in0.0 mm
05:39 AM 18.5°F-7.5°C 7.3°F-13.7°C 61% 8.3 mph NNE13.4 kmh NNE 13.0 mph20.9 kmh 30.57 in1035.2 mb 0.00 in0.0 mm 0.00 in0.0 mm 0.00 in0.0 mm
05:40 AM 18.5°F-7.5°C 7.3°F-13.7°C 61% 5.3 mph NNE8.5 kmh NNE 13.0 mph20.9 kmh 30.57 in1035.2 mb 0.00 in0.0 mm 0.00 in0.0 mm 0.00 in0.0 mm
05:41 AM 18.5°F-7.5°C 7.3°F-13.7°C 61% 8.9 mph NNE14.3 kmh NNE 13.0 mph20.9 kmh 30.57 in1035.2 mb 0.00 in0.0 mm 0.00 in0.0 mm 0.00 in0.0 mm
05:42 AM 18.5°F-7.5°C 7.7°F-13.5°C 62% 8.9 mph NNE14.3 kmh NNE 13.0 mph20.9 kmh 30.57 in1035.2 mb 0.00 in0.0 mm 0.00 in0.0 mm 0.00 in0.0 mm
05:43 AM 18.5°F-7.5°C 7.7°F-13.5°C 62% 11.9 mph NNE19.2 kmh NNE 13.0 mph20.9 kmh 30.57 in1035.2 mb 0.00 in0.0 mm 0.00 in0.0 mm 0.00 in0.0 mm
05:44 AM 18.5°F-7.5°C 7.3°F-13.7°C 61% 11.4 mph NNW18.3 kmh NNW 13.0 mph20.9 kmh 30.57 in1035.2 mb 0.00 in0.0 mm 0.00 in0.0 mm 0.00 in0.0 mm
05:45 AM 18.5°F-7.5°C 7.3°F-13.7°C 61% 6.8 mph NNE10.9 kmh NNE 13.0 mph20.9 kmh 30.57 in1035.2 mb 0.00 in0.0 mm 0.00 in0.0 mm 0.00 in0.0 mm
05:46 AM 18.5°F-7.5°C 7.3°F-13.7°C 61% 11.9 mph N19.2 kmh N 13.0 mph20.9 kmh 30.57 in1035.2 mb 0.00 in0.0 mm 0.00 in0.0 mm 0.00 in0.0 mm
05:47 AM 18.5°F-7.5°C 7.3°F-13.7°C 61% 8.3 mph NNE13.4 kmh NNE 11.9 mph19.2 kmh 30.57 in1035.2 mb 0.00 in0.0 mm 0.00 in0.0 mm 0.00 in0.0 mm
05:48 AM 18.5°F-7.5°C 7.3°F-13.7°C 61% 5.8 mph N9.3 kmh N 11.9 mph19.2 kmh 30.57 in1035.2 mb 0.00 in0.0 mm 0.00 in0.0 mm 0.00 in0.0 mm
05:49 AM 18.5°F-7.5°C 7.7°F-13.5°C 62% 6.8 mph N10.9 kmh N 11.9 mph19.2 kmh 30.57 in1035.2 mb 0.00 in0.0 mm 0.00 in0.0 mm 0.00 in0.0 mm
05:50 AM 18.5°F-7.5°C 7.7°F-13.5°C 62% 6.3 mph NNE10.1 kmh NNE 11.9 mph19.2 kmh 30.57 in1035.2 mb 0.00 in0.0 mm 0.00 in0.0 mm 0.00 in0.0 mm
05:51 AM 18.5°F-7.5°C 7.7°F-13.5°C 62% 6.8 mph NNE10.9 kmh NNE 11.9 mph19.2 kmh 30.57 in1035.2 mb 0.00 in0.0 mm 0.00 in0.0 mm 0.00 in0.0 mm
05:52 AM 18.5°F-7.5°C 7.7°F-13.5°C 62% 4.2 mph NNE6.8 kmh NNE 11.9 mph19.2 kmh 30.58 in1035.6 mb 0.00 in0.0 mm 0.00 in0.0 mm 0.00 in0.0 mm
05:53 AM 18.3°F-7.6°C 7.5°F-13.6°C 62% 3.7 mph NNE6.0 kmh NNE 11.9 mph19.2 kmh 30.58 in1035.6 mb 0.00 in0.0 mm 0.00 in0.0 mm 0.00 in0.0 mm
05:54 AM 18.3°F-7.6°C 7.5°F-13.6°C 62% 6.3 mph N10.1 kmh N 11.9 mph19.2 kmh 30.58 in1035.6 mb 0.00 in0.0 mm 0.00 in0.0 mm 0.00 in0.0 mm
05:55 AM 18.3°F-7.6°C 7.5°F-13.6°C 62% 5.3 mph NE8.5 kmh NE 12.5 mph20.1 kmh 30.58 in1035.6 mb 0.00 in0.0 mm 0.00 in0.0 mm 0.00 in0.0 mm
05:56 AM 18.3°F-7.6°C 7.1°F-13.8°C 61% 11.4 mph NE18.3 kmh NE 12.5 mph20.1 kmh 30.58 in1035.6 mb 0.00 in0.0 mm 0.00 in0.0 mm 0.00 in0.0 mm
05:57 AM 18.3°F-7.6°C 7.1°F-13.8°C 61% 5.8 mph NE9.3 kmh NE 12.5 mph20.1 kmh 30.58 in1035.6 mb 0.00 in0.0 mm 0.00 in0.0 mm 0.00 in0.0 mm
05:58 AM 18.3°F-7.6°C 7.5°F-13.6°C 62% 9.4 mph NNE15.1 kmh NNE 12.5 mph20.1 kmh 30.58 in1035.6 mb 0.00 in0.0 mm 0.00 in0.0 mm 0.00 in0.0 mm
05:59 AM 18.3°F-7.6°C 7.5°F-13.6°C 62% 12.5 mph NE20.1 kmh NE 12.5 mph20.1 kmh 30.58 in1035.6 mb 0.00 in0.0 mm 0.00 in0.0 mm 0.00 in0.0 mm
06:00 AM 18.3°F-7.6°C 7.5°F-13.6°C 62% 12.5 mph E20.1 kmh E 12.5 mph20.1 kmh 30.58 in1035.6 mb 0.00 in0.0 mm 0.00 in0.0 mm 0.00 in0.0 mm
06:01 AM 18.3°F-7.6°C 7.5°F-13.6°C 62% 6.3 mph N10.1 kmh N 12.5 mph20.1 kmh 30.58 in1035.6 mb 0.00 in0.0 mm 0.00 in0.0 mm 0.00 in0.0 mm
06:02 AM 18.3°F-7.6°C 7.5°F-13.6°C 62% 9.4 mph N15.1 kmh N 12.5 mph20.1 kmh 30.58 in1035.6 mb 0.00 in0.0 mm 0.00 in0.0 mm 0.00 in0.0 mm
06:03 AM 18.3°F-7.6°C 7.1°F-13.8°C 61% 11.4 mph N18.3 kmh N 12.5 mph20.1 kmh 30.58 in1035.6 mb 0.00 in0.0 mm 0.00 in0.0 mm 0.00 in0.0 mm
06:04 AM 18.3°F-7.6°C 7.1°F-13.8°C 61% 5.8 mph NNE9.3 kmh NNE 12.5 mph20.1 kmh 30.58 in1035.6 mb 0.00 in0.0 mm 0.00 in0.0 mm 0.00 in0.0 mm
06:05 AM 18.3°F-7.6°C 7.5°F-13.6°C 62% 5.8 mph N9.3 kmh N 12.5 mph20.1 kmh 30.58 in1035.6 mb 0.00 in0.0 mm 0.00 in0.0 mm 0.00 in0.0 mm
06:06 AM 18.3°F-7.6°C 7.5°F-13.6°C 62% 5.8 mph NNW9.3 kmh NNW 12.5 mph20.1 kmh 30.58 in1035.6 mb 0.00 in0.0 mm 0.00 in0.0 mm 0.00 in0.0 mm
06:07 AM 18.3°F-7.6°C 7.5°F-13.6°C 62% 7.3 mph NNE11.7 kmh NNE 12.5 mph20.1 kmh 30.58 in1035.6 mb 0.00 in0.0 mm 0.00 in0.0 mm 0.00 in0.0 mm
06:08 AM 18.3°F-7.6°C 7.5°F-13.6°C 62% 5.3 mph NNE8.5 kmh NNE 12.5 mph20.1 kmh 30.58 in1035.6 mb 0.00 in0.0 mm 0.00 in0.0 mm 0.00 in0.0 mm
06:09 AM 18.3°F-7.6°C 7.5°F-13.6°C 62% 9.9 mph NNE15.9 kmh NNE 12.5 mph20.1 kmh 30.58 in1035.6 mb 0.00 in0.0 mm 0.00 in0.0 mm 0.00 in0.0 mm
06:10 AM 18.3°F-7.6°C 7.5°F-13.6°C 62% 14.0 mph NNE22.5 kmh NNE 14.0 mph22.5 kmh 30.58 in1035.6 mb 0.00 in0.0 mm 0.00 in0.0 mm 0.00 in0.0 mm
06:11 AM 18.3°F-7.6°C 7.1°F-13.8°C 61% 14.0 mph NNE22.5 kmh NNE 14.0 mph22.5 kmh 30.58 in1035.6 mb 0.00 in0.0 mm 0.00 in0.0 mm 0.00 in0.0 mm
06:12 AM 18.3°F-7.6°C 7.1°F-13.8°C 61% 11.9 mph NNE19.2 kmh NNE 14.0 mph22.5 kmh 30.58 in1035.6 mb 0.00 in0.0 mm 0.00 in0.0 mm 0.00 in0.0 mm
06:13 AM 18.3°F-7.6°C 7.1°F-13.8°C 61% 10.9 mph NNE17.5 kmh NNE 14.0 mph22.5 kmh 30.58 in1035.6 mb 0.00 in0.0 mm 0.00 in0.0 mm 0.00 in0.0 mm
06:14 AM 18.3°F-7.6°C 7.1°F-13.8°C 61% 10.9 mph NNE17.5 kmh NNE 14.0 mph22.5 kmh 30.58 in1035.6 mb 0.00 in0.0 mm 0.00 in0.0 mm 0.00 in0.0 mm
06:15 AM 18.3°F-7.6°C 7.1°F-13.8°C 61% 7.3 mph NNE11.7 kmh NNE 14.0 mph22.5 kmh 30.58 in1035.6 mb 0.00 in0.0 mm 0.00 in0.0 mm 0.00 in0.0 mm
06:16 AM 18.3°F-7.6°C 7.1°F-13.8°C 61% 12.5 mph W20.1 kmh W 14.0 mph22.5 kmh 30.58 in1035.6 mb 0.00 in0.0 mm 0.00 in0.0 mm 0.00 in0.0 mm
06:17 AM 18.3°F-7.6°C 7.1°F-13.8°C 61% 8.3 mph W13.4 kmh W 14.0 mph22.5 kmh 30.59 in1035.9 mb 0.00 in0.0 mm 0.00 in0.0 mm 0.00 in0.0 mm
06:18 AM 18.3°F-7.6°C 7.1°F-13.8°C 61% 6.8 mph NNE10.9 kmh NNE 14.0 mph22.5 kmh 30.59 in1035.9 mb 0.00 in0.0 mm 0.00 in0.0 mm 0.00 in0.0 mm
06:19 AM 18.3°F-7.6°C 7.1°F-13.8°C 61% 5.8 mph E9.3 kmh E 14.0 mph22.5 kmh 30.59 in1035.9 mb 0.00 in0.0 mm 0.00 in0.0 mm 0.00 in0.0 mm
06:20 AM 18.1°F-7.7°C 6.9°F-13.9°C 61% 8.9 mph SE14.3 kmh SE 14.0 mph22.5 kmh 30.59 in1035.9 mb 0.00 in0.0 mm 0.00 in0.0 mm 0.00 in0.0 mm
06:21 AM 18.1°F-7.7°C 6.9°F-13.9°C 61% 8.9 mph NNE14.3 kmh NNE 13.5 mph21.7 kmh 30.59 in1035.9 mb 0.00 in0.0 mm 0.00 in0.0 mm 0.00 in0.0 mm
06:22 AM 18.1°F-7.7°C 7.3°F-13.7°C 62% 7.8 mph ENE12.6 kmh ENE 13.5 mph21.7 kmh 30.59 in1035.9 mb 0.00 in0.0 mm 0.00 in0.0 mm 0.00 in0.0 mm
06:23 AM 18.1°F-7.7°C 6.9°F-13.9°C 61% 14.5 mph NNE23.3 kmh NNE 14.5 mph23.3 kmh 30.59 in1035.9 mb 0.00 in0.0 mm 0.00 in0.0 mm 0.00 in0.0 mm
06:24 AM 18.1°F-7.7°C 6.9°F-13.9°C 61% 8.3 mph NE13.4 kmh NE 14.5 mph23.3 kmh 30.59 in1035.9 mb 0.00 in0.0 mm 0.00 in0.0 mm 0.00 in0.0 mm
06:25 AM 18.1°F-7.7°C 6.9°F-13.9°C 61% 7.8 mph NNE12.6 kmh NNE 14.5 mph23.3 kmh 30.59 in1035.9 mb 0.00 in0.0 mm 0.00 in0.0 mm 0.00 in0.0 mm
06:26 AM 18.1°F-7.7°C 6.9°F-13.9°C 61% 7.3 mph NNE11.7 kmh NNE 14.5 mph23.3 kmh 30.59 in1035.9 mb 0.00 in0.0 mm 0.00 in0.0 mm 0.00 in0.0 mm
06:27 AM 18.1°F-7.7°C 7.3°F-13.7°C 62% 7.8 mph NE12.6 kmh NE 14.5 mph23.3 kmh 30.59 in1035.9 mb 0.00 in0.0 mm 0.00 in0.0 mm 0.00 in0.0 mm
06:28 AM 18.1°F-7.7°C 7.3°F-13.7°C 62% 7.8 mph NW12.6 kmh NW 14.5 mph23.3 kmh 30.59 in1035.9 mb 0.00 in0.0 mm 0.00 in0.0 mm 0.00 in0.0 mm
06:29 AM 18.1°F-7.7°C 7.3°F-13.7°C 62% 7.3 mph ESE11.7 kmh ESE 14.5 mph23.3 kmh 30.60 in1036.2 mb 0.00 in0.0 mm 0.00 in0.0 mm 0.00 in0.0 mm
06:30 AM 18.1°F-7.7°C 7.3°F-13.7°C 62% 6.8 mph NNE10.9 kmh NNE 14.5 mph23.3 kmh 30.60 in1036.2 mb 0.00 in0.0 mm 0.00 in0.0 mm 0.00 in0.0 mm
06:31 AM 18.1°F-7.7°C 7.3°F-13.7°C 62% 8.9 mph NNE14.3 kmh NNE 14.5 mph23.3 kmh 30.60 in1036.2 mb 0.00 in0.0 mm 0.00 in0.0 mm 0.00 in0.0 mm
06:32 AM 18.1°F-7.7°C 7.3°F-13.7°C 62% 10.4 mph NNE16.7 kmh NNE 14.5 mph23.3 kmh 30.60 in1036.2 mb 0.00 in0.0 mm 0.00 in0.0 mm 0.00 in0.0 mm
06:33 AM 18.1°F-7.7°C 6.9°F-13.9°C 61% 6.3 mph NNE10.1 kmh NNE 14.0 mph22.5 kmh 30.60 in1036.2 mb 0.00 in0.0 mm 0.00 in0.0 mm 0.00 in0.0 mm
06:34 AM 18.1°F-7.7°C 6.9°F-13.9°C 61% 3.7 mph NNE6.0 kmh NNE 14.0 mph22.5 kmh 30.60 in1036.2 mb 0.00 in0.0 mm 0.00 in0.0 mm 0.00 in0.0 mm
06:35 AM 18.0°F-7.8°C 7.2°F-13.8°C 62% 9.4 mph NNE15.1 kmh NNE 14.0 mph22.5 kmh 30.60 in1036.2 mb 0.00 in0.0 mm 0.00 in0.0 mm 0.00 in0.0 mm
06:36 AM 18.0°F-7.8°C 7.2°F-13.8°C 62% 8.3 mph NE13.4 kmh NE 14.0 mph22.5 kmh 30.60 in1036.2 mb 0.00 in0.0 mm 0.00 in0.0 mm 0.00 in0.0 mm
06:37 AM 18.0°F-7.8°C 7.2°F-13.8°C 62% 11.4 mph NNE18.3 kmh NNE 14.0 mph22.5 kmh 30.60 in1036.2 mb 0.00 in0.0 mm 0.00 in0.0 mm 0.00 in0.0 mm
06:38 AM 18.0°F-7.8°C 7.2°F-13.8°C 62% 10.9 mph NNW17.5 kmh NNW 14.0 mph22.5 kmh 30.60 in1036.2 mb 0.00 in0.0 mm 0.00 in0.0 mm 0.00 in0.0 mm
06:39 AM 18.0°F-7.8°C 7.2°F-13.8°C 62% 10.4 mph NNE16.7 kmh NNE 14.0 mph22.5 kmh 30.60 in1036.2 mb 0.00 in0.0 mm 0.00 in0.0 mm 0.00 in0.0 mm
06:40 AM 18.0°F-7.8°C 6.9°F-13.9°C 61% 12.5 mph NNE20.1 kmh NNE 14.0 mph22.5 kmh 30.60 in1036.2 mb 0.00 in0.0 mm 0.00 in0.0 mm 0.00 in0.0 mm
06:41 AM 18.0°F-7.8°C 6.9°F-13.9°C 61% 5.8 mph N9.3 kmh N 14.0 mph22.5 kmh 30.60 in1036.2 mb 0.00 in0.0 mm 0.00 in0.0 mm 0.00 in0.0 mm
06:42 AM 18.0°F-7.8°C 7.2°F-13.8°C 62% 8.9 mph NNE14.3 kmh NNE 14.0 mph22.5 kmh 30.60 in1036.2 mb 0.00 in0.0 mm 0.00 in0.0 mm 0.00 in0.0 mm
06:43 AM 18.0°F-7.8°C 7.2°F-13.8°C 62% 6.8 mph ENE10.9 kmh ENE 14.0 mph22.5 kmh 30.60 in1036.2 mb 0.00 in0.0 mm 0.00 in0.0 mm 0.00 in0.0 mm
06:44 AM 18.0°F-7.8°C 6.9°F-13.9°C 61% 5.8 mph NE9.3 kmh NE 14.0 mph22.5 kmh 30.60 in1036.2 mb 0.00 in0.0 mm 0.00 in0.0 mm 0.00 in0.0 mm
06:45 AM 18.0°F-7.8°C 7.2°F-13.8°C 62% 7.8 mph NNE12.6 kmh NNE 14.0 mph22.5 kmh 30.60 in1036.2 mb 0.00 in0.0 mm 0.00 in0.0 mm 0.00 in0.0 mm
06:46 AM 18.0°F-7.8°C 7.2°F-13.8°C 62% 8.3 mph NE13.4 kmh NE 14.0 mph22.5 kmh 30.60 in1036.2 mb 0.00 in0.0 mm 0.00 in0.0 mm 0.00 in0.0 mm
06:47 AM 18.0°F-7.8°C 7.2°F-13.8°C 62% 7.3 mph NNE11.7 kmh NNE 14.0 mph22.5 kmh 30.60 in1036.2 mb 0.00 in0.0 mm 0.00 in0.0 mm 0.00 in0.0 mm
06:48 AM 18.0°F-7.8°C 7.2°F-13.8°C 62% 9.9 mph NE15.9 kmh NE 14.0 mph22.5 kmh 30.60 in1036.2 mb 0.00 in0.0 mm 0.00 in0.0 mm 0.00 in0.0 mm
06:49 AM 18.0°F-7.8°C 7.2°F-13.8°C 62% 9.9 mph N15.9 kmh N 12.5 mph20.1 kmh 30.60 in1036.2 mb 0.00 in0.0 mm 0.00 in0.0 mm 0.00 in0.0 mm
06:50 AM 18.0°F-7.8°C 7.2°F-13.8°C 62% 8.9 mph N14.3 kmh N 12.5 mph20.1 kmh 30.60 in1036.2 mb 0.00 in0.0 mm 0.00 in0.0 mm 0.00 in0.0 mm
06:51 AM 18.0°F-7.8°C 7.2°F-13.8°C 62% 6.3 mph NNW10.1 kmh NNW 11.9 mph19.2 kmh 30.60 in1036.2 mb 0.00 in0.0 mm 0.00 in0.0 mm 0.00 in0.0 mm
06:52 AM 18.0°F-7.8°C 7.2°F-13.8°C 62% 6.8 mph NNE10.9 kmh NNE 11.9 mph19.2 kmh 30.60 in1036.2 mb 0.00 in0.0 mm 0.00 in0.0 mm 0.00 in0.0 mm
06:53 AM 18.0°F-7.8°C 7.2°F-13.8°C 62% 8.9 mph N14.3 kmh N 11.9 mph19.2 kmh 30.61 in1036.6 mb 0.00 in0.0 mm 0.00 in0.0 mm 0.00 in0.0 mm
06:54 AM 18.0°F-7.8°C 7.2°F-13.8°C 62% 6.3 mph NNW10.1 kmh NNW 11.9 mph19.2 kmh 30.61 in1036.6 mb 0.00 in0.0 mm 0.00 in0.0 mm 0.00 in0.0 mm
06:55 AM 18.0°F-7.8°C 7.2°F-13.8°C 62% 6.8 mph NNE10.9 kmh NNE 11.9 mph19.2 kmh 30.61 in1036.6 mb 0.00 in0.0 mm 0.00 in0.0 mm 0.00 in0.0 mm
06:56 AM 18.0°F-7.8°C 7.2°F-13.8°C 62% 7.3 mph NE11.7 kmh NE 11.9 mph19.2 kmh 30.61 in1036.6 mb 0.00 in0.0 mm 0.00 in0.0 mm 0.00 in0.0 mm
06:57 AM 18.0°F-7.8°C 7.2°F-13.8°C 62% 6.8 mph NNE10.9 kmh NNE 11.9 mph19.2 kmh 30.61 in1036.6 mb 0.00 in0.0 mm 0.00 in0.0 mm 0.00 in0.0 mm
06:58 AM 18.0°F-7.8°C 7.2°F-13.8°C 62% 8.9 mph N14.3 kmh N 11.9 mph19.2 kmh 30.61 in1036.6 mb 0.00 in0.0 mm 0.00 in0.0 mm 0.00 in0.0 mm
06:59 AM 18.0°F-7.8°C 7.2°F-13.8°C 62% 9.9 mph NE15.9 kmh NE 10.9 mph17.5 kmh 30.61 in1036.6 mb 0.00 in0.0 mm 0.00 in0.0 mm 0.00 in0.0 mm
07:00 AM 18.0°F-7.8°C 7.2°F-13.8°C 62% 7.8 mph NNE12.6 kmh NNE 10.9 mph17.5 kmh 30.61 in1036.6 mb 0.00 in0.0 mm 0.00 in0.0 mm 0.00 in0.0 mm
07:01 AM 18.0°F-7.8°C 7.2°F-13.8°C 62% 5.3 mph NNE8.5 kmh NNE 10.9 mph17.5 kmh 30.61 in1036.6 mb 0.00 in0.0 mm 0.00 in0.0 mm 0.00 in0.0 mm
07:02 AM 18.0°F-7.8°C 7.6°F-13.6°C 63% 5.8 mph N9.3 kmh N 10.9 mph17.5 kmh 30.61 in1036.6 mb 0.00 in0.0 mm 0.00 in0.0 mm 0.00 in0.0 mm
07:03 AM 17.8°F-7.9°C 7.4°F-13.7°C 63% 4.2 mph NE6.8 kmh NE 10.9 mph17.5 kmh 30.61 in1036.6 mb 0.00 in0.0 mm 0.00 in0.0 mm 0.00 in0.0 mm
07:04 AM 17.8°F-7.9°C 7.4°F-13.7°C 63% 6.8 mph ENE10.9 kmh ENE 10.9 mph17.5 kmh 30.61 in1036.6 mb 0.00 in0.0 mm 0.00 in0.0 mm 0.00 in0.0 mm
07:05 AM 17.8°F-7.9°C 7.4°F-13.7°C 63% 6.8 mph NNE10.9 kmh NNE 10.9 mph17.5 kmh 30.61 in1036.6 mb 0.00 in0.0 mm 0.00 in0.0 mm 0.00 in0.0 mm
07:06 AM 17.8°F-7.9°C 7.4°F-13.7°C 63% 5.8 mph S9.3 kmh S 10.9 mph17.5 kmh 30.61 in1036.6 mb 0.00 in0.0 mm 0.00 in0.0 mm 0.00 in0.0 mm
07:07 AM 17.8°F-7.9°C 7.4°F-13.7°C 63% 5.8 mph NNE9.3 kmh NNE 10.9 mph17.5 kmh 30.61 in1036.6 mb 0.00 in0.0 mm 0.00 in0.0 mm 0.00 in0.0 mm
07:08 AM 17.6°F-8.0°C 6.8°F-14.0°C 62% 14.5 mph NNE23.3 kmh NNE 14.5 mph23.3 kmh 30.61 in1036.6 mb 0.00 in0.0 mm 0.00 in0.0 mm 0.00 in0.0 mm
07:09 AM 17.6°F-8.0°C 6.8°F-14.0°C 62% 7.3 mph NNW11.7 kmh NNW 14.5 mph23.3 kmh 30.61 in1036.6 mb 0.00 in0.0 mm 0.00 in0.0 mm 0.00 in0.0 mm
07:10 AM 17.6°F-8.0°C 6.8°F-14.0°C 62% 9.9 mph NNE15.9 kmh NNE 14.5 mph23.3 kmh 30.61 in1036.6 mb 0.00 in0.0 mm 0.00 in0.0 mm 0.00 in0.0 mm
07:11 AM 17.6°F-8.0°C 6.8°F-14.0°C 62% 6.8 mph NNE10.9 kmh NNE 14.5 mph23.3 kmh 30.61 in1036.6 mb 0.00 in0.0 mm 0.00 in0.0 mm 0.00 in0.0 mm
07:12 AM 17.6°F-8.0°C 6.8°F-14.0°C 62% 7.8 mph NNE12.6 kmh NNE 14.5 mph23.3 kmh 30.61 in1036.6 mb 0.00 in0.0 mm 0.00 in0.0 mm 0.00 in0.0 mm
07:13 AM 17.6°F-8.0°C 6.8°F-14.0°C 62% 7.3 mph N11.7 kmh N 14.5 mph23.3 kmh 30.61 in1036.6 mb 0.00 in0.0 mm 0.00 in0.0 mm 0.00 in0.0 mm
07:14 AM 17.6°F-8.0°C 6.8°F-14.0°C 62% 9.4 mph N15.1 kmh N 14.5 mph23.3 kmh 30.61 in1036.6 mb 0.00 in0.0 mm 0.00 in0.0 mm 0.00 in0.0 mm
07:15 AM 17.6°F-8.0°C 6.8°F-14.0°C 62% 7.3 mph NNW11.7 kmh NNW 14.5 mph23.3 kmh 30.61 in1036.6 mb 0.00 in0.0 mm 0.00 in0.0 mm 0.00 in0.0 mm
07:16 AM 17.6°F-8.0°C 6.8°F-14.0°C 62% 8.3 mph NNE13.4 kmh NNE 14.5 mph23.3 kmh 30.61 in1036.6 mb 0.00 in0.0 mm 0.00 in0.0 mm 0.00 in0.0 mm
07:17 AM 17.6°F-8.0°C 6.8°F-14.0°C 62% 9.9 mph NNE15.9 kmh NNE 14.5 mph23.3 kmh 30.61 in1036.6 mb 0.00 in0.0 mm 0.00 in0.0 mm 0.00 in0.0 mm
07:18 AM 17.6°F-8.0°C 6.8°F-14.0°C 62% 8.3 mph NNE13.4 kmh NNE 14.5 mph23.3 kmh 30.61 in1036.6 mb 0.00 in0.0 mm 0.00 in0.0 mm 0.00 in0.0 mm
07:19 AM 17.6°F-8.0°C 6.8°F-14.0°C 62% 3.7 mph NNE6.0 kmh NNE 9.9 mph15.9 kmh 30.61 in1036.6 mb 0.00 in0.0 mm 0.00 in0.0 mm 0.00 in0.0 mm
07:20 AM 17.6°F-8.0°C 7.2°F-13.8°C 63% 9.4 mph NE15.1 kmh NE 9.9 mph15.9 kmh 30.61 in1036.6 mb 0.00 in0.0 mm 0.00 in0.0 mm 0.00 in0.0 mm
07:21 AM 17.6°F-8.0°C 7.2°F-13.8°C 63% 8.9 mph NNE14.3 kmh NNE 10.4 mph16.7 kmh 30.61 in1036.6 mb 0.00 in0.0 mm 0.00 in0.0 mm 0.00 in0.0 mm
07:22 AM 17.6°F-8.0°C 6.8°F-14.0°C 62% 10.9 mph NNE17.5 kmh NNE 10.9 mph17.5 kmh 30.61 in1036.6 mb 0.00 in0.0 mm 0.00 in0.0 mm 0.00 in0.0 mm
07:23 AM 17.6°F-8.0°C 6.5°F-14.2°C 61% 8.3 mph NNE13.4 kmh NNE 10.9 mph17.5 kmh 30.61 in1036.6 mb 0.00 in0.0 mm 0.00 in0.0 mm 0.00 in0.0 mm
07:24 AM 17.6°F-8.0°C 6.5°F-14.2°C 61% 5.3 mph NNW8.5 kmh NNW 10.9 mph17.5 kmh 30.61 in1036.6 mb 0.00 in0.0 mm 0.00 in0.0 mm 0.00 in0.0 mm
07:25 AM 17.6°F-8.0°C 6.5°F-14.2°C 61% 12.5 mph NNE20.1 kmh NNE 13.0 mph20.9 kmh 30.61 in1036.6 mb 0.00 in0.0 mm 0.00 in0.0 mm 0.00 in0.0 mm
07:26 AM 17.6°F-8.0°C 6.5°F-14.2°C 61% 9.4 mph NNE15.1 kmh NNE 13.0 mph20.9 kmh 30.61 in1036.6 mb 0.00 in0.0 mm 0.00 in0.0 mm 0.00 in0.0 mm
07:27 AM 17.6°F-8.0°C 6.5°F-14.2°C 61% 4.7 mph SE7.6 kmh SE 13.0 mph20.9 kmh 30.61 in1036.6 mb 0.00 in0.0 mm 0.00 in0.0 mm 0.00 in0.0 mm
07:28 AM 17.6°F-8.0°C 6.5°F-14.2°C 61% 8.3 mph NNE13.4 kmh NNE 13.0 mph20.9 kmh 30.61 in1036.6 mb 0.00 in0.0 mm 0.00 in0.0 mm 0.00 in0.0 mm
07:29 AM 17.6°F-8.0°C 6.8°F-14.0°C 62% 10.9 mph NW17.5 kmh NW 13.0 mph20.9 kmh 30.62 in1036.9 mb 0.00 in0.0 mm 0.00 in0.0 mm 0.00 in0.0 mm
07:30 AM 17.6°F-8.0°C 6.8°F-14.0°C 62% 10.9 mph NW17.5 kmh NW 13.0 mph20.9 kmh 30.62 in1036.9 mb 0.00 in0.0 mm 0.00 in0.0 mm 0.00 in0.0 mm
07:35 AM 17.6°F-8.0°C 6.8°F-14.0°C 62% 11.4 mph NNE18.3 kmh NNE 11.4 mph18.3 kmh 30.62 in1036.9 mb 0.00 in0.0 mm 0.00 in0.0 mm 0.00 in0.0 mm
07:36 AM 17.6°F-8.0°C 6.8°F-14.0°C 62% 7.3 mph NNW11.7 kmh NNW 11.4 mph18.3 kmh 30.62 in1036.9 mb 0.00 in0.0 mm 0.00 in0.0 mm 0.00 in0.0 mm
07:37 AM 17.6°F-8.0°C 6.8°F-14.0°C 62% 8.9 mph NNW14.3 kmh NNW 11.4 mph18.3 kmh 30.62 in1036.9 mb 0.00 in0.0 mm 0.00 in0.0 mm 0.00 in0.0 mm
07:38 AM 17.6°F-8.0°C 6.5°F-14.2°C 61% 15.5 mph NW24.9 kmh NW 15.5 mph24.9 kmh 30.62 in1036.9 mb 0.00 in0.0 mm 0.00 in0.0 mm 0.00 in0.0 mm
07:39 AM 17.6°F-8.0°C 6.5°F-14.2°C 61% 10.9 mph NNE17.5 kmh NNE 15.5 mph24.9 kmh 30.62 in1036.9 mb 0.00 in0.0 mm 0.00 in0.0 mm 0.00 in0.0 mm
07:40 AM 17.6°F-8.0°C 6.5°F-14.2°C 61% 8.9 mph NE14.3 kmh NE 15.5 mph24.9 kmh 30.62 in1036.9 mb 0.00 in0.0 mm 0.00 in0.0 mm 0.00 in0.0 mm
07:41 AM 17.6°F-8.0°C 6.5°F-14.2°C 61% 12.5 mph NNE20.1 kmh NNE 15.5 mph24.9 kmh 30.62 in1036.9 mb 0.00 in0.0 mm 0.00 in0.0 mm 0.00 in0.0 mm
07:42 AM 17.6°F-8.0°C 6.5°F-14.2°C 61% 8.9 mph NNE14.3 kmh NNE 15.5 mph24.9 kmh 30.62 in1036.9 mb 0.00 in0.0 mm 0.00 in0.0 mm 0.00 in0.0 mm
07:43 AM 17.6°F-8.0°C 6.5°F-14.2°C 61% 7.8 mph NNE12.6 kmh NNE 15.5 mph24.9 kmh 30.62 in1036.9 mb 0.00 in0.0 mm 0.00 in0.0 mm 0.00 in0.0 mm
07:44 AM 17.6°F-8.0°C 6.8°F-14.0°C 62% 11.4 mph ENE18.3 kmh ENE 15.5 mph24.9 kmh 30.62 in1036.9 mb 0.00 in0.0 mm 0.00 in0.0 mm 0.00 in0.0 mm
07:45 AM 17.6°F-8.0°C 6.8°F-14.0°C 62% 4.7 mph NNE7.6 kmh NNE 15.5 mph24.9 kmh 30.62 in1036.9 mb 0.00 in0.0 mm 0.00 in0.0 mm 0.00 in0.0 mm
07:46 AM 17.6°F-8.0°C 6.8°F-14.0°C 62% 5.3 mph N8.5 kmh N 15.5 mph24.9 kmh 30.62 in1036.9 mb 0.00 in0.0 mm 0.00 in0.0 mm 0.00 in0.0 mm
07:47 AM 17.6°F-8.0°C 6.8°F-14.0°C 62% 8.3 mph NE13.4 kmh NE 15.5 mph24.9 kmh 30.62 in1036.9 mb 0.00 in0.0 mm 0.00 in0.0 mm 0.00 in0.0 mm
07:48 AM 17.6°F-8.0°C 6.8°F-14.0°C 62% 8.9 mph NNW14.3 kmh NNW 15.5 mph24.9 kmh 30.62 in1036.9 mb 0.00 in0.0 mm 0.00 in0.0 mm 0.00 in0.0 mm
07:49 AM 17.6°F-8.0°C 6.8°F-14.0°C 62% 7.3 mph N11.7 kmh N 12.5 mph20.1 kmh 30.62 in1036.9 mb 0.00 in0.0 mm 0.00 in0.0 mm 0.00 in0.0 mm
07:50 AM 17.6°F-8.0°C 6.8°F-14.0°C 62% 6.8 mph NNW10.9 kmh NNW 12.5 mph20.1 kmh 30.62 in1036.9 mb 0.00 in0.0 mm 0.00 in0.0 mm 0.00 in0.0 mm
07:51 AM 17.6°F-8.0°C 6.8°F-14.0°C 62% 5.3 mph N8.5 kmh N 11.4 mph18.3 kmh 30.62 in1036.9 mb 0.00 in0.0 mm 0.00 in0.0 mm 0.00 in0.0 mm
07:52 AM 17.6°F-8.0°C 6.8°F-14.0°C 62% 6.8 mph ENE10.9 kmh ENE 11.4 mph18.3 kmh 30.62 in1036.9 mb 0.00 in0.0 mm 0.00 in0.0 mm 0.00 in0.0 mm
07:53 AM 17.6°F-8.0°C 6.8°F-14.0°C 62% 13.5 mph NE21.7 kmh NE 13.5 mph21.7 kmh 30.63 in1037.3 mb 0.00 in0.0 mm 0.00 in0.0 mm 0.00 in0.0 mm
07:54 AM 17.6°F-8.0°C 6.5°F-14.2°C 61% 7.8 mph NNE12.6 kmh NNE 13.5 mph21.7 kmh 30.63 in1037.3 mb 0.00 in0.0 mm 0.00 in0.0 mm 0.00 in0.0 mm
07:55 AM 17.6°F-8.0°C 6.5°F-14.2°C 61% 6.3 mph NE10.1 kmh NE 13.5 mph21.7 kmh 30.63 in1037.3 mb 0.00 in0.0 mm 0.00 in0.0 mm 0.00 in0.0 mm
07:56 AM 17.6°F-8.0°C 6.8°F-14.0°C 62% 5.8 mph S9.3 kmh S 13.5 mph21.7 kmh 30.63 in1037.3 mb 0.00 in0.0 mm 0.00 in0.0 mm 0.00 in0.0 mm
07:57 AM 17.6°F-8.0°C 6.8°F-14.0°C 62% 5.8 mph NNW9.3 kmh NNW 13.5 mph21.7 kmh 30.63 in1037.3 mb 0.00 in0.0 mm 0.00 in0.0 mm 0.00 in0.0 mm
07:58 AM 17.6°F-8.0°C 6.8°F-14.0°C 62% 5.8 mph W9.3 kmh W 13.5 mph21.7 kmh 30.63 in1037.3 mb 0.00 in0.0 mm 0.00 in0.0 mm 0.00 in0.0 mm
07:59 AM 17.6°F-8.0°C 7.2°F-13.8°C 63% 9.4 mph N15.1 kmh N 13.5 mph21.7 kmh 30.63 in1037.3 mb 0.00 in0.0 mm 0.00 in0.0 mm 0.00 in0.0 mm
08:00 AM 17.6°F-8.0°C 6.8°F-14.0°C 62% 10.4 mph NNE16.7 kmh NNE 13.5 mph21.7 kmh 30.63 in1037.3 mb 0.00 in0.0 mm 0.00 in0.0 mm 0.00 in0.0 mm
08:01 AM 17.6°F-8.0°C 6.5°F-14.2°C 61% 7.3 mph NE11.7 kmh NE 13.5 mph21.7 kmh 30.63 in1037.3 mb 0.00 in0.0 mm 0.00 in0.0 mm 0.00 in0.0 mm
08:02 AM 17.6°F-8.0°C 6.5°F-14.2°C 61% 8.9 mph NW14.3 kmh NW 13.5 mph21.7 kmh 30.63 in1037.3 mb 0.00 in0.0 mm 0.00 in0.0 mm 0.00 in0.0 mm
08:03 AM 17.8°F-7.9°C 6.7°F-14.1°C 61% 7.3 mph NE11.7 kmh NE 13.5 mph21.7 kmh 30.63 in1037.3 mb 0.00 in0.0 mm 0.00 in0.0 mm 0.00 in0.0 mm
08:04 AM 17.8°F-7.9°C 6.7°F-14.1°C 61% 8.3 mph NNE13.4 kmh NNE 13.5 mph21.7 kmh 30.63 in1037.3 mb 0.00 in0.0 mm 0.00 in0.0 mm 0.00 in0.0 mm
08:05 AM 17.8°F-7.9°C 6.3°F-14.3°C 60% 7.3 mph N11.7 kmh N 13.5 mph21.7 kmh 30.64 in1037.6 mb 0.00 in0.0 mm 0.00 in0.0 mm 0.00 in0.0 mm
08:06 AM 17.8°F-7.9°C 6.3°F-14.3°C 60% 6.8 mph NNW10.9 kmh NNW 13.5 mph21.7 kmh 30.64 in1037.6 mb 0.00 in0.0 mm 0.00 in0.0 mm 0.00 in0.0 mm
08:07 AM 17.8°F-7.9°C 6.3°F-14.3°C 60% 5.3 mph NE8.5 kmh NE 13.5 mph21.7 kmh 30.64 in1037.6 mb 0.00 in0.0 mm 0.00 in0.0 mm 0.00 in0.0 mm
08:08 AM 17.8°F-7.9°C 6.3°F-14.3°C 60% 8.3 mph SSE13.4 kmh SSE 13.5 mph21.7 kmh 30.64 in1037.6 mb 0.00 in0.0 mm 0.00 in0.0 mm 0.00 in0.0 mm
08:09 AM 17.8°F-7.9°C 6.3°F-14.3°C 60% 8.9 mph SSE14.3 kmh SSE 13.5 mph21.7 kmh 30.64 in1037.6 mb 0.00 in0.0 mm 0.00 in0.0 mm 0.00 in0.0 mm
08:10 AM 17.8°F-7.9°C 6.3°F-14.3°C 60% 6.8 mph NNE10.9 kmh NNE 13.5 mph21.7 kmh 30.64 in1037.6 mb 0.00 in0.0 mm 0.00 in0.0 mm 0.00 in0.0 mm
08:11 AM 17.8°F-7.9°C 6.3°F-14.3°C 60% 6.3 mph NNE10.1 kmh NNE 11.9 mph19.2 kmh 30.64 in1037.6 mb 0.00 in0.0 mm 0.00 in0.0 mm 0.00 in0.0 mm
08:12 AM 17.8°F-7.9°C 6.3°F-14.3°C 60% 4.2 mph NE6.8 kmh NE 11.9 mph19.2 kmh 30.64 in1037.6 mb 0.00 in0.0 mm 0.00 in0.0 mm 0.00 in0.0 mm
08:13 AM 17.8°F-7.9°C 6.7°F-14.1°C 61% 7.8 mph NNE12.6 kmh NNE 11.9 mph19.2 kmh 30.64 in1037.6 mb 0.00 in0.0 mm 0.00 in0.0 mm 0.00 in0.0 mm
08:14 AM 17.8°F-7.9°C 6.7°F-14.1°C 61% 10.9 mph N17.5 kmh N 11.9 mph19.2 kmh 30.64 in1037.6 mb 0.00 in0.0 mm 0.00 in0.0 mm 0.00 in0.0 mm
08:15 AM 17.8°F-7.9°C 6.3°F-14.3°C 60% 8.9 mph NNE14.3 kmh NNE 11.9 mph19.2 kmh 30.64 in1037.6 mb 0.00 in0.0 mm 0.00 in0.0 mm 0.00 in0.0 mm
08:16 AM 17.8°F-7.9°C 6.3°F-14.3°C 60% 11.4 mph NE18.3 kmh NE 11.4 mph18.3 kmh 30.64 in1037.6 mb 0.00 in0.0 mm 0.00 in0.0 mm 0.00 in0.0 mm
08:17 AM 18.0°F-7.8°C 6.1°F-14.4°C 59% 9.9 mph NE15.9 kmh NE 11.4 mph18.3 kmh 30.65 in1037.9 mb 0.00 in0.0 mm 0.00 in0.0 mm 0.00 in0.0 mm
08:18 AM 18.0°F-7.8°C 6.1°F-14.4°C 59% 10.4 mph NE16.7 kmh NE 11.4 mph18.3 kmh 30.65 in1037.9 mb 0.00 in0.0 mm 0.00 in0.0 mm 0.00 in0.0 mm
08:19 AM 18.0°F-7.8°C 6.1°F-14.4°C 59% 9.4 mph NNE15.1 kmh NNE 11.9 mph19.2 kmh 30.65 in1037.9 mb 0.00 in0.0 mm 0.00 in0.0 mm 0.00 in0.0 mm
08:20 AM 18.0°F-7.8°C 6.1°F-14.4°C 59% 5.3 mph NE8.5 kmh NE 11.9 mph19.2 kmh 30.65 in1037.9 mb 0.00 in0.0 mm 0.00 in0.0 mm 0.00 in0.0 mm
08:21 AM 18.1°F-7.7°C 6.6°F-14.1°C 60% 9.9 mph NE15.9 kmh NE 11.9 mph19.2 kmh 30.65 in1037.9 mb 0.00 in0.0 mm 0.00 in0.0 mm 0.00 in0.0 mm
08:22 AM 18.1°F-7.7°C 6.6°F-14.1°C 60% 8.3 mph ESE13.4 kmh ESE 11.9 mph19.2 kmh 30.65 in1037.9 mb 0.00 in0.0 mm 0.00 in0.0 mm 0.00 in0.0 mm
08:23 AM 18.1°F-7.7°C 6.2°F-14.3°C 59% 5.3 mph E8.5 kmh E 11.9 mph19.2 kmh 30.65 in1037.9 mb 0.00 in0.0 mm 0.00 in0.0 mm 0.00 in0.0 mm
08:24 AM 18.1°F-7.7°C 6.2°F-14.3°C 59% 4.7 mph NE7.6 kmh NE 11.9 mph19.2 kmh 30.65 in1037.9 mb 0.00 in0.0 mm 0.00 in0.0 mm 0.00 in0.0 mm
08:25 AM 18.1°F-7.7°C 6.2°F-14.3°C 59% 4.7 mph NNE7.6 kmh NNE 11.9 mph19.2 kmh 30.65 in1037.9 mb 0.00 in0.0 mm 0.00 in0.0 mm 0.00 in0.0 mm
08:26 AM 18.1°F-7.7°C 6.2°F-14.3°C 59% 4.2 mph N6.8 kmh N 11.9 mph19.2 kmh 30.65 in1037.9 mb 0.00 in0.0 mm 0.00 in0.0 mm 0.00 in0.0 mm
08:27 AM 18.1°F-7.7°C 6.6°F-14.1°C 60% 5.3 mph N8.5 kmh N 11.9 mph19.2 kmh 30.65 in1037.9 mb 0.00 in0.0 mm 0.00 in0.0 mm 0.00 in0.0 mm
08:28 AM 18.3°F-7.6°C 6.8°F-14.0°C 60% 3.2 mph NE5.1 kmh NE 11.9 mph19.2 kmh 30.65 in1037.9 mb 0.00 in0.0 mm 0.00 in0.0 mm 0.00 in0.0 mm
08:29 AM 18.3°F-7.6°C 7.1°F-13.8°C 61% 4.7 mph SSE7.6 kmh SSE 10.9 mph17.5 kmh 30.65 in1037.9 mb 0.00 in0.0 mm 0.00 in0.0 mm 0.00 in0.0 mm
08:30 AM 18.3°F-7.6°C 7.1°F-13.8°C 61% 6.8 mph NNE10.9 kmh NNE 10.9 mph17.5 kmh 30.65 in1037.9 mb 0.00 in0.0 mm 0.00 in0.0 mm 0.00 in0.0 mm
08:31 AM 18.3°F-7.6°C 6.8°F-14.0°C 60% 10.9 mph NE17.5 kmh NE 10.9 mph17.5 kmh 30.65 in1037.9 mb 0.00 in0.0 mm 0.00 in0.0 mm 0.00 in0.0 mm
08:32 AM 18.3°F-7.6°C 6.4°F-14.2°C 59% 7.3 mph NE11.7 kmh NE 10.9 mph17.5 kmh 30.65 in1037.9 mb 0.00 in0.0 mm 0.00 in0.0 mm 0.00 in0.0 mm
08:33 AM 18.3°F-7.6°C 6.4°F-14.2°C 59% 9.4 mph ESE15.1 kmh ESE 10.9 mph17.5 kmh 30.65 in1037.9 mb 0.00 in0.0 mm 0.00 in0.0 mm 0.00 in0.0 mm
08:34 AM 18.3°F-7.6°C 6.0°F-14.4°C 58% 4.2 mph ESE6.8 kmh ESE 10.9 mph17.5 kmh 30.65 in1037.9 mb 0.00 in0.0 mm 0.00 in0.0 mm 0.00 in0.0 mm
08:35 AM 18.3°F-7.6°C 6.0°F-14.4°C 58% 6.8 mph NNE10.9 kmh NNE 10.9 mph17.5 kmh 30.65 in1037.9 mb 0.00 in0.0 mm 0.00 in0.0 mm 0.00 in0.0 mm
08:36 AM 18.3°F-7.6°C 6.0°F-14.4°C 58% 6.8 mph NNE10.9 kmh NNE 10.9 mph17.5 kmh 30.65 in1037.9 mb 0.00 in0.0 mm 0.00 in0.0 mm 0.00 in0.0 mm
08:37 AM 18.5°F-7.5°C 6.6°F-14.1°C 59% 9.4 mph NE15.1 kmh NE 10.9 mph17.5 kmh 30.65 in1037.9 mb 0.00 in0.0 mm 0.00 in0.0 mm 0.00 in0.0 mm
08:38 AM 18.5°F-7.5°C 6.2°F-14.3°C 58% 5.8 mph ESE9.3 kmh ESE 10.9 mph17.5 kmh 30.65 in1037.9 mb 0.00 in0.0 mm 0.00 in0.0 mm 0.00 in0.0 mm
08:39 AM 18.5°F-7.5°C 6.2°F-14.3°C 58% 8.9 mph N14.3 kmh N 10.9 mph17.5 kmh 30.65 in1037.9 mb 0.00 in0.0 mm 0.00 in0.0 mm 0.00 in0.0 mm
08:40 AM 18.5°F-7.5°C 6.2°F-14.3°C 58% 9.9 mph NNE15.9 kmh NNE 10.9 mph17.5 kmh 30.66 in1038.3 mb 0.00 in0.0 mm 0.00 in0.0 mm 0.00 in0.0 mm
08:41 AM 18.7°F-7.4°C 6.4°F-14.2°C 58% 8.3 mph ENE13.4 kmh ENE 10.9 mph17.5 kmh 30.66 in1038.3 mb 0.00 in0.0 mm 0.00 in0.0 mm 0.00 in0.0 mm
08:42 AM 18.7°F-7.4°C 6.4°F-14.2°C 58% 9.9 mph NW15.9 kmh NW 10.9 mph17.5 kmh 30.66 in1038.3 mb 0.00 in0.0 mm 0.00 in0.0 mm 0.00 in0.0 mm
08:43 AM 18.7°F-7.4°C 6.4°F-14.2°C 58% 9.9 mph NNE15.9 kmh NNE 11.4 mph18.3 kmh 30.66 in1038.3 mb 0.00 in0.0 mm 0.00 in0.0 mm 0.00 in0.0 mm
08:44 AM 18.7°F-7.4°C 5.6°F-14.7°C 56% 9.9 mph NNE15.9 kmh NNE 11.4 mph18.3 kmh 30.66 in1038.3 mb 0.00 in0.0 mm 0.00 in0.0 mm 0.00 in0.0 mm
08:45 AM 18.7°F-7.4°C 6.0°F-14.4°C 57% 12.5 mph NE20.1 kmh NE 12.5 mph20.1 kmh 30.66 in1038.3 mb 0.00 in0.0 mm 0.00 in0.0 mm 0.00 in0.0 mm
08:46 AM 18.7°F-7.4°C 6.0°F-14.4°C 57% 11.4 mph N18.3 kmh N 12.5 mph20.1 kmh 30.66 in1038.3 mb 0.00 in0.0 mm 0.00 in0.0 mm 0.00 in0.0 mm
08:47 AM 18.7°F-7.4°C 5.6°F-14.7°C 56% 11.4 mph N18.3 kmh N 17.6 mph28.3 kmh 30.66 in1038.3 mb 0.00 in0.0 mm 0.00 in0.0 mm 0.00 in0.0 mm
08:48 AM 18.7°F-7.4°C 5.6°F-14.7°C 56% 11.4 mph NNW18.3 kmh NNW 18.6 mph29.9 kmh 30.66 in1038.3 mb 0.00 in0.0 mm 0.00 in0.0 mm 0.00 in0.0 mm
08:49 AM 18.7°F-7.4°C 5.6°F-14.7°C 56% 9.4 mph N15.1 kmh N 18.6 mph29.9 kmh 30.66 in1038.3 mb 0.00 in0.0 mm 0.00 in0.0 mm 0.00 in0.0 mm
08:50 AM 18.7°F-7.4°C 5.6°F-14.7°C 56% 13.0 mph NE20.9 kmh NE 18.6 mph29.9 kmh 30.66 in1038.3 mb 0.00 in0.0 mm 0.00 in0.0 mm 0.00 in0.0 mm
08:51 AM 18.7°F-7.4°C 5.6°F-14.7°C 56% 12.5 mph NNE20.1 kmh NNE 18.6 mph29.9 kmh 30.66 in1038.3 mb 0.00 in0.0 mm 0.00 in0.0 mm 0.00 in0.0 mm
08:52 AM 18.7°F-7.4°C 5.6°F-14.7°C 56% 11.9 mph NE19.2 kmh NE 18.6 mph29.9 kmh 30.67 in1038.6 mb 0.00 in0.0 mm 0.00 in0.0 mm 0.00 in0.0 mm
08:53 AM 18.7°F-7.4°C 6.0°F-14.4°C 57% 6.3 mph ESE10.1 kmh ESE 18.6 mph29.9 kmh 30.67 in1038.6 mb 0.00 in0.0 mm 0.00 in0.0 mm 0.00 in0.0 mm
08:54 AM 18.7°F-7.4°C 6.0°F-14.4°C 57% 13.0 mph NNE20.9 kmh NNE 18.6 mph29.9 kmh 30.67 in1038.6 mb 0.00 in0.0 mm 0.00 in0.0 mm 0.00 in0.0 mm
08:55 AM 18.7°F-7.4°C 6.0°F-14.4°C 57% 8.3 mph NNE13.4 kmh NNE 18.6 mph29.9 kmh 30.67 in1038.6 mb 0.00 in0.0 mm 0.00 in0.0 mm 0.00 in0.0 mm
08:56 AM 18.7°F-7.4°C 6.0°F-14.4°C 57% 5.3 mph ESE8.5 kmh ESE 18.6 mph29.9 kmh 30.67 in1038.6 mb 0.00 in0.0 mm 0.00 in0.0 mm 0.00 in0.0 mm
08:57 AM 18.9°F-7.3°C 6.2°F-14.3°C 57% 9.4 mph NNE15.1 kmh NNE 18.6 mph29.9 kmh 30.67 in1038.6 mb 0.00 in0.0 mm 0.00 in0.0 mm 0.00 in0.0 mm
08:58 AM 18.9°F-7.3°C 5.8°F-14.6°C 56% 15.0 mph NNE24.1 kmh NNE 15.5 mph24.9 kmh 30.67 in1038.6 mb 0.00 in0.0 mm 0.00 in0.0 mm 0.00 in0.0 mm
08:59 AM 18.9°F-7.3°C 5.4°F-14.8°C 55% 9.9 mph ENE15.9 kmh ENE 15.5 mph24.9 kmh 30.67 in1038.6 mb 0.00 in0.0 mm 0.00 in0.0 mm 0.00 in0.0 mm
09:00 AM 18.9°F-7.3°C 5.8°F-14.6°C 56% 8.9 mph NNE14.3 kmh NNE 15.5 mph24.9 kmh 30.67 in1038.6 mb 0.00 in0.0 mm 0.00 in0.0 mm 0.00 in0.0 mm
09:01 AM 18.9°F-7.3°C 5.8°F-14.6°C 56% 11.9 mph NNE19.2 kmh NNE 15.5 mph24.9 kmh 30.67 in1038.6 mb 0.00 in0.0 mm 0.00 in0.0 mm 0.00 in0.0 mm
09:02 AM 18.9°F-7.3°C 5.8°F-14.6°C 56% 11.9 mph NNE19.2 kmh NNE 15.5 mph24.9 kmh 30.67 in1038.6 mb 0.00 in0.0 mm 0.00 in0.0 mm 0.00 in0.0 mm
09:07 AM 18.9°F-7.3°C 5.8°F-14.6°C 56% 7.8 mph NNE12.6 kmh NNE 15.5 mph24.9 kmh 30.67 in1038.6 mb 0.00 in0.0 mm 0.00 in0.0 mm 0.00 in0.0 mm
09:08 AM 19.0°F-7.2°C 5.9°F-14.5°C 56% 6.3 mph SSW10.1 kmh SSW 15.0 mph24.1 kmh 30.67 in1038.6 mb 0.00 in0.0 mm 0.00 in0.0 mm 0.00 in0.0 mm
09:09 AM 19.2°F-7.1°C 6.1°F-14.4°C 56% 5.8 mph NNE9.3 kmh NNE 12.5 mph20.1 kmh 30.67 in1038.6 mb 0.00 in0.0 mm 0.00 in0.0 mm 0.00 in0.0 mm
09:10 AM 19.2°F-7.1°C 6.1°F-14.4°C 56% 5.3 mph NNE8.5 kmh NNE 12.5 mph20.1 kmh 30.67 in1038.6 mb 0.00 in0.0 mm 0.00 in0.0 mm 0.00 in0.0 mm
09:11 AM 19.4°F-7.0°C 6.3°F-14.3°C 56% 8.9 mph NE14.3 kmh NE 11.9 mph19.2 kmh 30.67 in1038.6 mb 0.00 in0.0 mm 0.00 in0.0 mm 0.00 in0.0 mm
09:12 AM 19.6°F-6.9°C 6.5°F-14.2°C 56% 6.3 mph NNE10.1 kmh NNE 11.9 mph19.2 kmh 30.67 in1038.6 mb 0.00 in0.0 mm 0.00 in0.0 mm 0.00 in0.0 mm
09:13 AM 19.8°F-6.8°C 6.7°F-14.1°C 56% 6.8 mph NNE10.9 kmh NNE 9.9 mph15.9 kmh 30.67 in1038.6 mb 0.00 in0.0 mm 0.00 in0.0 mm 0.00 in0.0 mm
09:14 AM 19.8°F-6.8°C 6.7°F-14.1°C 56% 5.3 mph NNE8.5 kmh NNE 9.9 mph15.9 kmh 30.67 in1038.6 mb 0.00 in0.0 mm 0.00 in0.0 mm 0.00 in0.0 mm
09:15 AM 19.8°F-6.8°C 6.7°F-14.1°C 56% 7.8 mph NE12.6 kmh NE 9.9 mph15.9 kmh 30.67 in1038.6 mb 0.00 in0.0 mm 0.00 in0.0 mm 0.00 in0.0 mm
09:16 AM 19.8°F-6.8°C 6.3°F-14.3°C 55% 7.8 mph NE12.6 kmh NE 9.9 mph15.9 kmh 30.67 in1038.6 mb 0.00 in0.0 mm 0.00 in0.0 mm 0.00 in0.0 mm
09:17 AM 19.8°F-6.8°C 6.3°F-14.3°C 55% 13.0 mph NNE20.9 kmh NNE 13.0 mph20.9 kmh 30.67 in1038.6 mb 0.00 in0.0 mm 0.00 in0.0 mm 0.00 in0.0 mm
09:18 AM 19.8°F-6.8°C 6.3°F-14.3°C 55% 14.5 mph NE23.3 kmh NE 14.5 mph23.3 kmh 30.67 in1038.6 mb 0.00 in0.0 mm 0.00 in0.0 mm 0.00 in0.0 mm
09:19 AM 19.6°F-6.9°C 6.1°F-14.4°C 55% 7.8 mph NE12.6 kmh NE 14.5 mph23.3 kmh 30.67 in1038.6 mb 0.00 in0.0 mm 0.00 in0.0 mm 0.00 in0.0 mm
09:20 AM 19.6°F-6.9°C 6.1°F-14.4°C 55% 7.8 mph NE12.6 kmh NE 14.5 mph23.3 kmh 30.67 in1038.6 mb 0.00 in0.0 mm 0.00 in0.0 mm 0.00 in0.0 mm
09:21 AM 19.6°F-6.9°C 6.1°F-14.4°C 55% 10.9 mph NNE17.5 kmh NNE 14.5 mph23.3 kmh 30.67 in1038.6 mb 0.00 in0.0 mm 0.00 in0.0 mm 0.00 in0.0 mm
09:22 AM 19.6°F-6.9°C 6.1°F-14.4°C 55% 7.8 mph NE12.6 kmh NE 14.5 mph23.3 kmh 30.67 in1038.6 mb 0.00 in0.0 mm 0.00 in0.0 mm 0.00 in0.0 mm
09:23 AM 19.4°F-7.0°C 5.9°F-14.5°C 55% 13.0 mph N20.9 kmh N 14.5 mph23.3 kmh 30.67 in1038.6 mb 0.00 in0.0 mm 0.00 in0.0 mm 0.00 in0.0 mm
09:24 AM 19.4°F-7.0°C 5.9°F-14.5°C 55% 6.8 mph S10.9 kmh S 14.5 mph23.3 kmh 30.67 in1038.6 mb 0.00 in0.0 mm 0.00 in0.0 mm 0.00 in0.0 mm
09:25 AM 19.6°F-6.9°C 6.1°F-14.4°C 55% 9.4 mph NNE15.1 kmh NNE 14.5 mph23.3 kmh 30.67 in1038.6 mb 0.00 in0.0 mm 0.00 in0.0 mm 0.00 in0.0 mm
09:26 AM 19.6°F-6.9°C 6.1°F-14.4°C 55% 10.4 mph NNW16.7 kmh NNW 14.5 mph23.3 kmh 30.67 in1038.6 mb 0.00 in0.0 mm 0.00 in0.0 mm 0.00 in0.0 mm
09:27 AM 19.6°F-6.9°C 5.7°F-14.6°C 54% 8.9 mph ESE14.3 kmh ESE 14.5 mph23.3 kmh 30.67 in1038.6 mb 0.00 in0.0 mm 0.00 in0.0 mm 0.00 in0.0 mm
09:28 AM 19.8°F-6.8°C 5.9°F-14.5°C 54% 5.8 mph NE9.3 kmh NE 13.5 mph21.7 kmh 30.67 in1038.6 mb 0.00 in0.0 mm 0.00 in0.0 mm 0.00 in0.0 mm
09:29 AM 19.8°F-6.8°C 5.9°F-14.5°C 54% 7.3 mph NE11.7 kmh NE 13.5 mph21.7 kmh 30.68 in1038.9 mb 0.00 in0.0 mm 0.00 in0.0 mm 0.00 in0.0 mm
09:30 AM 19.8°F-6.8°C 5.9°F-14.5°C 54% 8.3 mph ESE13.4 kmh ESE 13.5 mph21.7 kmh 30.68 in1038.9 mb 0.00 in0.0 mm 0.00 in0.0 mm 0.00 in0.0 mm
09:31 AM 19.8°F-6.8°C 5.9°F-14.5°C 54% 10.9 mph NNE17.5 kmh NNE 13.5 mph21.7 kmh 30.68 in1038.9 mb 0.00 in0.0 mm 0.00 in0.0 mm 0.00 in0.0 mm
09:32 AM 19.9°F-6.7°C 6.0°F-14.4°C 54% 7.3 mph NNW11.7 kmh NNW 13.5 mph21.7 kmh 30.68 in1038.9 mb 0.00 in0.0 mm 0.00 in0.0 mm 0.00 in0.0 mm
09:33 AM 20.1°F-6.6°C 6.6°F-14.1°C 55% 9.4 mph WNW15.1 kmh WNW 13.0 mph20.9 kmh 30.68 in1038.9 mb 0.00 in0.0 mm 0.00 in0.0 mm 0.00 in0.0 mm
09:34 AM 20.1°F-6.6°C 6.6°F-14.1°C 55% 11.4 mph NNE18.3 kmh NNE 13.0 mph20.9 kmh 30.68 in1038.9 mb 0.00 in0.0 mm 0.00 in0.0 mm 0.00 in0.0 mm
09:35 AM 20.1°F-6.6°C 6.2°F-14.3°C 54% 11.9 mph N19.2 kmh N 13.0 mph20.9 kmh 30.68 in1038.9 mb 0.00 in0.0 mm 0.00 in0.0 mm 0.00 in0.0 mm
09:36 AM 19.9°F-6.7°C 6.0°F-14.4°C 54% 9.4 mph NNE15.1 kmh NNE 13.0 mph20.9 kmh 30.68 in1038.9 mb 0.00 in0.0 mm 0.00 in0.0 mm 0.00 in0.0 mm
09:37 AM 19.9°F-6.7°C 6.0°F-14.4°C 54% 8.9 mph NE14.3 kmh NE 13.0 mph20.9 kmh 30.68 in1038.9 mb 0.00 in0.0 mm 0.00 in0.0 mm 0.00 in0.0 mm
09:38 AM 20.1°F-6.6°C 5.7°F-14.6°C 53% 6.8 mph E10.9 kmh E 13.0 mph20.9 kmh 30.68 in1038.9 mb 0.00 in0.0 mm 0.00 in0.0 mm 0.00 in0.0 mm
09:39 AM 20.1°F-6.6°C 5.7°F-14.6°C 53% 3.7 mph NNE6.0 kmh NNE 13.0 mph20.9 kmh 30.68 in1038.9 mb 0.00 in0.0 mm 0.00 in0.0 mm 0.00 in0.0 mm
09:40 AM 20.3°F-6.5°C 5.9°F-14.5°C 53% 8.3 mph NE13.4 kmh NE 12.5 mph20.1 kmh 30.68 in1038.9 mb 0.00 in0.0 mm 0.00 in0.0 mm 0.00 in0.0 mm
09:41 AM 20.3°F-6.5°C 5.9°F-14.5°C 53% 8.9 mph NNE14.3 kmh NNE 12.5 mph20.1 kmh 30.68 in1038.9 mb 0.00 in0.0 mm 0.00 in0.0 mm 0.00 in0.0 mm
09:42 AM 20.3°F-6.5°C 5.9°F-14.5°C 53% 7.3 mph NNE11.7 kmh NNE 12.5 mph20.1 kmh 30.68 in1038.9 mb 0.00 in0.0 mm 0.00 in0.0 mm 0.00 in0.0 mm
09:43 AM 20.3°F-6.5°C 5.9°F-14.5°C 53% 9.4 mph NE15.1 kmh NE 11.9 mph19.2 kmh 30.68 in1038.9 mb 0.00 in0.0 mm 0.00 in0.0 mm 0.00 in0.0 mm
09:44 AM 20.3°F-6.5°C 5.9°F-14.5°C 53% 4.2 mph NE6.8 kmh NE 11.9 mph19.2 kmh 30.68 in1038.9 mb 0.00 in0.0 mm 0.00 in0.0 mm 0.00 in0.0 mm
09:45 AM 20.5°F-6.4°C 6.1°F-14.4°C 53% 5.3 mph NE8.5 kmh NE 11.9 mph19.2 kmh 30.68 in1038.9 mb 0.00 in0.0 mm 0.00 in0.0 mm 0.00 in0.0 mm
09:46 AM 20.7°F-6.3°C 6.3°F-14.3°C 53% 8.9 mph WSW14.3 kmh WSW 11.9 mph19.2 kmh 30.68 in1038.9 mb 0.00 in0.0 mm 0.00 in0.0 mm 0.00 in0.0 mm
09:47 AM 20.7°F-6.3°C 6.3°F-14.3°C 53% 6.8 mph N10.9 kmh N 9.4 mph15.1 kmh 30.68 in1038.9 mb 0.00 in0.0 mm 0.00 in0.0 mm 0.00 in0.0 mm
09:48 AM 20.8°F-6.2°C 6.8°F-14.0°C 54% 7.8 mph NNE12.6 kmh NNE 9.4 mph15.1 kmh 30.68 in1038.9 mb 0.00 in0.0 mm 0.00 in0.0 mm 0.00 in0.0 mm
09:49 AM 21.0°F-6.1°C 6.6°F-14.1°C 53% 8.3 mph NE13.4 kmh NE 9.9 mph15.9 kmh 30.68 in1038.9 mb 0.00 in0.0 mm 0.00 in0.0 mm 0.00 in0.0 mm
09:50 AM 21.0°F-6.1°C 6.6°F-14.1°C 53% 5.3 mph NW8.5 kmh NW 9.9 mph15.9 kmh 30.68 in1038.9 mb 0.00 in0.0 mm 0.00 in0.0 mm 0.00 in0.0 mm
09:51 AM 21.0°F-6.1°C 6.6°F-14.1°C 53% 4.7 mph NW7.6 kmh NW 9.9 mph15.9 kmh 30.68 in1038.9 mb 0.00 in0.0 mm 0.00 in0.0 mm 0.00 in0.0 mm
09:52 AM 21.0°F-6.1°C 6.6°F-14.1°C 53% 5.3 mph NE8.5 kmh NE 9.9 mph15.9 kmh 30.68 in1038.9 mb 0.00 in0.0 mm 0.00 in0.0 mm 0.00 in0.0 mm
09:53 AM 21.2°F-6.0°C 6.8°F-14.0°C 53% 9.4 mph NE15.1 kmh NE 9.9 mph15.9 kmh 30.68 in1038.9 mb 0.00 in0.0 mm 0.00 in0.0 mm 0.00 in0.0 mm
09:54 AM 21.2°F-6.0°C 6.8°F-14.0°C 53% 5.8 mph NE9.3 kmh NE 10.4 mph16.7 kmh 30.68 in1038.9 mb 0.00 in0.0 mm 0.00 in0.0 mm 0.00 in0.0 mm
09:55 AM 21.0°F-6.1°C 6.2°F-14.3°C 52% 8.3 mph NNE13.4 kmh NNE 11.9 mph19.2 kmh 30.68 in1038.9 mb 0.00 in0.0 mm 0.00 in0.0 mm 0.00 in0.0 mm
09:56 AM 21.0°F-6.1°C 6.2°F-14.3°C 52% 9.9 mph NNE15.9 kmh NNE 11.9 mph19.2 kmh 30.68 in1038.9 mb 0.00 in0.0 mm 0.00 in0.0 mm 0.00 in0.0 mm
09:57 AM 21.0°F-6.1°C 6.2°F-14.3°C 52% 7.8 mph N12.6 kmh N 11.9 mph19.2 kmh 30.68 in1038.9 mb 0.00 in0.0 mm 0.00 in0.0 mm 0.00 in0.0 mm
09:58 AM 21.2°F-6.0°C 6.8°F-14.0°C 53% 7.3 mph E11.7 kmh E 11.9 mph19.2 kmh 30.68 in1038.9 mb 0.00 in0.0 mm 0.00 in0.0 mm 0.00 in0.0 mm
09:59 AM 21.2°F-6.0°C 6.8°F-14.0°C 53% 6.8 mph E10.9 kmh E 11.9 mph19.2 kmh 30.68 in1038.9 mb 0.00 in0.0 mm 0.00 in0.0 mm 0.00 in0.0 mm
10:00 AM 21.4°F-5.9°C 7.0°F-13.9°C 53% 7.8 mph NNE12.6 kmh NNE 11.9 mph19.2 kmh 30.68 in1038.9 mb 0.00 in0.0 mm 0.00 in0.0 mm 0.00 in0.0 mm
10:01 AM 21.6°F-5.8°C 7.1°F-13.8°C 53% 8.3 mph NNE13.4 kmh NNE 11.9 mph19.2 kmh 30.68 in1038.9 mb 0.00 in0.0 mm 0.00 in0.0 mm 0.00 in0.0 mm
10:02 AM 21.6°F-5.8°C 7.1°F-13.8°C 53% 10.4 mph NE16.7 kmh NE 11.9 mph19.2 kmh 30.68 in1038.9 mb 0.00 in0.0 mm 0.00 in0.0 mm 0.00 in0.0 mm
10:03 AM 21.4°F-5.9°C 6.5°F-14.2°C 52% 7.8 mph NE12.6 kmh NE 11.9 mph19.2 kmh 30.68 in1038.9 mb 0.00 in0.0 mm 0.00 in0.0 mm 0.00 in0.0 mm
10:04 AM 21.4°F-5.9°C 6.5°F-14.2°C 52% 7.8 mph NNE12.6 kmh NNE 11.9 mph19.2 kmh 30.68 in1038.9 mb 0.00 in0.0 mm 0.00 in0.0 mm 0.00 in0.0 mm
10:05 AM 21.6°F-5.8°C 6.7°F-14.1°C 52% 5.8 mph ENE9.3 kmh ENE 11.9 mph19.2 kmh 30.68 in1038.9 mb 0.00 in0.0 mm 0.00 in0.0 mm 0.00 in0.0 mm
10:06 AM 21.6°F-5.8°C 6.7°F-14.1°C 52% 6.8 mph NNE10.9 kmh NNE 11.9 mph19.2 kmh 30.68 in1038.9 mb 0.00 in0.0 mm 0.00 in0.0 mm 0.00 in0.0 mm
10:07 AM 21.6°F-5.8°C 6.7°F-14.1°C 52% 5.3 mph NNE8.5 kmh NNE 11.9 mph19.2 kmh 30.68 in1038.9 mb 0.00 in0.0 mm 0.00 in0.0 mm 0.00 in0.0 mm
10:08 AM 21.7°F-5.7°C 6.8°F-14.0°C 52% 5.3 mph ESE8.5 kmh ESE 11.9 mph19.2 kmh 30.68 in1038.9 mb 0.00 in0.0 mm 0.00 in0.0 mm 0.00 in0.0 mm
10:09 AM 21.9°F-5.6°C 7.0°F-13.9°C 52% 6.8 mph SSE10.9 kmh SSE 11.9 mph19.2 kmh 30.68 in1038.9 mb 0.00 in0.0 mm 0.00 in0.0 mm 0.00 in0.0 mm
10:10 AM 21.9°F-5.6°C 6.6°F-14.1°C 51% 4.7 mph NE7.6 kmh NE 11.9 mph19.2 kmh 30.68 in1038.9 mb 0.00 in0.0 mm 0.00 in0.0 mm 0.00 in0.0 mm
10:11 AM 21.9°F-5.6°C 6.6°F-14.1°C 51% 4.7 mph E7.6 kmh E 11.9 mph19.2 kmh 30.68 in1038.9 mb 0.00 in0.0 mm 0.00 in0.0 mm 0.00 in0.0 mm
10:12 AM 21.9°F-5.6°C 6.6°F-14.1°C 51% 5.8 mph NE9.3 kmh NE 11.9 mph19.2 kmh 30.68 in1038.9 mb 0.00 in0.0 mm 0.00 in0.0 mm 0.00 in0.0 mm
10:13 AM 21.9°F-5.6°C 6.6°F-14.1°C 51% 10.4 mph NE16.7 kmh NE 11.9 mph19.2 kmh 30.68 in1038.9 mb 0.00 in0.0 mm 0.00 in0.0 mm 0.00 in0.0 mm
10:14 AM 21.9°F-5.6°C 6.6°F-14.1°C 51% 8.3 mph NE13.4 kmh NE 11.4 mph18.3 kmh 30.68 in1038.9 mb 0.00 in0.0 mm 0.00 in0.0 mm 0.00 in0.0 mm
10:15 AM 22.1°F-5.5°C 7.2°F-13.8°C 52% 4.7 mph NNE7.6 kmh NNE 11.4 mph18.3 kmh 30.68 in1038.9 mb 0.00 in0.0 mm 0.00 in0.0 mm 0.00 in0.0 mm
10:16 AM 22.3°F-5.4°C 7.4°F-13.7°C 52% 8.9 mph NE14.3 kmh NE 11.4 mph18.3 kmh 30.68 in1038.9 mb 0.00 in0.0 mm 0.00 in0.0 mm 0.00 in0.0 mm
10:17 AM 22.3°F-5.4°C 7.4°F-13.7°C 52% 4.7 mph NNE7.6 kmh NNE 11.4 mph18.3 kmh 30.67 in1038.6 mb 0.00 in0.0 mm 0.00 in0.0 mm 0.00 in0.0 mm
10:18 AM 22.3°F-5.4°C 7.4°F-13.7°C 52% 5.8 mph ESE9.3 kmh ESE 11.4 mph18.3 kmh 30.67 in1038.6 mb 0.00 in0.0 mm 0.00 in0.0 mm 0.00 in0.0 mm
10:19 AM 22.6°F-5.2°C 8.1°F-13.3°C 53% 3.2 mph N5.1 kmh N 11.4 mph18.3 kmh 30.67 in1038.6 mb 0.00 in0.0 mm 0.00 in0.0 mm 0.00 in0.0 mm
10:20 AM 22.6°F-5.2°C 8.1°F-13.3°C 53% 6.3 mph NNE10.1 kmh NNE 10.4 mph16.7 kmh 30.67 in1038.6 mb 0.00 in0.0 mm 0.00 in0.0 mm 0.00 in0.0 mm
10:21 AM 22.6°F-5.2°C 7.7°F-13.5°C 52% 5.3 mph ESE8.5 kmh ESE 10.4 mph16.7 kmh 30.67 in1038.6 mb 0.00 in0.0 mm 0.00 in0.0 mm 0.00 in0.0 mm
10:22 AM 22.8°F-5.1°C 7.8°F-13.4°C 52% 9.4 mph NE15.1 kmh NE 10.4 mph16.7 kmh 30.67 in1038.6 mb 0.00 in0.0 mm 0.00 in0.0 mm 0.00 in0.0 mm
10:23 AM 22.6°F-5.2°C 6.8°F-14.0°C 50% 6.3 mph ESE10.1 kmh ESE 10.4 mph16.7 kmh 30.67 in1038.6 mb 0.00 in0.0 mm 0.00 in0.0 mm 0.00 in0.0 mm
10:24 AM 22.6°F-5.2°C 6.4°F-14.2°C 49% 5.3 mph ESE8.5 kmh ESE 10.4 mph16.7 kmh 30.67 in1038.6 mb 0.00 in0.0 mm 0.00 in0.0 mm 0.00 in0.0 mm
10:25 AM 22.5°F-5.3°C 5.8°F-14.6°C 48% 9.4 mph NE15.1 kmh NE 10.4 mph16.7 kmh 30.67 in1038.6 mb 0.00 in0.0 mm 0.00 in0.0 mm 0.00 in0.0 mm
10:26 AM 22.5°F-5.3°C 5.8°F-14.6°C 48% 7.8 mph ENE12.6 kmh ENE 10.4 mph16.7 kmh 30.67 in1038.6 mb 0.00 in0.0 mm 0.00 in0.0 mm 0.00 in0.0 mm
10:27 AM 22.5°F-5.3°C 6.3°F-14.3°C 49% 7.3 mph N11.7 kmh N 10.9 mph17.5 kmh 30.67 in1038.6 mb 0.00 in0.0 mm 0.00 in0.0 mm 0.00 in0.0 mm
10:28 AM 22.6°F-5.2°C 6.8°F-14.0°C 50% 4.2 mph NE6.8 kmh NE 10.9 mph17.5 kmh 30.67 in1038.6 mb 0.00 in0.0 mm 0.00 in0.0 mm 0.00 in0.0 mm
10:29 AM 22.6°F-5.2°C 6.8°F-14.0°C 50% 8.9 mph NNE14.3 kmh NNE 10.9 mph17.5 kmh 30.67 in1038.6 mb 0.00 in0.0 mm 0.00 in0.0 mm 0.00 in0.0 mm
10:30 AM 22.6°F-5.2°C 6.8°F-14.0°C 50% 7.3 mph NNE11.7 kmh NNE 10.9 mph17.5 kmh 30.67 in1038.6 mb 0.00 in0.0 mm 0.00 in0.0 mm 0.00 in0.0 mm
10:31 AM 22.6°F-5.2°C 7.2°F-13.8°C 51% 6.3 mph NNE10.1 kmh NNE 10.9 mph17.5 kmh 30.67 in1038.6 mb 0.00 in0.0 mm 0.00 in0.0 mm 0.00 in0.0 mm
10:32 AM 22.8°F-5.1°C 7.4°F-13.7°C 51% 7.3 mph N11.7 kmh N 10.9 mph17.5 kmh 30.67 in1038.6 mb 0.00 in0.0 mm 0.00 in0.0 mm 0.00 in0.0 mm
10:33 AM 22.8°F-5.1°C 7.0°F-13.9°C 50% 5.3 mph ESE8.5 kmh ESE 10.9 mph17.5 kmh 30.67 in1038.6 mb 0.00 in0.0 mm 0.00 in0.0 mm 0.00 in0.0 mm
10:34 AM 22.8°F-5.1°C 7.0°F-13.9°C 50% 9.9 mph N15.9 kmh N 10.9 mph17.5 kmh 30.67 in1038.6 mb 0.00 in0.0 mm 0.00 in0.0 mm 0.00 in0.0 mm
10:35 AM 22.8°F-5.1°C 7.0°F-13.9°C 50% 5.8 mph NNE9.3 kmh NNE 10.9 mph17.5 kmh 30.67 in1038.6 mb 0.00 in0.0 mm 0.00 in0.0 mm 0.00 in0.0 mm
10:36 AM 23.0°F-5.0°C 7.2°F-13.8°C 50% 7.8 mph NE12.6 kmh NE 10.9 mph17.5 kmh 30.67 in1038.6 mb 0.00 in0.0 mm 0.00 in0.0 mm 0.00 in0.0 mm
10:37 AM 22.8°F-5.1°C 7.0°F-13.9°C 50% 7.8 mph W12.6 kmh W 10.4 mph16.7 kmh 30.67 in1038.6 mb 0.00 in0.0 mm 0.00 in0.0 mm 0.00 in0.0 mm
10:38 AM 22.6°F-5.2°C 6.8°F-14.0°C 50% 6.8 mph NNW10.9 kmh NNW 10.4 mph16.7 kmh 30.67 in1038.6 mb 0.00 in0.0 mm 0.00 in0.0 mm 0.00 in0.0 mm
10:39 AM 22.8°F-5.1°C 7.0°F-13.9°C 50% 3.7 mph NNW6.0 kmh NNW 10.4 mph16.7 kmh 30.67 in1038.6 mb 0.00 in0.0 mm 0.00 in0.0 mm 0.00 in0.0 mm
10:40 AM 22.8°F-5.1°C 7.0°F-13.9°C 50% 7.3 mph N11.7 kmh N 10.4 mph16.7 kmh 30.67 in1038.6 mb 0.00 in0.0 mm 0.00 in0.0 mm 0.00 in0.0 mm
10:41 AM 22.8°F-5.1°C 6.5°F-14.2°C 49% 3.2 mph N5.1 kmh N 10.4 mph16.7 kmh 30.67 in1038.6 mb 0.00 in0.0 mm 0.00 in0.0 mm 0.00 in0.0 mm
10:42 AM 22.8°F-5.1°C 6.5°F-14.2°C 49% 9.4 mph NNE15.1 kmh NNE 10.4 mph16.7 kmh 30.67 in1038.6 mb 0.00 in0.0 mm 0.00 in0.0 mm 0.00 in0.0 mm
10:43 AM 22.8°F-5.1°C 6.5°F-14.2°C 49% 6.3 mph E10.1 kmh E 10.4 mph16.7 kmh 30.67 in1038.6 mb 0.00 in0.0 mm 0.00 in0.0 mm 0.00 in0.0 mm
10:44 AM 23.0°F-5.0°C 6.7°F-14.1°C 49% 6.8 mph NE10.9 kmh NE 10.4 mph16.7 kmh 30.67 in1038.6 mb 0.00 in0.0 mm 0.00 in0.0 mm 0.00 in0.0 mm
10:45 AM 23.5°F-4.7°C 7.6°F-13.6°C 50% 6.3 mph NE10.1 kmh NE 10.4 mph16.7 kmh 30.67 in1038.6 mb 0.00 in0.0 mm 0.00 in0.0 mm 0.00 in0.0 mm
10:46 AM 23.4°F-4.8°C 7.5°F-13.6°C 50% 5.8 mph NW9.3 kmh NW 10.4 mph16.7 kmh 30.67 in1038.6 mb 0.00 in0.0 mm 0.00 in0.0 mm 0.00 in0.0 mm
10:47 AM 23.5°F-4.7°C 8.1°F-13.3°C 51% 6.3 mph NNE10.1 kmh NNE 10.4 mph16.7 kmh 30.67 in1038.6 mb 0.00 in0.0 mm 0.00 in0.0 mm 0.00 in0.0 mm
10:48 AM 23.5°F-4.7°C 8.1°F-13.3°C 51% 7.8 mph NW12.6 kmh NW 9.4 mph15.1 kmh 30.67 in1038.6 mb 0.00 in0.0 mm 0.00 in0.0 mm 0.00 in0.0 mm
10:49 AM 23.0°F-5.0°C 7.2°F-13.8°C 50% 5.3 mph NE8.5 kmh NE 9.4 mph15.1 kmh 30.67 in1038.6 mb 0.00 in0.0 mm 0.00 in0.0 mm 0.00 in0.0 mm
10:50 AM 23.2°F-4.9°C 7.4°F-13.7°C 50% 5.3 mph N8.5 kmh N 9.4 mph15.1 kmh 30.67 in1038.6 mb 0.00 in0.0 mm 0.00 in0.0 mm 0.00 in0.0 mm
10:51 AM 23.4°F-4.8°C 7.5°F-13.6°C 50% 8.3 mph NE13.4 kmh NE 9.4 mph15.1 kmh 30.67 in1038.6 mb 0.00 in0.0 mm 0.00 in0.0 mm 0.00 in0.0 mm
10:52 AM 23.2°F-4.9°C 6.9°F-13.9°C 49% 5.3 mph N8.5 kmh N 9.4 mph15.1 kmh 30.66 in1038.3 mb 0.00 in0.0 mm 0.00 in0.0 mm 0.00 in0.0 mm
10:53 AM 23.2°F-4.9°C 7.4°F-13.7°C 50% 7.8 mph N12.6 kmh N 8.3 mph13.4 kmh 30.66 in1038.3 mb 0.00 in0.0 mm 0.00 in0.0 mm 0.00 in0.0 mm
10:54 AM 23.4°F-4.8°C 8.0°F-13.3°C 51% 6.8 mph NNE10.9 kmh NNE 8.9 mph14.3 kmh 30.66 in1038.3 mb 0.00 in0.0 mm 0.00 in0.0 mm 0.00 in0.0 mm
10:55 AM 23.5°F-4.7°C 8.1°F-13.3°C 51% 6.3 mph NNW10.1 kmh NNW 8.9 mph14.3 kmh 30.66 in1038.3 mb 0.00 in0.0 mm 0.00 in0.0 mm 0.00 in0.0 mm
10:56 AM 23.9°F-4.5°C 8.0°F-13.3°C 50% 3.2 mph SE5.1 kmh SE 8.9 mph14.3 kmh 30.66 in1038.3 mb 0.00 in0.0 mm 0.00 in0.0 mm 0.00 in0.0 mm
10:57 AM 23.9°F-4.5°C 7.6°F-13.6°C 49% 6.3 mph NNW10.1 kmh NNW 8.9 mph14.3 kmh 30.66 in1038.3 mb 0.00 in0.0 mm 0.00 in0.0 mm 0.00 in0.0 mm
10:58 AM 24.1°F-4.4°C 7.7°F-13.5°C 49% 9.4 mph ESE15.1 kmh ESE 9.9 mph15.9 kmh 30.66 in1038.3 mb 0.00 in0.0 mm 0.00 in0.0 mm 0.00 in0.0 mm
10:59 AM 23.9°F-4.5°C 7.1°F-13.8°C 48% 5.8 mph ENE9.3 kmh ENE 9.9 mph15.9 kmh 30.66 in1038.3 mb 0.00 in0.0 mm 0.00 in0.0 mm 0.00 in0.0 mm
11:00 AM 23.9°F-4.5°C 7.1°F-13.8°C 48% 8.9 mph NNW14.3 kmh NNW 9.9 mph15.9 kmh 30.66 in1038.3 mb 0.00 in0.0 mm 0.00 in0.0 mm 0.00 in0.0 mm
11:01 AM 23.9°F-4.5°C 7.1°F-13.8°C 48% 6.3 mph ESE10.1 kmh ESE 9.9 mph15.9 kmh 30.66 in1038.3 mb 0.00 in0.0 mm 0.00 in0.0 mm 0.00 in0.0 mm
11:02 AM 23.9°F-4.5°C 7.1°F-13.8°C 48% 3.2 mph ESE5.1 kmh ESE 9.9 mph15.9 kmh 30.66 in1038.3 mb 0.00 in0.0 mm 0.00 in0.0 mm 0.00 in0.0 mm
11:03 AM 23.9°F-4.5°C 7.1°F-13.8°C 48% 8.9 mph NNE14.3 kmh NNE 9.9 mph15.9 kmh 30.66 in1038.3 mb 0.00 in0.0 mm 0.00 in0.0 mm 0.00 in0.0 mm
11:04 AM 23.9°F-4.5°C 7.6°F-13.6°C 49% 6.3 mph NNE10.1 kmh NNE 9.9 mph15.9 kmh 30.66 in1038.3 mb 0.00 in0.0 mm 0.00 in0.0 mm 0.00 in0.0 mm
11:05 AM 24.1°F-4.4°C 7.7°F-13.5°C 49% 7.3 mph NNE11.7 kmh NNE 9.9 mph15.9 kmh 30.66 in1038.3 mb 0.00 in0.0 mm 0.00 in0.0 mm 0.00 in0.0 mm
11:06 AM 24.1°F-4.4°C 7.7°F-13.5°C 49% 6.3 mph NE10.1 kmh NE 9.9 mph15.9 kmh 30.66 in1038.3 mb 0.00 in0.0 mm 0.00 in0.0 mm 0.00 in0.0 mm
11:07 AM 24.1°F-4.4°C 7.7°F-13.5°C 49% 9.9 mph NE15.9 kmh NE 9.9 mph15.9 kmh 30.66 in1038.3 mb 0.00 in0.0 mm 0.00 in0.0 mm 0.00 in0.0 mm
11:08 AM 23.9°F-4.5°C 7.1°F-13.8°C 48% 8.3 mph NW13.4 kmh NW 9.9 mph15.9 kmh 30.66 in1038.3 mb 0.00 in0.0 mm 0.00 in0.0 mm 0.00 in0.0 mm
11:09 AM 23.9°F-4.5°C 7.1°F-13.8°C 48% 6.8 mph NNE10.9 kmh NNE 9.9 mph15.9 kmh 30.66 in1038.3 mb 0.00 in0.0 mm 0.00 in0.0 mm 0.00 in0.0 mm
11:10 AM 23.9°F-4.5°C 7.1°F-13.8°C 48% 8.9 mph NNE14.3 kmh NNE 9.9 mph15.9 kmh 30.66 in1038.3 mb 0.00 in0.0 mm 0.00 in0.0 mm 0.00 in0.0 mm
11:11 AM 23.7°F-4.6°C 6.9°F-13.9°C 48% 5.8 mph NNE9.3 kmh NNE 9.9 mph15.9 kmh 30.66 in1038.3 mb 0.00 in0.0 mm 0.00 in0.0 mm 0.00 in0.0 mm
11:12 AM 23.7°F-4.6°C 6.9°F-13.9°C 48% 6.3 mph NNE10.1 kmh NNE 9.9 mph15.9 kmh 30.66 in1038.3 mb 0.00 in0.0 mm 0.00 in0.0 mm 0.00 in0.0 mm
11:13 AM 23.9°F-4.5°C 7.1°F-13.8°C 48% 6.3 mph N10.1 kmh N 9.9 mph15.9 kmh 30.66 in1038.3 mb 0.00 in0.0 mm 0.00 in0.0 mm 0.00 in0.0 mm
11:14 AM 23.9°F-4.5°C 7.1°F-13.8°C 48% 10.4 mph W16.7 kmh W 10.9 mph17.5 kmh 30.66 in1038.3 mb 0.00 in0.0 mm 0.00 in0.0 mm 0.00 in0.0 mm
11:15 AM 23.7°F-4.6°C 6.9°F-13.9°C 48% 9.9 mph N15.9 kmh N 10.9 mph17.5 kmh 30.66 in1038.3 mb 0.00 in0.0 mm 0.00 in0.0 mm 0.00 in0.0 mm
11:16 AM 23.9°F-4.5°C 7.6°F-13.6°C 49% 10.9 mph NNE17.5 kmh NNE 10.9 mph17.5 kmh 30.66 in1038.3 mb 0.00 in0.0 mm 0.00 in0.0 mm 0.00 in0.0 mm
11:17 AM 24.1°F-4.4°C 6.8°F-14.0°C 47% 7.8 mph NE12.6 kmh NE 10.9 mph17.5 kmh 30.66 in1038.3 mb 0.00 in0.0 mm 0.00 in0.0 mm 0.00 in0.0 mm
11:18 AM 24.1°F-4.4°C 6.8°F-14.0°C 47% 3.7 mph NNE6.0 kmh NNE 10.9 mph17.5 kmh 30.66 in1038.3 mb 0.00 in0.0 mm 0.00 in0.0 mm 0.00 in0.0 mm
11:19 AM 24.3°F-4.3°C 7.0°F-13.9°C 47% 6.8 mph N10.9 kmh N 10.9 mph17.5 kmh 30.66 in1038.3 mb 0.00 in0.0 mm 0.00 in0.0 mm 0.00 in0.0 mm
11:20 AM 24.3°F-4.3°C 7.5°F-13.6°C 48% 5.3 mph NNE8.5 kmh NNE 10.9 mph17.5 kmh 30.66 in1038.3 mb 0.00 in0.0 mm 0.00 in0.0 mm 0.00 in0.0 mm
11:21 AM 24.4°F-4.2°C 7.6°F-13.6°C 48% 7.8 mph NNE12.6 kmh NNE 10.9 mph17.5 kmh 30.66 in1038.3 mb 0.00 in0.0 mm 0.00 in0.0 mm 0.00 in0.0 mm
11:22 AM 24.4°F-4.2°C 7.6°F-13.6°C 48% 6.8 mph NE10.9 kmh NE 10.9 mph17.5 kmh 30.66 in1038.3 mb 0.00 in0.0 mm 0.00 in0.0 mm 0.00 in0.0 mm
11:23 AM 24.6°F-4.1°C 7.7°F-13.5°C 48% 4.7 mph NNE7.6 kmh NNE 10.9 mph17.5 kmh 30.66 in1038.3 mb 0.00 in0.0 mm 0.00 in0.0 mm 0.00 in0.0 mm
11:24 AM 24.6°F-4.1°C 7.7°F-13.5°C 48% 8.3 mph NNW13.4 kmh NNW 10.9 mph17.5 kmh 30.66 in1038.3 mb 0.00 in0.0 mm 0.00 in0.0 mm 0.00 in0.0 mm
11:25 AM 24.4°F-4.2°C 7.1°F-13.8°C 47% 7.3 mph NNE11.7 kmh NNE 10.9 mph17.5 kmh 30.66 in1038.3 mb 0.00 in0.0 mm 0.00 in0.0 mm 0.00 in0.0 mm
11:26 AM 24.3°F-4.3°C 7.0°F-13.9°C 47% 4.2 mph WNW6.8 kmh WNW 10.4 mph16.7 kmh 30.66 in1038.3 mb 0.00 in0.0 mm 0.00 in0.0 mm 0.00 in0.0 mm
11:27 AM 24.3°F-4.3°C 7.0°F-13.9°C 47% 4.7 mph ESE7.6 kmh ESE 10.4 mph16.7 kmh 30.66 in1038.3 mb 0.00 in0.0 mm 0.00 in0.0 mm 0.00 in0.0 mm
11:28 AM 24.6°F-4.1°C 7.3°F-13.7°C 47% 6.3 mph NNE10.1 kmh NNE 10.4 mph16.7 kmh 30.66 in1038.3 mb 0.00 in0.0 mm 0.00 in0.0 mm 0.00 in0.0 mm
11:29 AM 24.6°F-4.1°C 7.3°F-13.7°C 47% 7.8 mph NNE12.6 kmh NNE 10.4 mph16.7 kmh 30.66 in1038.3 mb 0.00 in0.0 mm 0.00 in0.0 mm 0.00 in0.0 mm
11:30 AM 24.6°F-4.1°C 7.3°F-13.7°C 47% 7.3 mph N11.7 kmh N 10.9 mph17.5 kmh 30.66 in1038.3 mb 0.00 in0.0 mm 0.00 in0.0 mm 0.00 in0.0 mm
11:31 AM 24.3°F-4.3°C 7.0°F-13.9°C 47% 5.8 mph W9.3 kmh W 10.9 mph17.5 kmh 30.66 in1038.3 mb 0.00 in0.0 mm 0.00 in0.0 mm 0.00 in0.0 mm
11:32 AM 24.3°F-4.3°C 7.5°F-13.6°C 48% 7.8 mph NNW12.6 kmh NNW 10.9 mph17.5 kmh 30.66 in1038.3 mb 0.00 in0.0 mm 0.00 in0.0 mm 0.00 in0.0 mm
11:33 AM 24.8°F-4.0°C 7.9°F-13.4°C 48% 6.8 mph NE10.9 kmh NE 10.9 mph17.5 kmh 30.66 in1038.3 mb 0.00 in0.0 mm 0.00 in0.0 mm 0.00 in0.0 mm
11:34 AM 25.0°F-3.9°C 7.6°F-13.6°C 47% 7.8 mph ENE12.6 kmh ENE 10.9 mph17.5 kmh 30.66 in1038.3 mb 0.00 in0.0 mm 0.00 in0.0 mm 0.00 in0.0 mm
11:35 AM 25.2°F-3.8°C 7.4°F-13.7°C 46% 5.8 mph NNE9.3 kmh NNE 10.9 mph17.5 kmh 30.66 in1038.3 mb 0.00 in0.0 mm 0.00 in0.0 mm 0.00 in0.0 mm
11:36 AM 25.2°F-3.8°C 7.4°F-13.7°C 46% 11.4 mph NNE18.3 kmh NNE 11.4 mph18.3 kmh 30.66 in1038.3 mb 0.00 in0.0 mm 0.00 in0.0 mm 0.00 in0.0 mm
11:37 AM 25.0°F-3.9°C 7.2°F-13.8°C 46% 4.2 mph WNW6.8 kmh WNW 11.4 mph18.3 kmh 30.66 in1038.3 mb 0.00 in0.0 mm 0.00 in0.0 mm 0.00 in0.0 mm
11:38 AM 25.0°F-3.9°C 6.7°F-14.1°C 45% 4.2 mph NNE6.8 kmh NNE 11.4 mph18.3 kmh 30.66 in1038.3 mb 0.00 in0.0 mm 0.00 in0.0 mm 0.00 in0.0 mm
11:39 AM 25.0°F-3.9°C 6.7°F-14.1°C 45% 6.8 mph NNE10.9 kmh NNE 11.4 mph18.3 kmh 30.66 in1038.3 mb 0.00 in0.0 mm 0.00 in0.0 mm 0.00 in0.0 mm
11:40 AM 25.0°F-3.9°C 6.7°F-14.1°C 45% 8.9 mph NW14.3 kmh NW 11.4 mph18.3 kmh 30.66 in1038.3 mb 0.00 in0.0 mm 0.00 in0.0 mm 0.00 in0.0 mm
11:41 AM 25.2°F-3.8°C 6.9°F-13.9°C 45% 10.9 mph N17.5 kmh N 11.4 mph18.3 kmh 30.65 in1037.9 mb 0.00 in0.0 mm 0.00 in0.0 mm 0.00 in0.0 mm
11:42 AM 25.2°F-3.8°C 7.4°F-13.7°C 46% 5.3 mph NE8.5 kmh NE 11.4 mph18.3 kmh 30.65 in1037.9 mb 0.00 in0.0 mm 0.00 in0.0 mm 0.00 in0.0 mm
11:43 AM 25.2°F-3.8°C 7.8°F-13.4°C 47% 6.8 mph E10.9 kmh E 11.4 mph18.3 kmh 30.65 in1037.9 mb 0.00 in0.0 mm 0.00 in0.0 mm 0.00 in0.0 mm
11:44 AM 25.3°F-3.7°C 7.0°F-13.9°C 45% 5.8 mph NNE9.3 kmh NNE 11.4 mph18.3 kmh 30.65 in1037.9 mb 0.00 in0.0 mm 0.00 in0.0 mm 0.00 in0.0 mm
11:45 AM 25.2°F-3.8°C 6.9°F-13.9°C 45% 7.3 mph NW11.7 kmh NW 11.4 mph18.3 kmh 30.65 in1037.9 mb 0.00 in0.0 mm 0.00 in0.0 mm 0.00 in0.0 mm
11:46 AM 25.0°F-3.9°C 7.2°F-13.8°C 46% 6.3 mph NE10.1 kmh NE 10.9 mph17.5 kmh 30.65 in1037.9 mb 0.00 in0.0 mm 0.00 in0.0 mm 0.00 in0.0 mm
11:47 AM 25.2°F-3.8°C 7.4°F-13.7°C 46% 8.9 mph N14.3 kmh N 10.9 mph17.5 kmh 30.65 in1037.9 mb 0.00 in0.0 mm 0.00 in0.0 mm 0.00 in0.0 mm
11:48 AM 25.2°F-3.8°C 7.4°F-13.7°C 46% 7.3 mph ENE11.7 kmh ENE 10.9 mph17.5 kmh 30.65 in1037.9 mb 0.00 in0.0 mm 0.00 in0.0 mm 0.00 in0.0 mm
11:49 AM 25.2°F-3.8°C 6.9°F-13.9°C 45% 8.9 mph N14.3 kmh N 10.9 mph17.5 kmh 30.65 in1037.9 mb 0.00 in0.0 mm 0.00 in0.0 mm 0.00 in0.0 mm
11:50 AM 25.2°F-3.8°C 6.9°F-13.9°C 45% 6.3 mph NNE10.1 kmh NNE 10.9 mph17.5 kmh 30.65 in1037.9 mb 0.00 in0.0 mm 0.00 in0.0 mm 0.00 in0.0 mm
11:51 AM 25.0°F-3.9°C 7.2°F-13.8°C 46% 6.8 mph NNW10.9 kmh NNW 10.9 mph17.5 kmh 30.65 in1037.9 mb 0.00 in0.0 mm 0.00 in0.0 mm 0.00 in0.0 mm
11:52 AM 25.0°F-3.9°C 7.2°F-13.8°C 46% 5.3 mph NNW8.5 kmh NNW 10.4 mph16.7 kmh 30.65 in1037.9 mb 0.00 in0.0 mm 0.00 in0.0 mm 0.00 in0.0 mm
11:53 AM 25.2°F-3.8°C 7.4°F-13.7°C 46% 5.3 mph N8.5 kmh N 10.4 mph16.7 kmh 30.65 in1037.9 mb 0.00 in0.0 mm 0.00 in0.0 mm 0.00 in0.0 mm
11:54 AM 25.3°F-3.7°C 7.0°F-13.9°C 45% 10.4 mph NNE16.7 kmh NNE 13.0 mph20.9 kmh 30.65 in1037.9 mb 0.00 in0.0 mm 0.00 in0.0 mm 0.00 in0.0 mm
11:55 AM 25.3°F-3.7°C 7.0°F-13.9°C 45% 2.7 mph E4.3 kmh E 13.0 mph20.9 kmh 30.65 in1037.9 mb 0.00 in0.0 mm 0.00 in0.0 mm 0.00 in0.0 mm
11:56 AM 25.5°F-3.6°C 7.2°F-13.8°C 45% 2.7 mph NE4.3 kmh NE 13.0 mph20.9 kmh 30.65 in1037.9 mb 0.00 in0.0 mm 0.00 in0.0 mm 0.00 in0.0 mm
11:57 AM 25.9°F-3.4°C 8.0°F-13.3°C 46% 5.3 mph NNE8.5 kmh NNE 13.0 mph20.9 kmh 30.65 in1037.9 mb 0.00 in0.0 mm 0.00 in0.0 mm 0.00 in0.0 mm
11:58 AM 26.1°F-3.3°C 7.2°F-13.8°C 44% 5.3 mph NNE8.5 kmh NNE 13.0 mph20.9 kmh 30.65 in1037.9 mb 0.00 in0.0 mm 0.00 in0.0 mm 0.00 in0.0 mm
11:59 AM 26.1°F-3.3°C 7.7°F-13.5°C 45% 10.4 mph NNE16.7 kmh NNE 13.0 mph20.9 kmh 30.65 in1037.9 mb 0.00 in0.0 mm 0.00 in0.0 mm 0.00 in0.0 mm
12:00 PM 26.1°F-3.3°C 7.2°F-13.8°C 44% 9.9 mph NW15.9 kmh NW 14.0 mph22.5 kmh 30.65 in1037.9 mb 0.00 in0.0 mm 0.00 in0.0 mm 0.00 in0.0 mm
12:01 PM 25.9°F-3.4°C 7.0°F-13.9°C 44% 7.8 mph NNE12.6 kmh NNE 14.0 mph22.5 kmh 30.65 in1037.9 mb 0.00 in0.0 mm 0.00 in0.0 mm 0.00 in0.0 mm
12:02 PM 25.9°F-3.4°C 7.5°F-13.6°C 45% 6.8 mph NNE10.9 kmh NNE 14.0 mph22.5 kmh 30.65 in1037.9 mb 0.00 in0.0 mm 0.00 in0.0 mm 0.00 in0.0 mm
12:03 PM 26.1°F-3.3°C 8.2°F-13.2°C 46% 9.9 mph NW15.9 kmh NW 14.0 mph22.5 kmh 30.65 in1037.9 mb 0.00 in0.0 mm 0.00 in0.0 mm 0.00 in0.0 mm
12:04 PM 26.2°F-3.2°C 8.3°F-13.2°C 46% 6.3 mph NNE10.1 kmh NNE 14.0 mph22.5 kmh 30.65 in1037.9 mb 0.00 in0.0 mm 0.00 in0.0 mm 0.00 in0.0 mm
12:05 PM 26.4°F-3.1°C 8.5°F-13.1°C 46% 7.3 mph NE11.7 kmh NE 14.0 mph22.5 kmh 30.64 in1037.6 mb 0.00 in0.0 mm 0.00 in0.0 mm 0.00 in0.0 mm
12:06 PM 26.2°F-3.2°C 7.8°F-13.4°C 45% 3.7 mph NNE6.0 kmh NNE 14.0 mph22.5 kmh 30.64 in1037.6 mb 0.00 in0.0 mm 0.00 in0.0 mm 0.00 in0.0 mm
12:07 PM 26.2°F-3.2°C 7.3°F-13.7°C 44% 6.8 mph NNE10.9 kmh NNE 14.0 mph22.5 kmh 30.64 in1037.6 mb 0.00 in0.0 mm 0.00 in0.0 mm 0.00 in0.0 mm
12:08 PM 25.9°F-3.4°C 6.5°F-14.2°C 43% 4.2 mph NNE6.8 kmh NNE 14.0 mph22.5 kmh 30.64 in1037.6 mb 0.00 in0.0 mm 0.00 in0.0 mm 0.00 in0.0 mm
12:09 PM 26.1°F-3.3°C 7.2°F-13.8°C 44% 9.9 mph NNE15.9 kmh NNE 14.0 mph22.5 kmh 30.64 in1037.6 mb 0.00 in0.0 mm 0.00 in0.0 mm 0.00 in0.0 mm
12:10 PM 26.1°F-3.3°C 7.2°F-13.8°C 44% 6.8 mph NNE10.9 kmh NNE 9.9 mph15.9 kmh 30.64 in1037.6 mb 0.00 in0.0 mm 0.00 in0.0 mm 0.00 in0.0 mm
12:11 PM 26.1°F-3.3°C 7.2°F-13.8°C 44% 8.9 mph NNE14.3 kmh NNE 9.9 mph15.9 kmh 30.64 in1037.6 mb 0.00 in0.0 mm 0.00 in0.0 mm 0.00 in0.0 mm
12:12 PM 26.1°F-3.3°C 7.2°F-13.8°C 44% 8.9 mph ESE14.3 kmh ESE 9.9 mph15.9 kmh 30.64 in1037.6 mb 0.00 in0.0 mm 0.00 in0.0 mm 0.00 in0.0 mm
12:13 PM 26.1°F-3.3°C 7.2°F-13.8°C 44% 3.2 mph N5.1 kmh N 9.9 mph15.9 kmh 30.64 in1037.6 mb 0.00 in0.0 mm 0.00 in0.0 mm 0.00 in0.0 mm
12:14 PM 26.2°F-3.2°C 7.3°F-13.7°C 44% 5.8 mph NNE9.3 kmh NNE 9.9 mph15.9 kmh 30.64 in1037.6 mb 0.00 in0.0 mm 0.00 in0.0 mm 0.00 in0.0 mm
12:15 PM 26.4°F-3.1°C 8.0°F-13.3°C 45% 5.3 mph NNW8.5 kmh NNW 9.9 mph15.9 kmh 30.64 in1037.6 mb 0.00 in0.0 mm 0.00 in0.0 mm 0.00 in0.0 mm
12:16 PM 26.4°F-3.1°C 8.0°F-13.3°C 45% 5.8 mph NE9.3 kmh NE 9.9 mph15.9 kmh 30.63 in1037.3 mb 0.00 in0.0 mm 0.00 in0.0 mm 0.00 in0.0 mm
12:17 PM 26.2°F-3.2°C 7.8°F-13.4°C 45% 6.3 mph NNE10.1 kmh NNE 9.9 mph15.9 kmh 30.63 in1037.3 mb 0.00 in0.0 mm 0.00 in0.0 mm 0.00 in0.0 mm
12:18 PM 26.4°F-3.1°C 7.5°F-13.6°C 44% 5.8 mph NE9.3 kmh NE 9.9 mph15.9 kmh 30.63 in1037.3 mb 0.00 in0.0 mm 0.00 in0.0 mm 0.00 in0.0 mm
12:19 PM 26.2°F-3.2°C 6.8°F-14.0°C 43% 5.8 mph N9.3 kmh N 9.9 mph15.9 kmh 30.63 in1037.3 mb 0.00 in0.0 mm 0.00 in0.0 mm 0.00 in0.0 mm
12:20 PM 26.1°F-3.3°C 7.2°F-13.8°C 44% 5.8 mph NW9.3 kmh NW 9.9 mph15.9 kmh 30.63 in1037.3 mb 0.00 in0.0 mm 0.00 in0.0 mm 0.00 in0.0 mm
12:21 PM 26.1°F-3.3°C 7.2°F-13.8°C 44% 5.8 mph NNW9.3 kmh NNW 9.9 mph15.9 kmh 30.63 in1037.3 mb 0.00 in0.0 mm 0.00 in0.0 mm 0.00 in0.0 mm
12:22 PM 26.1°F-3.3°C 7.2°F-13.8°C 44% 9.4 mph N15.1 kmh N 9.4 mph15.1 kmh 30.63 in1037.3 mb 0.00 in0.0 mm 0.00 in0.0 mm 0.00 in0.0 mm
12:23 PM 26.6°F-3.0°C 7.2°F-13.8°C 43% 11.9 mph NNE19.2 kmh NNE 11.9 mph19.2 kmh 30.63 in1037.3 mb 0.00 in0.0 mm 0.00 in0.0 mm 0.00 in0.0 mm
12:24 PM 26.6°F-3.0°C 7.2°F-13.8°C 43% 8.3 mph NE13.4 kmh NE 11.9 mph19.2 kmh 30.63 in1037.3 mb 0.00 in0.0 mm 0.00 in0.0 mm 0.00 in0.0 mm
12:25 PM 26.6°F-3.0°C 7.7°F-13.5°C 44% 9.4 mph NNE15.1 kmh NNE 11.9 mph19.2 kmh 30.63 in1037.3 mb 0.00 in0.0 mm 0.00 in0.0 mm 0.00 in0.0 mm
12:26 PM 26.4°F-3.1°C 7.0°F-13.9°C 43% 8.3 mph NNE13.4 kmh NNE 11.9 mph19.2 kmh 30.63 in1037.3 mb 0.00 in0.0 mm 0.00 in0.0 mm 0.00 in0.0 mm
12:27 PM 26.4°F-3.1°C 7.0°F-13.9°C 43% 7.3 mph NW11.7 kmh NW 11.9 mph19.2 kmh 30.63 in1037.3 mb 0.00 in0.0 mm 0.00 in0.0 mm 0.00 in0.0 mm
12:28 PM 26.4°F-3.1°C 7.0°F-13.9°C 43% 9.4 mph NE15.1 kmh NE 11.9 mph19.2 kmh 30.63 in1037.3 mb 0.00 in0.0 mm 0.00 in0.0 mm 0.00 in0.0 mm
12:29 PM 26.4°F-3.1°C 7.0°F-13.9°C 43% 4.2 mph NE6.8 kmh NE 11.9 mph19.2 kmh 30.63 in1037.3 mb 0.00 in0.0 mm 0.00 in0.0 mm 0.00 in0.0 mm
12:30 PM 26.4°F-3.1°C 7.0°F-13.9°C 43% 4.7 mph NE7.6 kmh NE 11.9 mph19.2 kmh 30.63 in1037.3 mb 0.00 in0.0 mm 0.00 in0.0 mm 0.00 in0.0 mm
12:31 PM 27.0°F-2.8°C 8.0°F-13.3°C 44% 2.2 mph NE3.5 kmh NE 11.9 mph19.2 kmh 30.63 in1037.3 mb 0.00 in0.0 mm 0.00 in0.0 mm 0.00 in0.0 mm
12:32 PM 27.3°F-2.6°C 7.8°F-13.4°C 43% 7.8 mph NNE12.6 kmh NNE 11.9 mph19.2 kmh 30.63 in1037.3 mb 0.00 in0.0 mm 0.00 in0.0 mm 0.00 in0.0 mm
12:33 PM 27.5°F-2.5°C 8.0°F-13.3°C 43% 5.8 mph NW9.3 kmh NW 11.9 mph19.2 kmh 30.63 in1037.3 mb 0.00 in0.0 mm 0.00 in0.0 mm 0.00 in0.0 mm
12:34 PM 27.5°F-2.5°C 7.5°F-13.6°C 42% 8.3 mph NE13.4 kmh NE 10.9 mph17.5 kmh 30.63 in1037.3 mb 0.00 in0.0 mm 0.00 in0.0 mm 0.00 in0.0 mm
12:35 PM 27.1°F-2.7°C 7.1°F-13.8°C 42% 5.3 mph NE8.5 kmh NE 10.9 mph17.5 kmh 30.63 in1037.3 mb 0.00 in0.0 mm 0.00 in0.0 mm 0.00 in0.0 mm
12:36 PM 27.1°F-2.7°C 7.1°F-13.8°C 42% 7.3 mph NE11.7 kmh NE 10.9 mph17.5 kmh 30.63 in1037.3 mb 0.00 in0.0 mm 0.00 in0.0 mm 0.00 in0.0 mm
12:37 PM 27.1°F-2.7°C 7.6°F-13.6°C 43% 7.3 mph N11.7 kmh N 10.9 mph17.5 kmh 30.63 in1037.3 mb 0.00 in0.0 mm 0.00 in0.0 mm 0.00 in0.0 mm
12:38 PM 27.0°F-2.8°C 7.0°F-13.9°C 42% 7.3 mph E11.7 kmh E 10.9 mph17.5 kmh 30.63 in1037.3 mb 0.00 in0.0 mm 0.00 in0.0 mm 0.00 in0.0 mm
12:39 PM 27.1°F-2.7°C 7.1°F-13.8°C 42% 5.8 mph ENE9.3 kmh ENE 10.9 mph17.5 kmh 30.63 in1037.3 mb 0.00 in0.0 mm 0.00 in0.0 mm 0.00 in0.0 mm
12:40 PM 27.5°F-2.5°C 6.9°F-13.9°C 41% 4.7 mph ESE7.6 kmh ESE 10.9 mph17.5 kmh 30.63 in1037.3 mb 0.00 in0.0 mm 0.00 in0.0 mm 0.00 in0.0 mm
12:41 PM 27.3°F-2.6°C 7.3°F-13.7°C 42% 7.8 mph SSE12.6 kmh SSE 10.9 mph17.5 kmh 30.63 in1037.3 mb 0.00 in0.0 mm 0.00 in0.0 mm 0.00 in0.0 mm
12:42 PM 27.3°F-2.6°C 6.7°F-14.1°C 41% 5.8 mph E9.3 kmh E 10.9 mph17.5 kmh 30.63 in1037.3 mb 0.00 in0.0 mm 0.00 in0.0 mm 0.00 in0.0 mm
12:43 PM 27.1°F-2.7°C 6.6°F-14.1°C 41% 6.3 mph ENE10.1 kmh ENE 10.9 mph17.5 kmh 30.63 in1037.3 mb 0.00 in0.0 mm 0.00 in0.0 mm 0.00 in0.0 mm
12:44 PM 27.1°F-2.7°C 7.6°F-13.6°C 43% 6.8 mph NNW10.9 kmh NNW 10.4 mph16.7 kmh 30.63 in1037.3 mb 0.00 in0.0 mm 0.00 in0.0 mm 0.00 in0.0 mm
12:45 PM 27.0°F-2.8°C 7.5°F-13.6°C 43% 4.7 mph NW7.6 kmh NW 10.4 mph16.7 kmh 30.63 in1037.3 mb 0.00 in0.0 mm 0.00 in0.0 mm 0.00 in0.0 mm
12:46 PM 26.8°F-2.9°C 7.3°F-13.7°C 43% 6.8 mph NNW10.9 kmh NNW 10.4 mph16.7 kmh 30.63 in1037.3 mb 0.00 in0.0 mm 0.00 in0.0 mm 0.00 in0.0 mm
12:47 PM 26.8°F-2.9°C 7.3°F-13.7°C 43% 8.3 mph N13.4 kmh N 10.4 mph16.7 kmh 30.63 in1037.3 mb 0.00 in0.0 mm 0.00 in0.0 mm 0.00 in0.0 mm
12:48 PM 26.6°F-3.0°C 6.6°F-14.1°C 42% 5.8 mph NNE9.3 kmh NNE 10.4 mph16.7 kmh 30.63 in1037.3 mb 0.00 in0.0 mm 0.00 in0.0 mm 0.00 in0.0 mm
12:49 PM 26.6°F-3.0°C 6.6°F-14.1°C 42% 4.7 mph E7.6 kmh E 9.4 mph15.1 kmh 30.63 in1037.3 mb 0.00 in0.0 mm 0.00 in0.0 mm 0.00 in0.0 mm
12:50 PM 27.1°F-2.7°C 7.1°F-13.8°C 42% 6.8 mph N10.9 kmh N 9.4 mph15.1 kmh 30.63 in1037.3 mb 0.00 in0.0 mm 0.00 in0.0 mm 0.00 in0.0 mm
12:51 PM 27.3°F-2.6°C 7.3°F-13.7°C 42% 11.4 mph NNE18.3 kmh NNE 11.4 mph18.3 kmh 30.63 in1037.3 mb 0.00 in0.0 mm 0.00 in0.0 mm 0.00 in0.0 mm
12:52 PM 27.3°F-2.6°C 7.3°F-13.7°C 42% 6.8 mph E10.9 kmh E 11.4 mph18.3 kmh 30.63 in1037.3 mb 0.00 in0.0 mm 0.00 in0.0 mm 0.00 in0.0 mm
12:53 PM 27.3°F-2.6°C 7.3°F-13.7°C 42% 9.9 mph N15.9 kmh N 11.4 mph18.3 kmh 30.62 in1036.9 mb 0.00 in0.0 mm 0.00 in0.0 mm 0.00 in0.0 mm
12:54 PM 27.3°F-2.6°C 7.3°F-13.7°C 42% 7.3 mph N11.7 kmh N 11.4 mph18.3 kmh 30.62 in1036.9 mb 0.00 in0.0 mm 0.00 in0.0 mm 0.00 in0.0 mm
12:55 PM 27.3°F-2.6°C 7.3°F-13.7°C 42% 5.3 mph NE8.5 kmh NE 11.4 mph18.3 kmh 30.62 in1036.9 mb 0.00 in0.0 mm 0.00 in0.0 mm 0.00 in0.0 mm
12:56 PM 27.1°F-2.7°C 7.1°F-13.8°C 42% 6.3 mph ESE10.1 kmh ESE 11.4 mph18.3 kmh 30.62 in1036.9 mb 0.00 in0.0 mm 0.00 in0.0 mm 0.00 in0.0 mm
12:57 PM 27.3°F-2.6°C 7.3°F-13.7°C 42% 5.3 mph NE8.5 kmh NE 11.4 mph18.3 kmh 30.62 in1036.9 mb 0.00 in0.0 mm 0.00 in0.0 mm 0.00 in0.0 mm
12:58 PM 27.5°F-2.5°C 7.5°F-13.6°C 42% 2.7 mph E4.3 kmh E 11.4 mph18.3 kmh 30.62 in1036.9 mb 0.00 in0.0 mm 0.00 in0.0 mm 0.00 in0.0 mm
12:59 PM 27.7°F-2.4°C 7.6°F-13.6°C 42% 3.7 mph ESE6.0 kmh ESE 11.4 mph18.3 kmh 30.62 in1036.9 mb 0.00 in0.0 mm 0.00 in0.0 mm 0.00 in0.0 mm
01:00 PM 28.2°F-2.1°C 8.6°F-13.0°C 43% 5.3 mph SE8.5 kmh SE 11.4 mph18.3 kmh 30.62 in1036.9 mb 0.00 in0.0 mm 0.00 in0.0 mm 0.00 in0.0 mm
01:01 PM 28.6°F-1.9°C 9.0°F-12.8°C 43% 7.3 mph ESE11.7 kmh ESE 11.4 mph18.3 kmh 30.62 in1036.9 mb 0.00 in0.0 mm 0.00 in0.0 mm 0.00 in0.0 mm
01:02 PM 28.4°F-2.0°C 8.3°F-13.2°C 42% 6.3 mph ENE10.1 kmh ENE 9.9 mph15.9 kmh 30.62 in1036.9 mb 0.00 in0.0 mm 0.00 in0.0 mm 0.00 in0.0 mm
01:03 PM 28.6°F-1.9°C 8.5°F-13.1°C 42% 8.9 mph NE14.3 kmh NE 9.4 mph15.1 kmh 30.62 in1036.9 mb 0.00 in0.0 mm 0.00 in0.0 mm 0.00 in0.0 mm
01:04 PM 28.6°F-1.9°C 8.5°F-13.1°C 42% 8.3 mph NE13.4 kmh NE 9.4 mph15.1 kmh 30.62 in1036.9 mb 0.00 in0.0 mm 0.00 in0.0 mm 0.00 in0.0 mm
01:05 PM 28.4°F-2.0°C 8.3°F-13.2°C 42% 5.3 mph N8.5 kmh N 11.4 mph18.3 kmh 30.62 in1036.9 mb 0.00 in0.0 mm 0.00 in0.0 mm 0.00 in0.0 mm
01:06 PM 28.2°F-2.1°C 7.6°F-13.6°C 41% 6.8 mph NE10.9 kmh NE 11.4 mph18.3 kmh 30.62 in1036.9 mb 0.00 in0.0 mm 0.00 in0.0 mm 0.00 in0.0 mm
01:07 PM 28.2°F-2.1°C 7.6°F-13.6°C 41% 8.3 mph NNE13.4 kmh NNE 11.4 mph18.3 kmh 30.62 in1036.9 mb 0.00 in0.0 mm 0.00 in0.0 mm 0.00 in0.0 mm
01:08 PM 27.9°F-2.3°C 7.3°F-13.7°C 41% 3.7 mph N6.0 kmh N 11.4 mph18.3 kmh 30.62 in1036.9 mb 0.00 in0.0 mm 0.00 in0.0 mm 0.00 in0.0 mm
01:09 PM 27.7°F-2.4°C 7.1°F-13.8°C 41% 6.3 mph NE10.1 kmh NE 11.4 mph18.3 kmh 30.62 in1036.9 mb 0.00 in0.0 mm 0.00 in0.0 mm 0.00 in0.0 mm
01:10 PM 27.9°F-2.3°C 7.8°F-13.4°C 42% 4.7 mph NNE7.6 kmh NNE 11.4 mph18.3 kmh 30.62 in1036.9 mb 0.00 in0.0 mm 0.00 in0.0 mm 0.00 in0.0 mm
01:11 PM 28.0°F-2.2°C 8.4°F-13.1°C 43% 6.3 mph ESE10.1 kmh ESE 11.4 mph18.3 kmh 30.62 in1036.9 mb 0.00 in0.0 mm 0.00 in0.0 mm 0.00 in0.0 mm
01:12 PM 28.2°F-2.1°C 8.6°F-13.0°C 43% 5.3 mph WNW8.5 kmh WNW 11.4 mph18.3 kmh 30.62 in1036.9 mb 0.00 in0.0 mm 0.00 in0.0 mm 0.00 in0.0 mm
01:13 PM 28.0°F-2.2°C 8.4°F-13.1°C 43% 8.9 mph NNE14.3 kmh NNE 11.4 mph18.3 kmh 30.62 in1036.9 mb 0.00 in0.0 mm 0.00 in0.0 mm 0.00 in0.0 mm
01:14 PM 28.2°F-2.1°C 8.6°F-13.0°C 43% 8.3 mph ENE13.4 kmh ENE 11.4 mph18.3 kmh 30.62 in1036.9 mb 0.00 in0.0 mm 0.00 in0.0 mm 0.00 in0.0 mm
01:15 PM 28.0°F-2.2°C 7.4°F-13.7°C 41% 9.9 mph NNE15.9 kmh NNE 9.9 mph15.9 kmh 30.62 in1036.9 mb 0.00 in0.0 mm 0.00 in0.0 mm 0.00 in0.0 mm
01:16 PM 27.9°F-2.3°C 7.8°F-13.4°C 42% 8.9 mph W14.3 kmh W 11.4 mph18.3 kmh 30.61 in1036.6 mb 0.00 in0.0 mm 0.00 in0.0 mm 0.00 in0.0 mm
01:17 PM 27.9°F-2.3°C 7.8°F-13.4°C 42% 7.3 mph NNE11.7 kmh NNE 11.4 mph18.3 kmh 30.61 in1036.6 mb 0.00 in0.0 mm 0.00 in0.0 mm 0.00 in0.0 mm
01:18 PM 27.5°F-2.5°C 7.5°F-13.6°C 42% 6.8 mph NNE10.9 kmh NNE 11.4 mph18.3 kmh 30.61 in1036.6 mb 0.00 in0.0 mm 0.00 in0.0 mm 0.00 in0.0 mm
01:19 PM 27.9°F-2.3°C 8.3°F-13.2°C 43% 3.2 mph ESE5.1 kmh ESE 11.4 mph18.3 kmh 30.61 in1036.6 mb 0.00 in0.0 mm 0.00 in0.0 mm 0.00 in0.0 mm
01:20 PM 28.2°F-2.1°C 8.6°F-13.0°C 43% 5.3 mph NE8.5 kmh NE 11.4 mph18.3 kmh 30.61 in1036.6 mb 0.00 in0.0 mm 0.00 in0.0 mm 0.00 in0.0 mm
01:21 PM 28.4°F-2.0°C 7.7°F-13.5°C 41% 6.8 mph NE10.9 kmh NE 11.4 mph18.3 kmh 30.61 in1036.6 mb 0.00 in0.0 mm 0.00 in0.0 mm 0.00 in0.0 mm
01:22 PM 28.2°F-2.1°C 7.6°F-13.6°C 41% 4.2 mph NNW6.8 kmh NNW 11.4 mph18.3 kmh 30.61 in1036.6 mb 0.00 in0.0 mm 0.00 in0.0 mm 0.00 in0.0 mm
01:23 PM 28.2°F-2.1°C 7.6°F-13.6°C 41% 6.8 mph NNE10.9 kmh NNE 11.4 mph18.3 kmh 30.61 in1036.6 mb 0.00 in0.0 mm 0.00 in0.0 mm 0.00 in0.0 mm
01:24 PM 28.2°F-2.1°C 7.6°F-13.6°C 41% 7.8 mph NNE12.6 kmh NNE 11.4 mph18.3 kmh 30.61 in1036.6 mb 0.00 in0.0 mm 0.00 in0.0 mm 0.00 in0.0 mm
01:25 PM 28.2°F-2.1°C 7.0°F-13.9°C 40% 6.8 mph N10.9 kmh N 11.4 mph18.3 kmh 30.61 in1036.6 mb 0.00 in0.0 mm 0.00 in0.0 mm 0.00 in0.0 mm
01:26 PM 28.2°F-2.1°C 7.0°F-13.9°C 40% 9.9 mph NNW15.9 kmh NNW 10.4 mph16.7 kmh 30.61 in1036.6 mb 0.00 in0.0 mm 0.00 in0.0 mm 0.00 in0.0 mm
01:27 PM 28.2°F-2.1°C 7.6°F-13.6°C 41% 6.3 mph NNW10.1 kmh NNW 10.4 mph16.7 kmh 30.61 in1036.6 mb 0.00 in0.0 mm 0.00 in0.0 mm 0.00 in0.0 mm
01:28 PM 28.2°F-2.1°C 7.0°F-13.9°C 40% 4.2 mph NE6.8 kmh NE 10.4 mph16.7 kmh 30.61 in1036.6 mb 0.00 in0.0 mm 0.00 in0.0 mm 0.00 in0.0 mm
01:29 PM 28.6°F-1.9°C 7.9°F-13.4°C 41% 4.7 mph NE7.6 kmh NE 10.4 mph16.7 kmh 30.61 in1036.6 mb 0.00 in0.0 mm 0.00 in0.0 mm 0.00 in0.0 mm
01:30 PM 28.8°F-1.8°C 7.0°F-13.9°C 39% 3.7 mph ESE6.0 kmh ESE 10.4 mph16.7 kmh 30.61 in1036.6 mb 0.00 in0.0 mm 0.00 in0.0 mm 0.00 in0.0 mm
01:31 PM 28.8°F-1.8°C 7.0°F-13.9°C 39% 6.8 mph NNW10.9 kmh NNW 10.4 mph16.7 kmh 30.61 in1036.6 mb 0.00 in0.0 mm 0.00 in0.0 mm 0.00 in0.0 mm
01:32 PM 28.9°F-1.7°C 8.2°F-13.2°C 41% 5.8 mph NNE9.3 kmh NNE 10.4 mph16.7 kmh 30.61 in1036.6 mb 0.00 in0.0 mm 0.00 in0.0 mm 0.00 in0.0 mm
01:33 PM 28.9°F-1.7°C 8.2°F-13.2°C 41% 5.3 mph W8.5 kmh W 10.4 mph16.7 kmh 30.61 in1036.6 mb 0.00 in0.0 mm 0.00 in0.0 mm 0.00 in0.0 mm
01:34 PM 28.9°F-1.7°C 8.2°F-13.2°C 41% 8.3 mph NNE13.4 kmh NNE 10.4 mph16.7 kmh 30.61 in1036.6 mb 0.00 in0.0 mm 0.00 in0.0 mm 0.00 in0.0 mm
01:35 PM 28.9°F-1.7°C 8.2°F-13.2°C 41% 8.3 mph NNE13.4 kmh NNE 9.9 mph15.9 kmh 30.61 in1036.6 mb 0.00 in0.0 mm 0.00 in0.0 mm 0.00 in0.0 mm
01:36 PM 28.9°F-1.7°C 8.2°F-13.2°C 41% 3.7 mph NNE6.0 kmh NNE 9.4 mph15.1 kmh 30.61 in1036.6 mb 0.00 in0.0 mm 0.00 in0.0 mm 0.00 in0.0 mm
01:37 PM 28.6°F-1.9°C 7.4°F-13.7°C 40% 3.7 mph NNE6.0 kmh NNE 9.4 mph15.1 kmh 30.61 in1036.6 mb 0.00 in0.0 mm 0.00 in0.0 mm 0.00 in0.0 mm
01:38 PM 28.4°F-2.0°C 7.2°F-13.8°C 40% 5.3 mph NNW8.5 kmh NNW 9.4 mph15.1 kmh 30.61 in1036.6 mb 0.00 in0.0 mm 0.00 in0.0 mm 0.00 in0.0 mm
01:39 PM 28.0°F-2.2°C 6.8°F-14.0°C 40% 4.2 mph NNW6.8 kmh NNW 9.4 mph15.1 kmh 30.61 in1036.6 mb 0.00 in0.0 mm 0.00 in0.0 mm 0.00 in0.0 mm
01:40 PM 27.9°F-2.3°C 6.7°F-14.1°C 40% 6.3 mph NNE10.1 kmh NNE 9.4 mph15.1 kmh 30.61 in1036.6 mb 0.00 in0.0 mm 0.00 in0.0 mm 0.00 in0.0 mm
01:41 PM 28.4°F-2.0°C 7.2°F-13.8°C 40% 7.3 mph NNE11.7 kmh NNE 9.4 mph15.1 kmh 30.60 in1036.2 mb 0.00 in0.0 mm 0.00 in0.0 mm 0.00 in0.0 mm
01:42 PM 28.4°F-2.0°C 7.2°F-13.8°C 40% 7.8 mph NNE12.6 kmh NNE 9.4 mph15.1 kmh 30.60 in1036.2 mb 0.00 in0.0 mm 0.00 in0.0 mm 0.00 in0.0 mm
01:43 PM 28.8°F-1.8°C 7.6°F-13.6°C 40% 6.3 mph ESE10.1 kmh ESE 9.4 mph15.1 kmh 30.60 in1036.2 mb 0.00 in0.0 mm 0.00 in0.0 mm 0.00 in0.0 mm
01:44 PM 28.8°F-1.8°C 7.6°F-13.6°C 40% 7.3 mph NNW11.7 kmh NNW 8.3 mph13.4 kmh 30.60 in1036.2 mb 0.00 in0.0 mm 0.00 in0.0 mm 0.00 in0.0 mm
01:45 PM 28.4°F-2.0°C 7.2°F-13.8°C 40% 6.3 mph N10.1 kmh N 8.9 mph14.3 kmh 30.60 in1036.2 mb 0.00 in0.0 mm 0.00 in0.0 mm 0.00 in0.0 mm
01:46 PM 28.6°F-1.9°C 7.4°F-13.7°C 40% 7.3 mph NNE11.7 kmh NNE 8.9 mph14.3 kmh 30.60 in1036.2 mb 0.00 in0.0 mm 0.00 in0.0 mm 0.00 in0.0 mm
01:47 PM 28.8°F-1.8°C 8.1°F-13.3°C 41% 9.4 mph NE15.1 kmh NE 9.4 mph15.1 kmh 30.60 in1036.2 mb 0.00 in0.0 mm 0.00 in0.0 mm 0.00 in0.0 mm
01:48 PM 28.8°F-1.8°C 7.6°F-13.6°C 40% 7.3 mph W11.7 kmh W 9.4 mph15.1 kmh 30.60 in1036.2 mb 0.00 in0.0 mm 0.00 in0.0 mm 0.00 in0.0 mm
01:49 PM 28.2°F-2.1°C 7.6°F-13.6°C 41% 7.3 mph N11.7 kmh N 9.9 mph15.9 kmh 30.60 in1036.2 mb 0.00 in0.0 mm 0.00 in0.0 mm 0.00 in0.0 mm
01:50 PM 28.4°F-2.0°C 7.7°F-13.5°C 41% 6.8 mph NNE10.9 kmh NNE 9.9 mph15.9 kmh 30.60 in1036.2 mb 0.00 in0.0 mm 0.00 in0.0 mm 0.00 in0.0 mm
01:51 PM 28.4°F-2.0°C 7.7°F-13.5°C 41% 6.3 mph NNW10.1 kmh NNW 9.9 mph15.9 kmh 30.60 in1036.2 mb 0.00 in0.0 mm 0.00 in0.0 mm 0.00 in0.0 mm
01:52 PM 28.2°F-2.1°C 7.0°F-13.9°C 40% 3.2 mph NNE5.1 kmh NNE 9.9 mph15.9 kmh 30.60 in1036.2 mb 0.00 in0.0 mm 0.00 in0.0 mm 0.00 in0.0 mm
01:53 PM 28.4°F-2.0°C 7.2°F-13.8°C 40% 6.3 mph ESE10.1 kmh ESE 9.9 mph15.9 kmh 30.60 in1036.2 mb 0.00 in0.0 mm 0.00 in0.0 mm 0.00 in0.0 mm
01:54 PM 28.8°F-1.8°C 8.1°F-13.3°C 41% 6.8 mph NE10.9 kmh NE 9.9 mph15.9 kmh 30.60 in1036.2 mb 0.00 in0.0 mm 0.00 in0.0 mm 0.00 in0.0 mm
01:55 PM 28.9°F-1.7°C 8.2°F-13.2°C 41% 6.3 mph N10.1 kmh N 9.9 mph15.9 kmh 30.60 in1036.2 mb 0.00 in0.0 mm 0.00 in0.0 mm 0.00 in0.0 mm
01:56 PM 28.9°F-1.7°C 8.2°F-13.2°C 41% 6.8 mph N10.9 kmh N 9.9 mph15.9 kmh 30.60 in1036.2 mb 0.00 in0.0 mm 0.00 in0.0 mm 0.00 in0.0 mm
01:57 PM 28.9°F-1.7°C 8.2°F-13.2°C 41% 6.3 mph NE10.1 kmh NE 9.9 mph15.9 kmh 30.60 in1036.2 mb 0.00 in0.0 mm 0.00 in0.0 mm 0.00 in0.0 mm
01:58 PM 29.1°F-1.6°C 8.4°F-13.1°C 41% 3.7 mph NE6.0 kmh NE 9.9 mph15.9 kmh 30.60 in1036.2 mb 0.00 in0.0 mm 0.00 in0.0 mm 0.00 in0.0 mm
01:59 PM 29.1°F-1.6°C 7.8°F-13.4°C 40% 1.7 mph NE2.7 kmh NE 7.8 mph12.6 kmh 30.60 in1036.2 mb 0.00 in0.0 mm 0.00 in0.0 mm 0.00 in0.0 mm
02:00 PM 29.3°F-1.5°C 8.0°F-13.3°C 40% 6.3 mph NW10.1 kmh NW 7.8 mph12.6 kmh 30.60 in1036.2 mb 0.00 in0.0 mm 0.00 in0.0 mm 0.00 in0.0 mm
02:01 PM 29.1°F-1.6°C 7.8°F-13.4°C 40% 6.8 mph NNW10.9 kmh NNW 7.8 mph12.6 kmh 30.60 in1036.2 mb 0.00 in0.0 mm 0.00 in0.0 mm 0.00 in0.0 mm
02:02 PM 29.1°F-1.6°C 8.4°F-13.1°C 41% 6.8 mph N10.9 kmh N 7.8 mph12.6 kmh 30.60 in1036.2 mb 0.00 in0.0 mm 0.00 in0.0 mm 0.00 in0.0 mm
02:03 PM 29.5°F-1.4°C 8.2°F-13.2°C 40% 5.8 mph N9.3 kmh N 7.8 mph12.6 kmh 30.60 in1036.2 mb 0.00 in0.0 mm 0.00 in0.0 mm 0.00 in0.0 mm
02:04 PM 29.5°F-1.4°C 8.2°F-13.2°C 40% 4.7 mph ESE7.6 kmh ESE 7.8 mph12.6 kmh 30.60 in1036.2 mb 0.00 in0.0 mm 0.00 in0.0 mm 0.00 in0.0 mm
02:05 PM 29.3°F-1.5°C 8.0°F-13.3°C 40% 4.7 mph E7.6 kmh E 7.8 mph12.6 kmh 30.59 in1035.9 mb 0.00 in0.0 mm 0.00 in0.0 mm 0.00 in0.0 mm
02:06 PM 29.7°F-1.3°C 8.4°F-13.1°C 40% 3.7 mph N6.0 kmh N 7.8 mph12.6 kmh 30.59 in1035.9 mb 0.00 in0.0 mm 0.00 in0.0 mm 0.00 in0.0 mm
02:07 PM 29.7°F-1.3°C 8.4°F-13.1°C 40% 3.2 mph WNW5.1 kmh WNW 7.8 mph12.6 kmh 30.59 in1035.9 mb 0.00 in0.0 mm 0.00 in0.0 mm 0.00 in0.0 mm
02:08 PM 29.5°F-1.4°C 7.6°F-13.6°C 39% 5.8 mph NNW9.3 kmh NNW 6.8 mph10.9 kmh 30.59 in1035.9 mb 0.00 in0.0 mm 0.00 in0.0 mm 0.00 in0.0 mm
02:09 PM 29.5°F-1.4°C 8.2°F-13.2°C 40% 10.4 mph NNE16.7 kmh NNE 10.4 mph16.7 kmh 30.59 in1035.9 mb 0.00 in0.0 mm 0.00 in0.0 mm 0.00 in0.0 mm
02:10 PM 29.5°F-1.4°C 8.2°F-13.2°C 40% 4.7 mph ESE7.6 kmh ESE 10.4 mph16.7 kmh 30.59 in1035.9 mb 0.00 in0.0 mm 0.00 in0.0 mm 0.00 in0.0 mm
02:11 PM 29.5°F-1.4°C 8.2°F-13.2°C 40% 5.8 mph NE9.3 kmh NE 10.4 mph16.7 kmh 30.59 in1035.9 mb 0.00 in0.0 mm 0.00 in0.0 mm 0.00 in0.0 mm
02:12 PM 29.3°F-1.5°C 8.6°F-13.0°C 41% 5.3 mph NNE8.5 kmh NNE 10.4 mph16.7 kmh 30.59 in1035.9 mb 0.00 in0.0 mm 0.00 in0.0 mm 0.00 in0.0 mm
02:13 PM 29.3°F-1.5°C 8.0°F-13.3°C 40% 5.8 mph ESE9.3 kmh ESE 10.4 mph16.7 kmh 30.59 in1035.9 mb 0.00 in0.0 mm 0.00 in0.0 mm 0.00 in0.0 mm
02:14 PM 29.3°F-1.5°C 8.0°F-13.3°C 40% 6.8 mph ENE10.9 kmh ENE 10.4 mph16.7 kmh 30.59 in1035.9 mb 0.00 in0.0 mm 0.00 in0.0 mm 0.00 in0.0 mm
02:15 PM 29.7°F-1.3°C 7.8°F-13.4°C 39% 5.8 mph NNW9.3 kmh NNW 10.4 mph16.7 kmh 30.59 in1035.9 mb 0.00 in0.0 mm 0.00 in0.0 mm 0.00 in0.0 mm
02:16 PM 29.5°F-1.4°C 7.6°F-13.6°C 39% 8.9 mph WSW14.3 kmh WSW 10.4 mph16.7 kmh 30.59 in1035.9 mb 0.00 in0.0 mm 0.00 in0.0 mm 0.00 in0.0 mm
02:17 PM 29.1°F-1.6°C 7.3°F-13.7°C 39% 6.3 mph NNE10.1 kmh NNE 10.4 mph16.7 kmh 30.59 in1035.9 mb 0.00 in0.0 mm 0.00 in0.0 mm 0.00 in0.0 mm
02:18 PM 29.1°F-1.6°C 7.3°F-13.7°C 39% 5.8 mph N9.3 kmh N 10.4 mph16.7 kmh 30.59 in1035.9 mb 0.00 in0.0 mm 0.00 in0.0 mm 0.00 in0.0 mm
02:19 PM 29.1°F-1.6°C 7.3°F-13.7°C 39% 6.8 mph NNW10.9 kmh NNW 10.4 mph16.7 kmh 30.59 in1035.9 mb 0.00 in0.0 mm 0.00 in0.0 mm 0.00 in0.0 mm
02:20 PM 29.3°F-1.5°C 7.5°F-13.6°C 39% 11.9 mph NNE19.2 kmh NNE 11.9 mph19.2 kmh 30.59 in1035.9 mb 0.00 in0.0 mm 0.00 in0.0 mm 0.00 in0.0 mm
02:21 PM 29.1°F-1.6°C 6.7°F-14.1°C 38% 7.8 mph NE12.6 kmh NE 11.9 mph19.2 kmh 30.59 in1035.9 mb 0.00 in0.0 mm 0.00 in0.0 mm 0.00 in0.0 mm
02:22 PM 28.9°F-1.7°C 6.5°F-14.2°C 38% 6.3 mph NNE10.1 kmh NNE 11.9 mph19.2 kmh 30.59 in1035.9 mb 0.00 in0.0 mm 0.00 in0.0 mm 0.00 in0.0 mm
02:23 PM 28.8°F-1.8°C 6.4°F-14.2°C 38% 3.7 mph NNE6.0 kmh NNE 11.9 mph19.2 kmh 30.59 in1035.9 mb 0.00 in0.0 mm 0.00 in0.0 mm 0.00 in0.0 mm
02:24 PM 28.8°F-1.8°C 6.4°F-14.2°C 38% 7.3 mph NNE11.7 kmh NNE 11.9 mph19.2 kmh 30.59 in1035.9 mb 0.00 in0.0 mm 0.00 in0.0 mm 0.00 in0.0 mm
02:25 PM 28.9°F-1.7°C 6.5°F-14.2°C 38% 4.7 mph ESE7.6 kmh ESE 11.9 mph19.2 kmh 30.59 in1035.9 mb 0.00 in0.0 mm 0.00 in0.0 mm 0.00 in0.0 mm
02:26 PM 28.9°F-1.7°C 6.5°F-14.2°C 38% 3.7 mph N6.0 kmh N 11.9 mph19.2 kmh 30.59 in1035.9 mb 0.00 in0.0 mm 0.00 in0.0 mm 0.00 in0.0 mm
02:27 PM 28.9°F-1.7°C 6.5°F-14.2°C 38% 2.7 mph W4.3 kmh W 11.9 mph19.2 kmh 30.59 in1035.9 mb 0.00 in0.0 mm 0.00 in0.0 mm 0.00 in0.0 mm
02:28 PM 29.3°F-1.5°C 7.5°F-13.6°C 39% 4.2 mph NNW6.8 kmh NNW 11.9 mph19.2 kmh 30.59 in1035.9 mb 0.00 in0.0 mm 0.00 in0.0 mm 0.00 in0.0 mm
02:29 PM 29.3°F-1.5°C 7.5°F-13.6°C 39% 2.7 mph E4.3 kmh E 11.9 mph19.2 kmh 30.59 in1035.9 mb 0.00 in0.0 mm 0.00 in0.0 mm 0.00 in0.0 mm
02:30 PM 28.8°F-1.8°C 6.4°F-14.2°C 38% 4.7 mph NE7.6 kmh NE 8.9 mph14.3 kmh 30.59 in1035.9 mb 0.00 in0.0 mm 0.00 in0.0 mm 0.00 in0.0 mm
02:31 PM 28.9°F-1.7°C 6.5°F-14.2°C 38% 4.2 mph NE6.8 kmh NE 7.8 mph12.6 kmh 30.59 in1035.9 mb 0.00 in0.0 mm 0.00 in0.0 mm 0.00 in0.0 mm
02:32 PM 29.3°F-1.5°C 7.5°F-13.6°C 39% 8.9 mph NNE14.3 kmh NNE 8.9 mph14.3 kmh 30.59 in1035.9 mb 0.00 in0.0 mm 0.00 in0.0 mm 0.00 in0.0 mm
02:33 PM 29.3°F-1.5°C 6.9°F-13.9°C 38% 5.3 mph NE8.5 kmh NE 8.9 mph14.3 kmh 30.59 in1035.9 mb 0.00 in0.0 mm 0.00 in0.0 mm 0.00 in0.0 mm
02:34 PM 29.3°F-1.5°C 6.9°F-13.9°C 38% 6.3 mph N10.1 kmh N 8.9 mph14.3 kmh 30.59 in1035.9 mb 0.00 in0.0 mm 0.00 in0.0 mm 0.00 in0.0 mm
02:35 PM 29.1°F-1.6°C 6.1°F-14.4°C 37% 3.2 mph ESE5.1 kmh ESE 8.9 mph14.3 kmh 30.59 in1035.9 mb 0.00 in0.0 mm 0.00 in0.0 mm 0.00 in0.0 mm
02:36 PM 29.1°F-1.6°C 6.7°F-14.1°C 38% 3.7 mph NNE6.0 kmh NNE 8.9 mph14.3 kmh 30.59 in1035.9 mb 0.00 in0.0 mm 0.00 in0.0 mm 0.00 in0.0 mm
02:37 PM 29.5°F-1.4°C 7.1°F-13.8°C 38% 8.9 mph NNE14.3 kmh NNE 8.9 mph14.3 kmh 30.59 in1035.9 mb 0.00 in0.0 mm 0.00 in0.0 mm 0.00 in0.0 mm
02:38 PM 29.3°F-1.5°C 6.9°F-13.9°C 38% 7.3 mph NNW11.7 kmh NNW 8.9 mph14.3 kmh 30.59 in1035.9 mb 0.00 in0.0 mm 0.00 in0.0 mm 0.00 in0.0 mm
02:39 PM 29.3°F-1.5°C 6.9°F-13.9°C 38% 7.3 mph SW11.7 kmh SW 8.9 mph14.3 kmh 30.59 in1035.9 mb 0.00 in0.0 mm 0.00 in0.0 mm 0.00 in0.0 mm
02:40 PM 29.3°F-1.5°C 6.9°F-13.9°C 38% 6.3 mph NNW10.1 kmh NNW 8.9 mph14.3 kmh 30.59 in1035.9 mb 0.00 in0.0 mm 0.00 in0.0 mm 0.00 in0.0 mm
02:41 PM 29.5°F-1.4°C 7.6°F-13.6°C 39% 4.2 mph N6.8 kmh N 8.9 mph14.3 kmh 30.59 in1035.9 mb 0.00 in0.0 mm 0.00 in0.0 mm 0.00 in0.0 mm
02:42 PM 29.7°F-1.3°C 7.8°F-13.4°C 39% 5.8 mph NNE9.3 kmh NNE 8.9 mph14.3 kmh 30.59 in1035.9 mb 0.00 in0.0 mm 0.00 in0.0 mm 0.00 in0.0 mm
02:43 PM 29.5°F-1.4°C 6.5°F-14.2°C 37% 3.2 mph ESE5.1 kmh ESE 8.9 mph14.3 kmh 30.59 in1035.9 mb 0.00 in0.0 mm 0.00 in0.0 mm 0.00 in0.0 mm
02:44 PM 29.1°F-1.6°C 6.7°F-14.1°C 38% 3.2 mph SSW5.1 kmh SSW 8.9 mph14.3 kmh 30.59 in1035.9 mb 0.00 in0.0 mm 0.00 in0.0 mm 0.00 in0.0 mm
02:49 PM 29.1°F-1.6°C 6.7°F-14.1°C 38% 8.9 mph NNW14.3 kmh NNW 8.9 mph14.3 kmh 30.59 in1035.9 mb 0.00 in0.0 mm 0.00 in0.0 mm 0.00 in0.0 mm
02:50 PM 29.1°F-1.6°C 7.3°F-13.7°C 39% 4.7 mph NNW7.6 kmh NNW 8.9 mph14.3 kmh 30.59 in1035.9 mb 0.00 in0.0 mm 0.00 in0.0 mm 0.00 in0.0 mm
02:51 PM 29.1°F-1.6°C 7.3°F-13.7°C 39% 4.7 mph NW7.6 kmh NW 8.9 mph14.3 kmh 30.59 in1035.9 mb 0.00 in0.0 mm 0.00 in0.0 mm 0.00 in0.0 mm
02:52 PM 29.5°F-1.4°C 7.6°F-13.6°C 39% 6.3 mph NW10.1 kmh NW 8.9 mph14.3 kmh 30.59 in1035.9 mb 0.00 in0.0 mm 0.00 in0.0 mm 0.00 in0.0 mm
02:53 PM 29.5°F-1.4°C 7.6°F-13.6°C 39% 2.7 mph NNE4.3 kmh NNE 8.9 mph14.3 kmh 30.59 in1035.9 mb 0.00 in0.0 mm 0.00 in0.0 mm 0.00 in0.0 mm
02:54 PM 29.5°F-1.4°C 7.6°F-13.6°C 39% 2.7 mph N4.3 kmh N 8.9 mph14.3 kmh 30.59 in1035.9 mb 0.00 in0.0 mm 0.00 in0.0 mm 0.00 in0.0 mm
02:55 PM 29.7°F-1.3°C 7.8°F-13.4°C 39% 3.2 mph NNE5.1 kmh NNE 8.9 mph14.3 kmh 30.59 in1035.9 mb 0.00 in0.0 mm 0.00 in0.0 mm 0.00 in0.0 mm
02:56 PM 30.0°F-1.1°C 8.6°F-13.0°C 40% 4.7 mph NE7.6 kmh NE 8.9 mph14.3 kmh 30.59 in1035.9 mb 0.00 in0.0 mm 0.00 in0.0 mm 0.00 in0.0 mm
02:57 PM 30.0°F-1.1°C 8.6°F-13.0°C 40% 9.9 mph NNE15.9 kmh NNE 9.9 mph15.9 kmh 30.59 in1035.9 mb 0.00 in0.0 mm 0.00 in0.0 mm 0.00 in0.0 mm
02:58 PM 30.0°F-1.1°C 8.1°F-13.3°C 39% 3.7 mph WNW6.0 kmh WNW 9.9 mph15.9 kmh 30.59 in1035.9 mb 0.00 in0.0 mm 0.00 in0.0 mm 0.00 in0.0 mm
02:59 PM 29.8°F-1.2°C 7.9°F-13.4°C 39% 3.2 mph NNE5.1 kmh NNE 9.9 mph15.9 kmh 30.59 in1035.9 mb 0.00 in0.0 mm 0.00 in0.0 mm 0.00 in0.0 mm
03:00 PM 29.8°F-1.2°C 7.3°F-13.7°C 38% 4.7 mph ENE7.6 kmh ENE 9.9 mph15.9 kmh 30.59 in1035.9 mb 0.00 in0.0 mm 0.00 in0.0 mm 0.00 in0.0 mm
03:01 PM 29.8°F-1.2°C 6.7°F-14.1°C 37% 3.2 mph NNE5.1 kmh NNE 9.9 mph15.9 kmh 30.59 in1035.9 mb 0.00 in0.0 mm 0.00 in0.0 mm 0.00 in0.0 mm
03:02 PM 29.5°F-1.4°C 6.5°F-14.2°C 37% 4.7 mph N7.6 kmh N 9.9 mph15.9 kmh 30.59 in1035.9 mb 0.00 in0.0 mm 0.00 in0.0 mm 0.00 in0.0 mm
03:03 PM 29.5°F-1.4°C 7.1°F-13.8°C 38% 4.7 mph NNE7.6 kmh NNE 9.9 mph15.9 kmh 30.59 in1035.9 mb 0.00 in0.0 mm 0.00 in0.0 mm 0.00 in0.0 mm
03:04 PM 29.8°F-1.2°C 6.7°F-14.1°C 37% 4.2 mph NE6.8 kmh NE 9.9 mph15.9 kmh 30.59 in1035.9 mb 0.00 in0.0 mm 0.00 in0.0 mm 0.00 in0.0 mm
03:05 PM 30.0°F-1.1°C 6.9°F-13.9°C 37% 6.8 mph NNE10.9 kmh NNE 9.9 mph15.9 kmh 30.59 in1035.9 mb 0.00 in0.0 mm 0.00 in0.0 mm 0.00 in0.0 mm
03:06 PM 30.0°F-1.1°C 6.9°F-13.9°C 37% 9.9 mph ESE15.9 kmh ESE 9.9 mph15.9 kmh 30.59 in1035.9 mb 0.00 in0.0 mm 0.00 in0.0 mm 0.00 in0.0 mm
03:07 PM 29.7°F-1.3°C 6.1°F-14.4°C 36% 7.3 mph NNW11.7 kmh NNW 9.9 mph15.9 kmh 30.59 in1035.9 mb 0.00 in0.0 mm 0.00 in0.0 mm 0.00 in0.0 mm
03:08 PM 29.5°F-1.4°C 5.9°F-14.5°C 36% 3.7 mph ESE6.0 kmh ESE 9.9 mph15.9 kmh 30.59 in1035.9 mb 0.00 in0.0 mm 0.00 in0.0 mm 0.00 in0.0 mm
03:09 PM 29.5°F-1.4°C 5.9°F-14.5°C 36% 6.8 mph NE10.9 kmh NE 9.9 mph15.9 kmh 30.59 in1035.9 mb 0.00 in0.0 mm 0.00 in0.0 mm 0.00 in0.0 mm
03:10 PM 29.5°F-1.4°C 5.9°F-14.5°C 36% 7.3 mph W11.7 kmh W 9.9 mph15.9 kmh 30.59 in1035.9 mb 0.00 in0.0 mm 0.00 in0.0 mm 0.00 in0.0 mm
03:11 PM 29.5°F-1.4°C 6.5°F-14.2°C 37% 4.7 mph NE7.6 kmh NE 9.9 mph15.9 kmh 30.59 in1035.9 mb 0.00 in0.0 mm 0.00 in0.0 mm 0.00 in0.0 mm
03:12 PM 29.5°F-1.4°C 6.5°F-14.2°C 37% 1.1 mph W1.8 kmh W 9.9 mph15.9 kmh 30.59 in1035.9 mb 0.00 in0.0 mm 0.00 in0.0 mm 0.00 in0.0 mm
03:13 PM 29.7°F-1.3°C 7.2°F-13.8°C 38% 4.2 mph WNW6.8 kmh WNW 9.9 mph15.9 kmh 30.59 in1035.9 mb 0.00 in0.0 mm 0.00 in0.0 mm 0.00 in0.0 mm
03:14 PM 29.8°F-1.2°C 7.3°F-13.7°C 38% 4.7 mph NNW7.6 kmh NNW 9.9 mph15.9 kmh 30.59 in1035.9 mb 0.00 in0.0 mm 0.00 in0.0 mm 0.00 in0.0 mm
03:15 PM 29.8°F-1.2°C 6.7°F-14.1°C 37% 2.7 mph NE4.3 kmh NE 9.9 mph15.9 kmh 30.59 in1035.9 mb 0.00 in0.0 mm 0.00 in0.0 mm 0.00 in0.0 mm
03:16 PM 29.7°F-1.3°C 6.7°F-14.1°C 37% 4.2 mph ENE6.8 kmh ENE 9.9 mph15.9 kmh 30.59 in1035.9 mb 0.00 in0.0 mm 0.00 in0.0 mm 0.00 in0.0 mm
03:17 PM 29.8°F-1.2°C 6.7°F-14.1°C 37% 4.2 mph N6.8 kmh N 9.4 mph15.1 kmh 30.60 in1036.2 mb 0.00 in0.0 mm 0.00 in0.0 mm 0.00 in0.0 mm
03:18 PM 29.7°F-1.3°C 6.7°F-14.1°C 37% 4.2 mph NNW6.8 kmh NNW 9.4 mph15.1 kmh 30.60 in1036.2 mb 0.00 in0.0 mm 0.00 in0.0 mm 0.00 in0.0 mm
03:19 PM 29.8°F-1.2°C 7.3°F-13.7°C 38% 5.3 mph NNE8.5 kmh NNE 8.9 mph14.3 kmh 30.60 in1036.2 mb 0.00 in0.0 mm 0.00 in0.0 mm 0.00 in0.0 mm
03:20 PM 29.8°F-1.2°C 7.3°F-13.7°C 38% 6.3 mph NNE10.1 kmh NNE 8.3 mph13.4 kmh 30.60 in1036.2 mb 0.00 in0.0 mm 0.00 in0.0 mm 0.00 in0.0 mm
03:21 PM 30.0°F-1.1°C 7.5°F-13.6°C 38% 7.8 mph NW12.6 kmh NW 7.8 mph12.6 kmh 30.60 in1036.2 mb 0.00 in0.0 mm 0.00 in0.0 mm 0.00 in0.0 mm
03:22 PM 30.0°F-1.1°C 7.5°F-13.6°C 38% 9.9 mph NNE15.9 kmh NNE 9.9 mph15.9 kmh 30.60 in1036.2 mb 0.00 in0.0 mm 0.00 in0.0 mm 0.00 in0.0 mm
03:23 PM 29.8°F-1.2°C 6.7°F-14.1°C 37% 3.7 mph NNE6.0 kmh NNE 9.9 mph15.9 kmh 30.60 in1036.2 mb 0.00 in0.0 mm 0.00 in0.0 mm 0.00 in0.0 mm
03:24 PM 29.7°F-1.3°C 6.7°F-14.1°C 37% 5.3 mph E8.5 kmh E 9.9 mph15.9 kmh 30.60 in1036.2 mb 0.00 in0.0 mm 0.00 in0.0 mm 0.00 in0.0 mm
03:25 PM 29.5°F-1.4°C 6.5°F-14.2°C 37% 6.3 mph E10.1 kmh E 9.9 mph15.9 kmh 30.60 in1036.2 mb 0.00 in0.0 mm 0.00 in0.0 mm 0.00 in0.0 mm
03:26 PM 29.7°F-1.3°C 6.7°F-14.1°C 37% 8.9 mph NNE14.3 kmh NNE 9.9 mph15.9 kmh 30.60 in1036.2 mb 0.00 in0.0 mm 0.00 in0.0 mm 0.00 in0.0 mm
03:27 PM 29.8°F-1.2°C 7.3°F-13.7°C 38% 5.3 mph NNW8.5 kmh NNW 11.4 mph18.3 kmh 30.60 in1036.2 mb 0.00 in0.0 mm 0.00 in0.0 mm 0.00 in0.0 mm
03:28 PM 29.8°F-1.2°C 6.7°F-14.1°C 37% 6.8 mph ENE10.9 kmh ENE 11.4 mph18.3 kmh 30.60 in1036.2 mb 0.00 in0.0 mm 0.00 in0.0 mm 0.00 in0.0 mm
03:29 PM 30.0°F-1.1°C 6.9°F-13.9°C 37% 6.3 mph ENE10.1 kmh ENE 11.4 mph18.3 kmh 30.60 in1036.2 mb 0.00 in0.0 mm 0.00 in0.0 mm 0.00 in0.0 mm
03:30 PM 30.0°F-1.1°C 6.9°F-13.9°C 37% 6.3 mph NNE10.1 kmh NNE 11.4 mph18.3 kmh 30.60 in1036.2 mb 0.00 in0.0 mm 0.00 in0.0 mm 0.00 in0.0 mm
03:31 PM 29.8°F-1.2°C 6.7°F-14.1°C 37% 4.7 mph NNE7.6 kmh NNE 11.4 mph18.3 kmh 30.60 in1036.2 mb 0.00 in0.0 mm 0.00 in0.0 mm 0.00 in0.0 mm
03:32 PM 29.7°F-1.3°C 6.7°F-14.1°C 37% 8.3 mph ENE13.4 kmh ENE 11.4 mph18.3 kmh 30.60 in1036.2 mb 0.00 in0.0 mm 0.00 in0.0 mm 0.00 in0.0 mm
03:33 PM 29.8°F-1.2°C 6.7°F-14.1°C 37% 6.3 mph E10.1 kmh E 11.4 mph18.3 kmh 30.60 in1036.2 mb 0.00 in0.0 mm 0.00 in0.0 mm 0.00 in0.0 mm
03:34 PM 29.8°F-1.2°C 6.7°F-14.1°C 37% 5.8 mph N9.3 kmh N 11.4 mph18.3 kmh 30.60 in1036.2 mb 0.00 in0.0 mm 0.00 in0.0 mm 0.00 in0.0 mm
03:35 PM 29.8°F-1.2°C 6.7°F-14.1°C 37% 9.9 mph NNW15.9 kmh NNW 11.4 mph18.3 kmh 30.60 in1036.2 mb 0.00 in0.0 mm 0.00 in0.0 mm 0.00 in0.0 mm
03:36 PM 29.8°F-1.2°C 6.7°F-14.1°C 37% 6.8 mph NNW10.9 kmh NNW 11.4 mph18.3 kmh 30.60 in1036.2 mb 0.00 in0.0 mm 0.00 in0.0 mm 0.00 in0.0 mm
03:37 PM 29.8°F-1.2°C 7.3°F-13.7°C 38% 5.8 mph NNE9.3 kmh NNE 9.9 mph15.9 kmh 30.60 in1036.2 mb 0.00 in0.0 mm 0.00 in0.0 mm 0.00 in0.0 mm
03:38 PM 29.8°F-1.2°C 6.7°F-14.1°C 37% 4.2 mph N6.8 kmh N 9.9 mph15.9 kmh 30.60 in1036.2 mb 0.00 in0.0 mm 0.00 in0.0 mm 0.00 in0.0 mm
03:39 PM 29.8°F-1.2°C 6.7°F-14.1°C 37% 3.7 mph NNE6.0 kmh NNE 9.9 mph15.9 kmh 30.60 in1036.2 mb 0.00 in0.0 mm 0.00 in0.0 mm 0.00 in0.0 mm
03:40 PM 30.0°F-1.1°C 6.9°F-13.9°C 37% 2.7 mph SSW4.3 kmh SSW 9.9 mph15.9 kmh 30.60 in1036.2 mb 0.00 in0.0 mm 0.00 in0.0 mm 0.00 in0.0 mm
03:41 PM 30.0°F-1.1°C 7.5°F-13.6°C 38% 5.3 mph ENE8.5 kmh ENE 9.9 mph15.9 kmh 30.59 in1035.9 mb 0.00 in0.0 mm 0.00 in0.0 mm 0.00 in0.0 mm
03:42 PM 30.0°F-1.1°C 7.5°F-13.6°C 38% 6.3 mph ENE10.1 kmh ENE 9.9 mph15.9 kmh 30.59 in1035.9 mb 0.00 in0.0 mm 0.00 in0.0 mm 0.00 in0.0 mm
03:43 PM 29.8°F-1.2°C 6.7°F-14.1°C 37% 6.8 mph ENE10.9 kmh ENE 9.9 mph15.9 kmh 30.59 in1035.9 mb 0.00 in0.0 mm 0.00 in0.0 mm 0.00 in0.0 mm
03:44 PM 30.0°F-1.1°C 6.9°F-13.9°C 37% 4.7 mph E7.6 kmh E 9.9 mph15.9 kmh 30.59 in1035.9 mb 0.00 in0.0 mm 0.00 in0.0 mm 0.00 in0.0 mm
03:45 PM 30.0°F-1.1°C 6.9°F-13.9°C 37% 5.3 mph E8.5 kmh E 9.9 mph15.9 kmh 30.59 in1035.9 mb 0.00 in0.0 mm 0.00 in0.0 mm 0.00 in0.0 mm
03:46 PM 30.0°F-1.1°C 6.9°F-13.9°C 37% 4.7 mph ESE7.6 kmh ESE 8.3 mph13.4 kmh 30.59 in1035.9 mb 0.00 in0.0 mm 0.00 in0.0 mm 0.00 in0.0 mm
03:47 PM 30.0°F-1.1°C 6.9°F-13.9°C 37% 3.7 mph ESE6.0 kmh ESE 7.8 mph12.6 kmh 30.59 in1035.9 mb 0.00 in0.0 mm 0.00 in0.0 mm 0.00 in0.0 mm
03:48 PM 30.4°F-0.9°C 7.3°F-13.7°C 37% 3.7 mph NNE6.0 kmh NNE 7.8 mph12.6 kmh 30.59 in1035.9 mb 0.00 in0.0 mm 0.00 in0.0 mm 0.00 in0.0 mm
03:49 PM 30.4°F-0.9°C 7.3°F-13.7°C 37% 4.7 mph N7.6 kmh N 7.8 mph12.6 kmh 30.59 in1035.9 mb 0.00 in0.0 mm 0.00 in0.0 mm 0.00 in0.0 mm
03:50 PM 30.6°F-0.8°C 7.5°F-13.6°C 37% 3.2 mph NNE5.1 kmh NNE 7.8 mph12.6 kmh 30.59 in1035.9 mb 0.00 in0.0 mm 0.00 in0.0 mm 0.00 in0.0 mm
03:51 PM 30.7°F-0.7°C 7.5°F-13.6°C 37% 4.2 mph ESE6.8 kmh ESE 7.3 mph11.7 kmh 30.59 in1035.9 mb 0.00 in0.0 mm 0.00 in0.0 mm 0.00 in0.0 mm
03:52 PM 30.7°F-0.7°C 7.5°F-13.6°C 37% 6.3 mph NNE10.1 kmh NNE 7.3 mph11.7 kmh 30.59 in1035.9 mb 0.00 in0.0 mm 0.00 in0.0 mm 0.00 in0.0 mm
03:53 PM 30.7°F-0.7°C 7.5°F-13.6°C 37% 6.3 mph NNE10.1 kmh NNE 10.4 mph16.7 kmh 30.59 in1035.9 mb 0.00 in0.0 mm 0.00 in0.0 mm 0.00 in0.0 mm
03:54 PM 30.4°F-0.9°C 6.7°F-14.1°C 36% 7.8 mph NE12.6 kmh NE 10.4 mph16.7 kmh 30.59 in1035.9 mb 0.00 in0.0 mm 0.00 in0.0 mm 0.00 in0.0 mm
03:55 PM 29.8°F-1.2°C 6.1°F-14.4°C 36% 10.4 mph NE16.7 kmh NE 10.4 mph16.7 kmh 30.59 in1035.9 mb 0.00 in0.0 mm 0.00 in0.0 mm 0.00 in0.0 mm
03:56 PM 29.7°F-1.3°C 6.1°F-14.4°C 36% 8.3 mph NNE13.4 kmh NNE 10.4 mph16.7 kmh 30.59 in1035.9 mb 0.00 in0.0 mm 0.00 in0.0 mm 0.00 in0.0 mm
03:57 PM 29.7°F-1.3°C 6.1°F-14.4°C 36% 6.8 mph NNE10.9 kmh NNE 10.4 mph16.7 kmh 30.59 in1035.9 mb 0.00 in0.0 mm 0.00 in0.0 mm 0.00 in0.0 mm
03:58 PM 29.7°F-1.3°C 6.1°F-14.4°C 36% 8.9 mph NE14.3 kmh NE 10.4 mph16.7 kmh 30.59 in1035.9 mb 0.00 in0.0 mm 0.00 in0.0 mm 0.00 in0.0 mm
03:59 PM 29.7°F-1.3°C 6.1°F-14.4°C 36% 4.7 mph NNE7.6 kmh NNE 10.4 mph16.7 kmh 30.59 in1035.9 mb 0.00 in0.0 mm 0.00 in0.0 mm 0.00 in0.0 mm
04:00 PM 29.8°F-1.2°C 6.1°F-14.4°C 36% 3.7 mph ESE6.0 kmh ESE 10.4 mph16.7 kmh 30.59 in1035.9 mb 0.00 in0.0 mm 0.00 in0.0 mm 0.00 in0.0 mm
04:01 PM 29.8°F-1.2°C 6.1°F-14.4°C 36% 3.7 mph NE6.0 kmh NE 10.4 mph16.7 kmh 30.59 in1035.9 mb 0.00 in0.0 mm 0.00 in0.0 mm 0.00 in0.0 mm
04:02 PM 30.0°F-1.1°C 6.3°F-14.3°C 36% 3.7 mph NE6.0 kmh NE 10.4 mph16.7 kmh 30.59 in1035.9 mb 0.00 in0.0 mm 0.00 in0.0 mm 0.00 in0.0 mm
04:03 PM 30.0°F-1.1°C 6.3°F-14.3°C 36% 5.3 mph NNE8.5 kmh NNE 10.4 mph16.7 kmh 30.59 in1035.9 mb 0.00 in0.0 mm 0.00 in0.0 mm 0.00 in0.0 mm
04:04 PM 29.8°F-1.2°C 6.1°F-14.4°C 36% 7.8 mph ENE12.6 kmh ENE 10.4 mph16.7 kmh 30.59 in1035.9 mb 0.00 in0.0 mm 0.00 in0.0 mm 0.00 in0.0 mm
04:05 PM 29.5°F-1.4°C 5.9°F-14.5°C 36% 5.8 mph NNE9.3 kmh NNE 10.4 mph16.7 kmh 30.59 in1035.9 mb 0.00 in0.0 mm 0.00 in0.0 mm 0.00 in0.0 mm
04:06 PM 29.5°F-1.4°C 5.9°F-14.5°C 36% 7.3 mph NNE11.7 kmh NNE 10.4 mph16.7 kmh 30.59 in1035.9 mb 0.00 in0.0 mm 0.00 in0.0 mm 0.00 in0.0 mm
04:07 PM 29.1°F-1.6°C 6.7°F-14.1°C 38% 6.3 mph W10.1 kmh W 10.4 mph16.7 kmh 30.59 in1035.9 mb 0.00 in0.0 mm 0.00 in0.0 mm 0.00 in0.0 mm
04:08 PM 29.1°F-1.6°C 6.7°F-14.1°C 38% 5.8 mph NNE9.3 kmh NNE 10.4 mph16.7 kmh 30.59 in1035.9 mb 0.00 in0.0 mm 0.00 in0.0 mm 0.00 in0.0 mm
04:09 PM 29.1°F-1.6°C 6.7°F-14.1°C 38% 6.8 mph N10.9 kmh N 10.4 mph16.7 kmh 30.59 in1035.9 mb 0.00 in0.0 mm 0.00 in0.0 mm 0.00 in0.0 mm
04:10 PM 29.1°F-1.6°C 6.7°F-14.1°C 38% 5.8 mph N9.3 kmh N 10.4 mph16.7 kmh 30.59 in1035.9 mb 0.00 in0.0 mm 0.00 in0.0 mm 0.00 in0.0 mm
04:11 PM 29.1°F-1.6°C 6.7°F-14.1°C 38% 7.3 mph NNW11.7 kmh NNW 10.4 mph16.7 kmh 30.59 in1035.9 mb 0.00 in0.0 mm 0.00 in0.0 mm 0.00 in0.0 mm
04:12 PM 29.1°F-1.6°C 7.3°F-13.7°C 39% 5.8 mph ESE9.3 kmh ESE 10.4 mph16.7 kmh 30.59 in1035.9 mb 0.00 in0.0 mm 0.00 in0.0 mm 0.00 in0.0 mm
04:13 PM 29.1°F-1.6°C 7.8°F-13.4°C 40% 5.8 mph NNE9.3 kmh NNE 10.4 mph16.7 kmh 30.59 in1035.9 mb 0.00 in0.0 mm 0.00 in0.0 mm 0.00 in0.0 mm
04:14 PM 29.1°F-1.6°C 7.3°F-13.7°C 39% 5.3 mph ESE8.5 kmh ESE 10.4 mph16.7 kmh 30.59 in1035.9 mb 0.00 in0.0 mm 0.00 in0.0 mm 0.00 in0.0 mm
04:15 PM 29.1°F-1.6°C 7.3°F-13.7°C 39% 4.2 mph WNW6.8 kmh WNW 9.9 mph15.9 kmh 30.59 in1035.9 mb 0.00 in0.0 mm 0.00 in0.0 mm 0.00 in0.0 mm
04:16 PM 28.9°F-1.7°C 7.1°F-13.8°C 39% 4.2 mph NNE6.8 kmh NNE 9.9 mph15.9 kmh 30.59 in1035.9 mb 0.00 in0.0 mm 0.00 in0.0 mm 0.00 in0.0 mm
04:17 PM 28.9°F-1.7°C 7.6°F-13.6°C 40% 6.3 mph NNE10.1 kmh NNE 9.9 mph15.9 kmh 30.59 in1035.9 mb 0.00 in0.0 mm 0.00 in0.0 mm 0.00 in0.0 mm
04:18 PM 28.9°F-1.7°C 7.6°F-13.6°C 40% 6.8 mph ENE10.9 kmh ENE 9.9 mph15.9 kmh 30.59 in1035.9 mb 0.00 in0.0 mm 0.00 in0.0 mm 0.00 in0.0 mm
04:19 PM 28.8°F-1.8°C 7.0°F-13.9°C 39% 4.7 mph NNE7.6 kmh NNE 9.9 mph15.9 kmh 30.59 in1035.9 mb 0.00 in0.0 mm 0.00 in0.0 mm 0.00 in0.0 mm
04:20 PM 28.8°F-1.8°C 7.6°F-13.6°C 40% 3.2 mph NE5.1 kmh NE 9.9 mph15.9 kmh 30.59 in1035.9 mb 0.00 in0.0 mm 0.00 in0.0 mm 0.00 in0.0 mm
04:21 PM 28.9°F-1.7°C 7.6°F-13.6°C 40% 4.7 mph NNE7.6 kmh NNE 9.9 mph15.9 kmh 30.59 in1035.9 mb 0.00 in0.0 mm 0.00 in0.0 mm 0.00 in0.0 mm
04:22 PM 28.6°F-1.9°C 7.4°F-13.7°C 40% 3.7 mph E6.0 kmh E 9.9 mph15.9 kmh 30.59 in1035.9 mb 0.00 in0.0 mm 0.00 in0.0 mm 0.00 in0.0 mm
04:23 PM 28.6°F-1.9°C 7.4°F-13.7°C 40% 7.3 mph ESE11.7 kmh ESE 9.9 mph15.9 kmh 30.59 in1035.9 mb 0.00 in0.0 mm 0.00 in0.0 mm 0.00 in0.0 mm
04:24 PM 28.4°F-2.0°C 7.2°F-13.8°C 40% 4.2 mph ESE6.8 kmh ESE 8.9 mph14.3 kmh 30.59 in1035.9 mb 0.00 in0.0 mm 0.00 in0.0 mm 0.00 in0.0 mm
04:25 PM 28.2°F-2.1°C 7.0°F-13.9°C 40% 5.3 mph ENE8.5 kmh ENE 8.9 mph14.3 kmh 30.59 in1035.9 mb 0.00 in0.0 mm 0.00 in0.0 mm 0.00 in0.0 mm
04:26 PM 28.2°F-2.1°C 7.0°F-13.9°C 40% 3.7 mph ESE6.0 kmh ESE 8.9 mph14.3 kmh 30.59 in1035.9 mb 0.00 in0.0 mm 0.00 in0.0 mm 0.00 in0.0 mm
04:27 PM 28.4°F-2.0°C 7.2°F-13.8°C 40% 2.2 mph NNE3.5 kmh NNE 8.9 mph14.3 kmh 30.59 in1035.9 mb 0.00 in0.0 mm 0.00 in0.0 mm 0.00 in0.0 mm
04:28 PM 28.6°F-1.9°C 7.4°F-13.7°C 40% 3.7 mph ESE6.0 kmh ESE 8.9 mph14.3 kmh 30.59 in1035.9 mb 0.00 in0.0 mm 0.00 in0.0 mm 0.00 in0.0 mm
04:29 PM 28.6°F-1.9°C 7.4°F-13.7°C 40% 2.7 mph NNE4.3 kmh NNE 8.3 mph13.4 kmh 30.59 in1035.9 mb 0.00 in0.0 mm 0.00 in0.0 mm 0.00 in0.0 mm
04:30 PM 28.6°F-1.9°C 7.4°F-13.7°C 40% 4.7 mph SE7.6 kmh SE 8.3 mph13.4 kmh 30.59 in1035.9 mb 0.00 in0.0 mm 0.00 in0.0 mm 0.00 in0.0 mm
04:31 PM 28.4°F-2.0°C 7.2°F-13.8°C 40% 5.3 mph SE8.5 kmh SE 8.3 mph13.4 kmh 30.59 in1035.9 mb 0.00 in0.0 mm 0.00 in0.0 mm 0.00 in0.0 mm
04:32 PM 28.2°F-2.1°C 7.0°F-13.9°C 40% 3.2 mph ESE5.1 kmh ESE 7.8 mph12.6 kmh 30.59 in1035.9 mb 0.00 in0.0 mm 0.00 in0.0 mm 0.00 in0.0 mm
04:33 PM 28.2°F-2.1°C 7.0°F-13.9°C 40% 6.8 mph ESE10.9 kmh ESE 7.8 mph12.6 kmh 30.59 in1035.9 mb 0.00 in0.0 mm 0.00 in0.0 mm 0.00 in0.0 mm
04:38 PM 28.2°F-2.1°C 7.0°F-13.9°C 40% 5.8 mph ESE9.3 kmh ESE 6.8 mph10.9 kmh 30.59 in1035.9 mb 0.00 in0.0 mm 0.00 in0.0 mm 0.00 in0.0 mm
04:39 PM 27.9°F-2.3°C 6.7°F-14.1°C 40% 3.7 mph S6.0 kmh S 6.8 mph10.9 kmh 30.59 in1035.9 mb 0.00 in0.0 mm 0.00 in0.0 mm 0.00 in0.0 mm
04:40 PM 27.9°F-2.3°C 7.3°F-13.7°C 41% 5.3 mph ESE8.5 kmh ESE 6.8 mph10.9 kmh 30.58 in1035.6 mb 0.00 in0.0 mm 0.00 in0.0 mm 0.00 in0.0 mm
04:41 PM 27.9°F-2.3°C 7.3°F-13.7°C 41% 5.8 mph ENE9.3 kmh ENE 6.8 mph10.9 kmh 30.58 in1035.6 mb 0.00 in0.0 mm 0.00 in0.0 mm 0.00 in0.0 mm
04:42 PM 27.9°F-2.3°C 7.3°F-13.7°C 41% 3.2 mph NNE5.1 kmh NNE 6.8 mph10.9 kmh 30.58 in1035.6 mb 0.00 in0.0 mm 0.00 in0.0 mm 0.00 in0.0 mm
04:43 PM 27.9°F-2.3°C 7.3°F-13.7°C 41% 5.8 mph N9.3 kmh N 6.8 mph10.9 kmh 30.58 in1035.6 mb 0.00 in0.0 mm 0.00 in0.0 mm 0.00 in0.0 mm
04:44 PM 27.7°F-2.4°C 6.6°F-14.1°C 40% 5.3 mph ESE8.5 kmh ESE 5.8 mph9.3 kmh 30.58 in1035.6 mb 0.00 in0.0 mm 0.00 in0.0 mm 0.00 in0.0 mm
04:45 PM 27.5°F-2.5°C 6.4°F-14.2°C 40% 6.3 mph ESE10.1 kmh ESE 6.8 mph10.9 kmh 30.58 in1035.6 mb 0.00 in0.0 mm 0.00 in0.0 mm 0.00 in0.0 mm
04:46 PM 27.3°F-2.6°C 6.2°F-14.3°C 40% 4.2 mph NNE6.8 kmh NNE 6.8 mph10.9 kmh 30.58 in1035.6 mb 0.00 in0.0 mm 0.00 in0.0 mm 0.00 in0.0 mm
04:47 PM 27.3°F-2.6°C 6.2°F-14.3°C 40% 7.3 mph E11.7 kmh E 7.3 mph11.7 kmh 30.58 in1035.6 mb 0.00 in0.0 mm 0.00 in0.0 mm 0.00 in0.0 mm
04:48 PM 27.3°F-2.6°C 6.7°F-14.1°C 41% 4.2 mph ESE6.8 kmh ESE 7.3 mph11.7 kmh 30.58 in1035.6 mb 0.00 in0.0 mm 0.00 in0.0 mm 0.00 in0.0 mm
04:49 PM 27.1°F-2.7°C 6.6°F-14.1°C 41% 3.7 mph ESE6.0 kmh ESE 7.3 mph11.7 kmh 30.58 in1035.6 mb 0.00 in0.0 mm 0.00 in0.0 mm 0.00 in0.0 mm
04:50 PM 27.1°F-2.7°C 6.6°F-14.1°C 41% 2.7 mph ESE4.3 kmh ESE 7.3 mph11.7 kmh 30.58 in1035.6 mb 0.00 in0.0 mm 0.00 in0.0 mm 0.00 in0.0 mm
04:51 PM 27.1°F-2.7°C 7.1°F-13.8°C 42% 5.8 mph E9.3 kmh E 7.3 mph11.7 kmh 30.58 in1035.6 mb 0.00 in0.0 mm 0.00 in0.0 mm 0.00 in0.0 mm
04:52 PM 27.0°F-2.8°C 7.0°F-13.9°C 42% 3.7 mph ESE6.0 kmh ESE 7.3 mph11.7 kmh 30.58 in1035.6 mb 0.00 in0.0 mm 0.00 in0.0 mm 0.00 in0.0 mm
04:53 PM 27.0°F-2.8°C 7.0°F-13.9°C 42% 5.3 mph NNE8.5 kmh NNE 7.3 mph11.7 kmh 30.59 in1035.9 mb 0.00 in0.0 mm 0.00 in0.0 mm 0.00 in0.0 mm
04:54 PM 27.0°F-2.8°C 7.0°F-13.9°C 42% 2.7 mph ESE4.3 kmh ESE 7.3 mph11.7 kmh 30.59 in1035.9 mb 0.00 in0.0 mm 0.00 in0.0 mm 0.00 in0.0 mm
04:55 PM 26.8°F-2.9°C 6.8°F-14.0°C 42% 2.7 mph E4.3 kmh E 7.3 mph11.7 kmh 30.59 in1035.9 mb 0.00 in0.0 mm 0.00 in0.0 mm 0.00 in0.0 mm
04:56 PM 26.8°F-2.9°C 6.8°F-14.0°C 42% 7.3 mph N11.7 kmh N 7.3 mph11.7 kmh 30.59 in1035.9 mb 0.00 in0.0 mm 0.00 in0.0 mm 0.00 in0.0 mm
04:57 PM 26.8°F-2.9°C 6.8°F-14.0°C 42% 4.7 mph NNE7.6 kmh NNE 7.3 mph11.7 kmh 30.59 in1035.9 mb 0.00 in0.0 mm 0.00 in0.0 mm 0.00 in0.0 mm
04:58 PM 26.8°F-2.9°C 6.8°F-14.0°C 42% 5.3 mph NNW8.5 kmh NNW 7.3 mph11.7 kmh 30.59 in1035.9 mb 0.00 in0.0 mm 0.00 in0.0 mm 0.00 in0.0 mm
04:59 PM 26.6°F-3.0°C 7.2°F-13.8°C 43% 4.2 mph NNE6.8 kmh NNE 7.3 mph11.7 kmh 30.59 in1035.9 mb 0.00 in0.0 mm 0.00 in0.0 mm 0.00 in0.0 mm
05:00 PM 26.6°F-3.0°C 7.2°F-13.8°C 43% 6.3 mph NNE10.1 kmh NNE 7.3 mph11.7 kmh 30.59 in1035.9 mb 0.00 in0.0 mm 0.00 in0.0 mm 0.00 in0.0 mm
05:01 PM 26.6°F-3.0°C 7.2°F-13.8°C 43% 4.2 mph ESE6.8 kmh ESE 8.9 mph14.3 kmh 30.59 in1035.9 mb 0.00 in0.0 mm 0.00 in0.0 mm 0.00 in0.0 mm
05:02 PM 26.6°F-3.0°C 7.2°F-13.8°C 43% 5.8 mph NNE9.3 kmh NNE 8.9 mph14.3 kmh 30.59 in1035.9 mb 0.00 in0.0 mm 0.00 in0.0 mm 0.00 in0.0 mm
05:03 PM 26.2°F-3.2°C 6.3°F-14.3°C 42% 6.3 mph NE10.1 kmh NE 8.9 mph14.3 kmh 30.59 in1035.9 mb 0.00 in0.0 mm 0.00 in0.0 mm 0.00 in0.0 mm
05:04 PM 26.2°F-3.2°C 6.3°F-14.3°C 42% 7.8 mph NNE12.6 kmh NNE 8.9 mph14.3 kmh 30.59 in1035.9 mb 0.00 in0.0 mm 0.00 in0.0 mm 0.00 in0.0 mm
05:05 PM 26.2°F-3.2°C 6.3°F-14.3°C 42% 4.7 mph W7.6 kmh W 8.9 mph14.3 kmh 30.59 in1035.9 mb 0.00 in0.0 mm 0.00 in0.0 mm 0.00 in0.0 mm
05:06 PM 26.2°F-3.2°C 6.3°F-14.3°C 42% 7.8 mph NE12.6 kmh NE 8.9 mph14.3 kmh 30.59 in1035.9 mb 0.00 in0.0 mm 0.00 in0.0 mm 0.00 in0.0 mm
05:07 PM 26.1°F-3.3°C 6.2°F-14.3°C 42% 6.8 mph ESE10.9 kmh ESE 8.9 mph14.3 kmh 30.59 in1035.9 mb 0.00 in0.0 mm 0.00 in0.0 mm 0.00 in0.0 mm
05:08 PM 26.1°F-3.3°C 6.7°F-14.1°C 43% 6.8 mph NE10.9 kmh NE 8.9 mph14.3 kmh 30.59 in1035.9 mb 0.00 in0.0 mm 0.00 in0.0 mm 0.00 in0.0 mm
05:09 PM 26.1°F-3.3°C 6.2°F-14.3°C 42% 5.8 mph ESE9.3 kmh ESE 8.9 mph14.3 kmh 30.59 in1035.9 mb 0.00 in0.0 mm 0.00 in0.0 mm 0.00 in0.0 mm
05:10 PM 26.1°F-3.3°C 6.2°F-14.3°C 42% 5.8 mph NNE9.3 kmh NNE 8.9 mph14.3 kmh 30.59 in1035.9 mb 0.00 in0.0 mm 0.00 in0.0 mm 0.00 in0.0 mm
05:11 PM 26.1°F-3.3°C 6.2°F-14.3°C 42% 3.2 mph NNE5.1 kmh NNE 7.8 mph12.6 kmh 30.59 in1035.9 mb 0.00 in0.0 mm 0.00 in0.0 mm 0.00 in0.0 mm
05:12 PM 25.9°F-3.4°C 6.5°F-14.2°C 43% 2.2 mph NNE3.5 kmh NNE 7.8 mph12.6 kmh 30.59 in1035.9 mb 0.00 in0.0 mm 0.00 in0.0 mm 0.00 in0.0 mm
05:13 PM 25.9°F-3.4°C 6.5°F-14.2°C 43% 3.7 mph ENE6.0 kmh ENE 7.8 mph12.6 kmh 30.59 in1035.9 mb 0.00 in0.0 mm 0.00 in0.0 mm 0.00 in0.0 mm
05:14 PM 25.9°F-3.4°C 7.0°F-13.9°C 44% 3.2 mph ENE5.1 kmh ENE 7.8 mph12.6 kmh 30.59 in1035.9 mb 0.00 in0.0 mm 0.00 in0.0 mm 0.00 in0.0 mm
05:15 PM 25.9°F-3.4°C 7.5°F-13.6°C 45% 1.1 mph SSE1.8 kmh SSE 7.8 mph12.6 kmh 30.59 in1035.9 mb 0.00 in0.0 mm 0.00 in0.0 mm 0.00 in0.0 mm
05:16 PM 25.7°F-3.5°C 7.3°F-13.7°C 45% 3.2 mph NE5.1 kmh NE 7.3 mph11.7 kmh 30.59 in1035.9 mb 0.00 in0.0 mm 0.00 in0.0 mm 0.00 in0.0 mm
05:17 PM 25.7°F-3.5°C 7.3°F-13.7°C 45% 4.7 mph NNE7.6 kmh NNE 7.3 mph11.7 kmh 30.60 in1036.2 mb 0.00 in0.0 mm 0.00 in0.0 mm 0.00 in0.0 mm
05:18 PM 25.5°F-3.6°C 7.2°F-13.8°C 45% 5.8 mph NNE9.3 kmh NNE 6.8 mph10.9 kmh 30.60 in1036.2 mb 0.00 in0.0 mm 0.00 in0.0 mm 0.00 in0.0 mm
05:19 PM 25.5°F-3.6°C 7.2°F-13.8°C 45% 3.2 mph N5.1 kmh N 5.8 mph9.3 kmh 30.60 in1036.2 mb 0.00 in0.0 mm 0.00 in0.0 mm 0.00 in0.0 mm
05:20 PM 25.5°F-3.6°C 7.2°F-13.8°C 45% 3.7 mph WSW6.0 kmh WSW 5.8 mph9.3 kmh 30.60 in1036.2 mb 0.00 in0.0 mm 0.00 in0.0 mm 0.00 in0.0 mm
05:21 PM 25.5°F-3.6°C 7.2°F-13.8°C 45% 2.7 mph NW4.3 kmh NW 5.8 mph9.3 kmh 30.60 in1036.2 mb 0.00 in0.0 mm 0.00 in0.0 mm 0.00 in0.0 mm
05:22 PM 25.5°F-3.6°C 7.2°F-13.8°C 45% 4.2 mph NE6.8 kmh NE 5.8 mph9.3 kmh 30.60 in1036.2 mb 0.00 in0.0 mm 0.00 in0.0 mm 0.00 in0.0 mm
05:23 PM 25.3°F-3.7°C 6.5°F-14.2°C 44% 4.7 mph NNE7.6 kmh NNE 6.8 mph10.9 kmh 30.60 in1036.2 mb 0.00 in0.0 mm 0.00 in0.0 mm 0.00 in0.0 mm
05:24 PM 25.3°F-3.7°C 7.0°F-13.9°C 45% 3.7 mph NNE6.0 kmh NNE 6.8 mph10.9 kmh 30.60 in1036.2 mb 0.00 in0.0 mm 0.00 in0.0 mm 0.00 in0.0 mm
05:25 PM 25.3°F-3.7°C 7.0°F-13.9°C 45% 4.2 mph NE6.8 kmh NE 6.8 mph10.9 kmh 30.60 in1036.2 mb 0.00 in0.0 mm 0.00 in0.0 mm 0.00 in0.0 mm
05:26 PM 25.3°F-3.7°C 7.0°F-13.9°C 45% 7.8 mph NNE12.6 kmh NNE 7.8 mph12.6 kmh 30.60 in1036.2 mb 0.00 in0.0 mm 0.00 in0.0 mm 0.00 in0.0 mm
05:27 PM 25.3°F-3.7°C 7.0°F-13.9°C 45% 2.2 mph S3.5 kmh S 7.8 mph12.6 kmh 30.60 in1036.2 mb 0.00 in0.0 mm 0.00 in0.0 mm 0.00 in0.0 mm
05:28 PM 25.2°F-3.8°C 6.9°F-13.9°C 45% 2.2 mph N3.5 kmh N 7.8 mph12.6 kmh 30.60 in1036.2 mb 0.00 in0.0 mm 0.00 in0.0 mm 0.00 in0.0 mm
05:29 PM 25.2°F-3.8°C 6.9°F-13.9°C 45% 7.3 mph NNE11.7 kmh NNE 7.8 mph12.6 kmh 30.60 in1036.2 mb 0.00 in0.0 mm 0.00 in0.0 mm 0.00 in0.0 mm
05:30 PM 25.2°F-3.8°C 6.4°F-14.2°C 44% 4.7 mph NNE7.6 kmh NNE 7.8 mph12.6 kmh 30.60 in1036.2 mb 0.00 in0.0 mm 0.00 in0.0 mm 0.00 in0.0 mm
05:31 PM 25.2°F-3.8°C 6.4°F-14.2°C 44% 2.2 mph NNW3.5 kmh NNW 7.8 mph12.6 kmh 30.60 in1036.2 mb 0.00 in0.0 mm 0.00 in0.0 mm 0.00 in0.0 mm
05:32 PM 25.2°F-3.8°C 6.9°F-13.9°C 45% 4.2 mph NE6.8 kmh NE 7.8 mph12.6 kmh 30.60 in1036.2 mb 0.00 in0.0 mm 0.00 in0.0 mm 0.00 in0.0 mm
05:33 PM 25.2°F-3.8°C 6.9°F-13.9°C 45% 4.7 mph NNE7.6 kmh NNE 7.8 mph12.6 kmh 30.60 in1036.2 mb 0.00 in0.0 mm 0.00 in0.0 mm 0.00 in0.0 mm
05:34 PM 25.2°F-3.8°C 6.9°F-13.9°C 45% 3.2 mph E5.1 kmh E 7.8 mph12.6 kmh 30.60 in1036.2 mb 0.00 in0.0 mm 0.00 in0.0 mm 0.00 in0.0 mm
05:35 PM 25.0°F-3.9°C 6.7°F-14.1°C 45% 4.7 mph NNE7.6 kmh NNE 7.8 mph12.6 kmh 30.60 in1036.2 mb 0.00 in0.0 mm 0.00 in0.0 mm 0.00 in0.0 mm
05:36 PM 25.0°F-3.9°C 6.7°F-14.1°C 45% 4.7 mph NNE7.6 kmh NNE 7.3 mph11.7 kmh 30.60 in1036.2 mb 0.00 in0.0 mm 0.00 in0.0 mm 0.00 in0.0 mm
05:37 PM 25.0°F-3.9°C 6.7°F-14.1°C 45% 4.7 mph NNE7.6 kmh NNE 7.3 mph11.7 kmh 30.60 in1036.2 mb 0.00 in0.0 mm 0.00 in0.0 mm 0.00 in0.0 mm
05:38 PM 25.0°F-3.9°C 7.2°F-13.8°C 46% 2.7 mph NNE4.3 kmh NNE 7.3 mph11.7 kmh 30.60 in1036.2 mb 0.00 in0.0 mm 0.00 in0.0 mm 0.00 in0.0 mm
05:39 PM 25.0°F-3.9°C 7.6°F-13.6°C 47% 3.7 mph NNE6.0 kmh NNE 6.8 mph10.9 kmh 30.60 in1036.2 mb 0.00 in0.0 mm 0.00 in0.0 mm 0.00 in0.0 mm
05:40 PM 25.0°F-3.9°C 7.6°F-13.6°C 47% 4.7 mph NNE7.6 kmh NNE 7.3 mph11.7 kmh 30.60 in1036.2 mb 0.00 in0.0 mm 0.00 in0.0 mm 0.00 in0.0 mm
05:41 PM 24.8°F-4.0°C 7.5°F-13.6°C 47% 4.7 mph NNE7.6 kmh NNE 7.3 mph11.7 kmh 30.60 in1036.2 mb 0.00 in0.0 mm 0.00 in0.0 mm 0.00 in0.0 mm
05:42 PM 24.8°F-4.0°C 7.5°F-13.6°C 47% 5.3 mph NE8.5 kmh NE 7.3 mph11.7 kmh 30.60 in1036.2 mb 0.00 in0.0 mm 0.00 in0.0 mm 0.00 in0.0 mm
05:43 PM 24.8°F-4.0°C 7.5°F-13.6°C 47% 4.2 mph NNE6.8 kmh NNE 7.3 mph11.7 kmh 30.60 in1036.2 mb 0.00 in0.0 mm 0.00 in0.0 mm 0.00 in0.0 mm
05:44 PM 24.8°F-4.0°C 7.5°F-13.6°C 47% 4.7 mph NNE7.6 kmh NNE 7.3 mph11.7 kmh 30.60 in1036.2 mb 0.00 in0.0 mm 0.00 in0.0 mm 0.00 in0.0 mm
05:45 PM 24.8°F-4.0°C 7.0°F-13.9°C 46% 5.3 mph NNE8.5 kmh NNE 9.4 mph15.1 kmh 30.60 in1036.2 mb 0.00 in0.0 mm 0.00 in0.0 mm 0.00 in0.0 mm
05:46 PM 24.8°F-4.0°C 7.0°F-13.9°C 46% 7.3 mph NNE11.7 kmh NNE 9.4 mph15.1 kmh 30.60 in1036.2 mb 0.00 in0.0 mm 0.00 in0.0 mm 0.00 in0.0 mm
05:47 PM 24.8°F-4.0°C 7.0°F-13.9°C 46% 6.3 mph ENE10.1 kmh ENE 9.4 mph15.1 kmh 30.60 in1036.2 mb 0.00 in0.0 mm 0.00 in0.0 mm 0.00 in0.0 mm
05:48 PM 24.8°F-4.0°C 7.5°F-13.6°C 47% 5.8 mph ENE9.3 kmh ENE 9.4 mph15.1 kmh 30.60 in1036.2 mb 0.00 in0.0 mm 0.00 in0.0 mm 0.00 in0.0 mm
05:49 PM 24.8°F-4.0°C 7.5°F-13.6°C 47% 5.8 mph ESE9.3 kmh ESE 9.4 mph15.1 kmh 30.60 in1036.2 mb 0.00 in0.0 mm 0.00 in0.0 mm 0.00 in0.0 mm
05:50 PM 24.8°F-4.0°C 7.0°F-13.9°C 46% 6.3 mph NNE10.1 kmh NNE 9.4 mph15.1 kmh 30.60 in1036.2 mb 0.00 in0.0 mm 0.00 in0.0 mm 0.00 in0.0 mm
05:51 PM 24.8°F-4.0°C 7.0°F-13.9°C 46% 8.3 mph NE13.4 kmh NE 9.4 mph15.1 kmh 30.60 in1036.2 mb 0.00 in0.0 mm 0.00 in0.0 mm 0.00 in0.0 mm
05:52 PM 24.8°F-4.0°C 6.5°F-14.2°C 45% 6.8 mph E10.9 kmh E 9.4 mph15.1 kmh 30.60 in1036.2 mb 0.00 in0.0 mm 0.00 in0.0 mm 0.00 in0.0 mm
05:53 PM 24.8°F-4.0°C 6.5°F-14.2°C 45% 6.8 mph N10.9 kmh N 9.4 mph15.1 kmh 30.60 in1036.2 mb 0.00 in0.0 mm 0.00 in0.0 mm 0.00 in0.0 mm
05:54 PM 24.8°F-4.0°C 6.5°F-14.2°C 45% 6.8 mph NNE10.9 kmh NNE 9.4 mph15.1 kmh 30.60 in1036.2 mb 0.00 in0.0 mm 0.00 in0.0 mm 0.00 in0.0 mm
05:55 PM 24.8°F-4.0°C 6.5°F-14.2°C 45% 7.3 mph NE11.7 kmh NE 9.4 mph15.1 kmh 30.60 in1036.2 mb 0.00 in0.0 mm 0.00 in0.0 mm 0.00 in0.0 mm
05:56 PM 24.8°F-4.0°C 6.5°F-14.2°C 45% 7.3 mph NNE11.7 kmh NNE 9.4 mph15.1 kmh 30.60 in1036.2 mb 0.00 in0.0 mm 0.00 in0.0 mm 0.00 in0.0 mm
05:57 PM 24.8°F-4.0°C 6.5°F-14.2°C 45% 8.3 mph NNE13.4 kmh NNE 9.4 mph15.1 kmh 30.60 in1036.2 mb 0.00 in0.0 mm 0.00 in0.0 mm 0.00 in0.0 mm
05:58 PM 24.8°F-4.0°C 6.5°F-14.2°C 45% 9.9 mph NE15.9 kmh NE 9.9 mph15.9 kmh 30.60 in1036.2 mb 0.00 in0.0 mm 0.00 in0.0 mm 0.00 in0.0 mm
05:59 PM 24.8°F-4.0°C 6.5°F-14.2°C 45% 7.3 mph NNE11.7 kmh NNE 9.9 mph15.9 kmh 30.60 in1036.2 mb 0.00 in0.0 mm 0.00 in0.0 mm 0.00 in0.0 mm
06:00 PM 24.8°F-4.0°C 7.0°F-13.9°C 46% 3.2 mph NNW5.1 kmh NNW 9.9 mph15.9 kmh 30.60 in1036.2 mb 0.00 in0.0 mm 0.00 in0.0 mm 0.00 in0.0 mm
06:01 PM 24.8°F-4.0°C 7.0°F-13.9°C 46% 3.7 mph NNW6.0 kmh NNW 9.9 mph15.9 kmh 30.60 in1036.2 mb 0.00 in0.0 mm 0.00 in0.0 mm 0.00 in0.0 mm
06:02 PM 24.8°F-4.0°C 7.5°F-13.6°C 47% 6.8 mph ENE10.9 kmh ENE 10.9 mph17.5 kmh 30.60 in1036.2 mb 0.00 in0.0 mm 0.00 in0.0 mm 0.00 in0.0 mm
06:03 PM 24.8°F-4.0°C 7.5°F-13.6°C 47% 5.8 mph NNE9.3 kmh NNE 10.9 mph17.5 kmh 30.60 in1036.2 mb 0.00 in0.0 mm 0.00 in0.0 mm 0.00 in0.0 mm
06:04 PM 24.8°F-4.0°C 7.5°F-13.6°C 47% 4.2 mph ESE6.8 kmh ESE 10.9 mph17.5 kmh 30.60 in1036.2 mb 0.00 in0.0 mm 0.00 in0.0 mm 0.00 in0.0 mm
06:05 PM 24.6°F-4.1°C 7.3°F-13.7°C 47% 6.3 mph NE10.1 kmh NE 10.9 mph17.5 kmh 30.60 in1036.2 mb 0.00 in0.0 mm 0.00 in0.0 mm 0.00 in0.0 mm
06:06 PM 24.6°F-4.1°C 7.3°F-13.7°C 47% 5.8 mph NNE9.3 kmh NNE 10.9 mph17.5 kmh 30.60 in1036.2 mb 0.00 in0.0 mm 0.00 in0.0 mm 0.00 in0.0 mm
06:07 PM 24.6°F-4.1°C 7.3°F-13.7°C 47% 9.9 mph E15.9 kmh E 10.9 mph17.5 kmh 30.60 in1036.2 mb 0.00 in0.0 mm 0.00 in0.0 mm 0.00 in0.0 mm
06:08 PM 24.6°F-4.1°C 7.3°F-13.7°C 47% 5.3 mph NNE8.5 kmh NNE 10.9 mph17.5 kmh 30.60 in1036.2 mb 0.00 in0.0 mm 0.00 in0.0 mm 0.00 in0.0 mm
06:09 PM 24.6°F-4.1°C 7.3°F-13.7°C 47% 6.3 mph ESE10.1 kmh ESE 10.9 mph17.5 kmh 30.60 in1036.2 mb 0.00 in0.0 mm 0.00 in0.0 mm 0.00 in0.0 mm
06:10 PM 24.6°F-4.1°C 7.3°F-13.7°C 47% 5.3 mph NE8.5 kmh NE 10.9 mph17.5 kmh 30.60 in1036.2 mb 0.00 in0.0 mm 0.00 in0.0 mm 0.00 in0.0 mm
06:11 PM 24.6°F-4.1°C 7.3°F-13.7°C 47% 5.3 mph NE8.5 kmh NE 10.9 mph17.5 kmh 30.60 in1036.2 mb 0.00 in0.0 mm 0.00 in0.0 mm 0.00 in0.0 mm
06:12 PM 24.4°F-4.2°C 7.6°F-13.6°C 48% 4.7 mph NE7.6 kmh NE 9.9 mph15.9 kmh 30.60 in1036.2 mb 0.00 in0.0 mm 0.00 in0.0 mm 0.00 in0.0 mm
06:13 PM 24.4°F-4.2°C 7.6°F-13.6°C 48% 4.7 mph NNE7.6 kmh NNE 9.9 mph15.9 kmh 30.60 in1036.2 mb 0.00 in0.0 mm 0.00 in0.0 mm 0.00 in0.0 mm
06:14 PM 24.4°F-4.2°C 7.6°F-13.6°C 48% 4.7 mph N7.6 kmh N 9.9 mph15.9 kmh 30.60 in1036.2 mb 0.00 in0.0 mm 0.00 in0.0 mm 0.00 in0.0 mm
06:15 PM 24.4°F-4.2°C 7.6°F-13.6°C 48% 7.3 mph NNE11.7 kmh NNE 9.9 mph15.9 kmh 30.60 in1036.2 mb 0.00 in0.0 mm 0.00 in0.0 mm 0.00 in0.0 mm
06:16 PM 24.4°F-4.2°C 7.6°F-13.6°C 48% 4.2 mph NNE6.8 kmh NNE 9.9 mph15.9 kmh 30.60 in1036.2 mb 0.00 in0.0 mm 0.00 in0.0 mm 0.00 in0.0 mm
06:17 PM 24.3°F-4.3°C 7.5°F-13.6°C 48% 6.3 mph NNE10.1 kmh NNE 7.8 mph12.6 kmh 30.60 in1036.2 mb 0.00 in0.0 mm 0.00 in0.0 mm 0.00 in0.0 mm
06:18 PM 24.3°F-4.3°C 7.5°F-13.6°C 48% 6.8 mph NNE10.9 kmh NNE 7.3 mph11.7 kmh 30.60 in1036.2 mb 0.00 in0.0 mm 0.00 in0.0 mm 0.00 in0.0 mm
06:19 PM 24.3°F-4.3°C 7.5°F-13.6°C 48% 3.7 mph SSW6.0 kmh SSW 7.3 mph11.7 kmh 30.60 in1036.2 mb 0.00 in0.0 mm 0.00 in0.0 mm 0.00 in0.0 mm
06:20 PM 24.3°F-4.3°C 7.5°F-13.6°C 48% 6.8 mph NNE10.9 kmh NNE 8.9 mph14.3 kmh 30.60 in1036.2 mb 0.00 in0.0 mm 0.00 in0.0 mm 0.00 in0.0 mm
06:21 PM 24.3°F-4.3°C 7.5°F-13.6°C 48% 6.3 mph NE10.1 kmh NE 8.9 mph14.3 kmh 30.60 in1036.2 mb 0.00 in0.0 mm 0.00 in0.0 mm 0.00 in0.0 mm
06:22 PM 24.3°F-4.3°C 7.5°F-13.6°C 48% 5.3 mph NE8.5 kmh NE 8.9 mph14.3 kmh 30.60 in1036.2 mb 0.00 in0.0 mm 0.00 in0.0 mm 0.00 in0.0 mm
06:23 PM 24.3°F-4.3°C 7.5°F-13.6°C 48% 4.2 mph NE6.8 kmh NE 8.9 mph14.3 kmh 30.60 in1036.2 mb 0.00 in0.0 mm 0.00 in0.0 mm 0.00 in0.0 mm
06:24 PM 24.3°F-4.3°C 7.5°F-13.6°C 48% 2.7 mph NNW4.3 kmh NNW 8.9 mph14.3 kmh 30.60 in1036.2 mb 0.00 in0.0 mm 0.00 in0.0 mm 0.00 in0.0 mm
06:25 PM 24.1°F-4.4°C 7.7°F-13.5°C 49% 6.3 mph NNE10.1 kmh NNE 8.9 mph14.3 kmh 30.60 in1036.2 mb 0.00 in0.0 mm 0.00 in0.0 mm 0.00 in0.0 mm
06:26 PM 24.1°F-4.4°C 7.3°F-13.7°C 48% 4.2 mph NNE6.8 kmh NNE 8.9 mph14.3 kmh 30.60 in1036.2 mb 0.00 in0.0 mm 0.00 in0.0 mm 0.00 in0.0 mm
06:27 PM 24.1°F-4.4°C 7.3°F-13.7°C 48% 3.7 mph NNW6.0 kmh NNW 8.9 mph14.3 kmh 30.60 in1036.2 mb 0.00 in0.0 mm 0.00 in0.0 mm 0.00 in0.0 mm
06:28 PM 24.1°F-4.4°C 7.3°F-13.7°C 48% 5.8 mph NNE9.3 kmh NNE 8.9 mph14.3 kmh 30.61 in1036.6 mb 0.00 in0.0 mm 0.00 in0.0 mm 0.00 in0.0 mm
06:29 PM 24.1°F-4.4°C 7.7°F-13.5°C 49% 4.7 mph SW7.6 kmh SW 8.9 mph14.3 kmh 30.61 in1036.6 mb 0.00 in0.0 mm 0.00 in0.0 mm 0.00 in0.0 mm
06:30 PM 24.1°F-4.4°C 7.7°F-13.5°C 49% 4.2 mph ENE6.8 kmh ENE 6.8 mph10.9 kmh 30.61 in1036.6 mb 0.00 in0.0 mm 0.00 in0.0 mm 0.00 in0.0 mm
06:31 PM 23.9°F-4.5°C 7.1°F-13.8°C 48% 5.3 mph ESE8.5 kmh ESE 6.8 mph10.9 kmh 30.61 in1036.6 mb 0.00 in0.0 mm 0.00 in0.0 mm 0.00 in0.0 mm
06:32 PM 23.9°F-4.5°C 7.1°F-13.8°C 48% 4.2 mph NNE6.8 kmh NNE 6.8 mph10.9 kmh 30.61 in1036.6 mb 0.00 in0.0 mm 0.00 in0.0 mm 0.00 in0.0 mm
06:33 PM 23.9°F-4.5°C 7.1°F-13.8°C 48% 4.7 mph N7.6 kmh N 6.8 mph10.9 kmh 30.61 in1036.6 mb 0.00 in0.0 mm 0.00 in0.0 mm 0.00 in0.0 mm
06:34 PM 23.9°F-4.5°C 7.6°F-13.6°C 49% 2.7 mph NNE4.3 kmh NNE 6.8 mph10.9 kmh 30.61 in1036.6 mb 0.00 in0.0 mm 0.00 in0.0 mm 0.00 in0.0 mm
06:35 PM 23.9°F-4.5°C 7.6°F-13.6°C 49% 8.3 mph NNE13.4 kmh NNE 8.3 mph13.4 kmh 30.61 in1036.6 mb 0.00 in0.0 mm 0.00 in0.0 mm 0.00 in0.0 mm
06:36 PM 23.9°F-4.5°C 7.1°F-13.8°C 48% 5.8 mph ESE9.3 kmh ESE 8.3 mph13.4 kmh 30.61 in1036.6 mb 0.00 in0.0 mm 0.00 in0.0 mm 0.00 in0.0 mm
06:37 PM 23.9°F-4.5°C 7.1°F-13.8°C 48% 4.7 mph N7.6 kmh N 8.3 mph13.4 kmh 30.61 in1036.6 mb 0.00 in0.0 mm 0.00 in0.0 mm 0.00 in0.0 mm
06:38 PM 23.9°F-4.5°C 7.6°F-13.6°C 49% 3.2 mph NNW5.1 kmh NNW 8.3 mph13.4 kmh 30.61 in1036.6 mb 0.00 in0.0 mm 0.00 in0.0 mm 0.00 in0.0 mm
06:39 PM 23.9°F-4.5°C 8.0°F-13.3°C 50% 3.2 mph NNW5.1 kmh NNW 8.3 mph13.4 kmh 30.61 in1036.6 mb 0.00 in0.0 mm 0.00 in0.0 mm 0.00 in0.0 mm
06:40 PM 23.7°F-4.6°C 7.8°F-13.4°C 50% 4.7 mph NW7.6 kmh NW 8.3 mph13.4 kmh 30.61 in1036.6 mb 0.00 in0.0 mm 0.00 in0.0 mm 0.00 in0.0 mm
06:41 PM 23.7°F-4.6°C 7.8°F-13.4°C 50% 5.8 mph NE9.3 kmh NE 8.3 mph13.4 kmh 30.60 in1036.2 mb 0.00 in0.0 mm 0.00 in0.0 mm 0.00 in0.0 mm
06:42 PM 23.7°F-4.6°C 7.8°F-13.4°C 50% 5.8 mph NE9.3 kmh NE 8.3 mph13.4 kmh 30.60 in1036.2 mb 0.00 in0.0 mm 0.00 in0.0 mm 0.00 in0.0 mm
06:43 PM 23.7°F-4.6°C 7.8°F-13.4°C 50% 3.2 mph W5.1 kmh W 8.3 mph13.4 kmh 30.60 in1036.2 mb 0.00 in0.0 mm 0.00 in0.0 mm 0.00 in0.0 mm
06:44 PM 23.7°F-4.6°C 7.8°F-13.4°C 50% 4.2 mph ESE6.8 kmh ESE 8.3 mph13.4 kmh 30.60 in1036.2 mb 0.00 in0.0 mm 0.00 in0.0 mm 0.00 in0.0 mm
06:45 PM 23.7°F-4.6°C 7.8°F-13.4°C 50% 3.7 mph NNE6.0 kmh NNE 8.3 mph13.4 kmh 30.60 in1036.2 mb 0.00 in0.0 mm 0.00 in0.0 mm 0.00 in0.0 mm
06:46 PM 23.5°F-4.7°C 7.6°F-13.6°C 50% 5.3 mph NE8.5 kmh NE 6.3 mph10.1 kmh 30.60 in1036.2 mb 0.00 in0.0 mm 0.00 in0.0 mm 0.00 in0.0 mm
06:47 PM 23.5°F-4.7°C 7.6°F-13.6°C 50% 2.2 mph NNE3.5 kmh NNE 6.3 mph10.1 kmh 30.60 in1036.2 mb 0.00 in0.0 mm 0.00 in0.0 mm 0.00 in0.0 mm
06:48 PM 23.5°F-4.7°C 7.6°F-13.6°C 50% 4.2 mph NE6.8 kmh NE 6.3 mph10.1 kmh 30.60 in1036.2 mb 0.00 in0.0 mm 0.00 in0.0 mm 0.00 in0.0 mm
06:49 PM 23.4°F-4.8°C 7.5°F-13.6°C 50% 1.1 mph NNE1.8 kmh NNE 6.3 mph10.1 kmh 30.60 in1036.2 mb 0.00 in0.0 mm 0.00 in0.0 mm 0.00 in0.0 mm
06:50 PM 23.4°F-4.8°C 7.5°F-13.6°C 50% 4.7 mph NNE7.6 kmh NNE 5.8 mph9.3 kmh 30.60 in1036.2 mb 0.00 in0.0 mm 0.00 in0.0 mm 0.00 in0.0 mm
06:51 PM 23.4°F-4.8°C 7.5°F-13.6°C 50% 1.7 mph NNE2.7 kmh NNE 5.8 mph9.3 kmh 30.60 in1036.2 mb 0.00 in0.0 mm 0.00 in0.0 mm 0.00 in0.0 mm
06:52 PM 23.4°F-4.8°C 7.5°F-13.6°C 50% 5.3 mph NNE8.5 kmh NNE 5.3 mph8.5 kmh 30.62 in1036.9 mb 0.00 in0.0 mm 0.00 in0.0 mm 0.00 in0.0 mm
06:53 PM 23.4°F-4.8°C 7.5°F-13.6°C 50% 5.8 mph NNE9.3 kmh NNE 5.8 mph9.3 kmh 30.62 in1036.9 mb 0.00 in0.0 mm 0.00 in0.0 mm 0.00 in0.0 mm
06:54 PM 23.4°F-4.8°C 7.1°F-13.8°C 49% 4.2 mph NNE6.8 kmh NNE 5.8 mph9.3 kmh 30.62 in1036.9 mb 0.00 in0.0 mm 0.00 in0.0 mm 0.00 in0.0 mm
06:55 PM 23.4°F-4.8°C 7.1°F-13.8°C 49% 4.2 mph NE6.8 kmh NE 6.3 mph10.1 kmh 30.62 in1036.9 mb 0.00 in0.0 mm 0.00 in0.0 mm 0.00 in0.0 mm
06:56 PM 23.4°F-4.8°C 7.1°F-13.8°C 49% 4.2 mph NNE6.8 kmh NNE 6.3 mph10.1 kmh 30.62 in1036.9 mb 0.00 in0.0 mm 0.00 in0.0 mm 0.00 in0.0 mm
06:57 PM 23.4°F-4.8°C 7.1°F-13.8°C 49% 6.3 mph NE10.1 kmh NE 6.3 mph10.1 kmh 30.62 in1036.9 mb 0.00 in0.0 mm 0.00 in0.0 mm 0.00 in0.0 mm
06:58 PM 23.4°F-4.8°C 7.1°F-13.8°C 49% 5.8 mph NNW9.3 kmh NNW 6.3 mph10.1 kmh 30.62 in1036.9 mb 0.00 in0.0 mm 0.00 in0.0 mm 0.00 in0.0 mm
06:59 PM 23.4°F-4.8°C 7.1°F-13.8°C 49% 6.3 mph N10.1 kmh N 6.3 mph10.1 kmh 30.62 in1036.9 mb 0.00 in0.0 mm 0.00 in0.0 mm 0.00 in0.0 mm
07:00 PM 23.4°F-4.8°C 7.1°F-13.8°C 49% 2.7 mph N4.3 kmh N 6.3 mph10.1 kmh 30.62 in1036.9 mb 0.00 in0.0 mm 0.00 in0.0 mm 0.00 in0.0 mm
07:01 PM 23.4°F-4.8°C 7.1°F-13.8°C 49% 1.7 mph N2.7 kmh N 6.3 mph10.1 kmh 30.62 in1036.9 mb 0.00 in0.0 mm 0.00 in0.0 mm 0.00 in0.0 mm
07:02 PM 23.4°F-4.8°C 7.5°F-13.6°C 50% 2.2 mph NE3.5 kmh NE 6.3 mph10.1 kmh 30.62 in1036.9 mb 0.00 in0.0 mm 0.00 in0.0 mm 0.00 in0.0 mm
07:03 PM 23.2°F-4.9°C 7.4°F-13.7°C 50% 1.7 mph NE2.7 kmh NE 6.3 mph10.1 kmh 30.62 in1036.9 mb 0.00 in0.0 mm 0.00 in0.0 mm 0.00 in0.0 mm
07:04 PM 23.2°F-4.9°C 7.4°F-13.7°C 50% 1.1 mph NNE1.8 kmh NNE 6.3 mph10.1 kmh 30.62 in1036.9 mb 0.00 in0.0 mm 0.00 in0.0 mm 0.00 in0.0 mm
07:05 PM 23.2°F-4.9°C 7.8°F-13.4°C 51% Calm Calm 6.3 mph10.1 kmh 30.63 in1037.3 mb 0.00 in0.0 mm 0.00 in0.0 mm 0.00 in0.0 mm
07:06 PM 23.0°F-5.0°C 7.6°F-13.6°C 51% 2.7 mph NE4.3 kmh NE 6.3 mph10.1 kmh 30.63 in1037.3 mb 0.00 in0.0 mm 0.00 in0.0 mm 0.00 in0.0 mm
07:07 PM 23.0°F-5.0°C 7.6°F-13.6°C 51% 2.2 mph ESE3.5 kmh ESE 6.3 mph10.1 kmh 30.63 in1037.3 mb 0.00 in0.0 mm 0.00 in0.0 mm 0.00 in0.0 mm
07:08 PM 23.0°F-5.0°C 7.6°F-13.6°C 51% 1.1 mph ESE1.8 kmh ESE 6.3 mph10.1 kmh 30.63 in1037.3 mb 0.00 in0.0 mm 0.00 in0.0 mm 0.00 in0.0 mm
07:09 PM 22.8°F-5.1°C 7.8°F-13.4°C 52% 2.2 mph SSE3.5 kmh SSE 6.3 mph10.1 kmh 30.63 in1037.3 mb 0.00 in0.0 mm 0.00 in0.0 mm 0.00 in0.0 mm
07:10 PM 22.8°F-5.1°C 7.8°F-13.4°C 52% 2.2 mph SSE3.5 kmh SSE 2.7 mph4.3 kmh 30.63 in1037.3 mb 0.00 in0.0 mm 0.00 in0.0 mm 0.00 in0.0 mm
07:11 PM 22.8°F-5.1°C 7.8°F-13.4°C 52% 1.7 mph ESE2.7 kmh ESE 2.7 mph4.3 kmh 30.63 in1037.3 mb 0.00 in0.0 mm 0.00 in0.0 mm 0.00 in0.0 mm
07:12 PM 22.6°F-5.2°C 7.7°F-13.5°C 52% 1.7 mph ESE2.7 kmh ESE 2.7 mph4.3 kmh 30.63 in1037.3 mb 0.00 in0.0 mm 0.00 in0.0 mm 0.00 in0.0 mm
07:13 PM 22.6°F-5.2°C 7.7°F-13.5°C 52% 2.2 mph ENE3.5 kmh ENE 2.7 mph4.3 kmh 30.63 in1037.3 mb 0.00 in0.0 mm 0.00 in0.0 mm 0.00 in0.0 mm
07:14 PM 22.6°F-5.2°C 7.7°F-13.5°C 52% 1.1 mph WNW1.8 kmh WNW 2.7 mph4.3 kmh 30.63 in1037.3 mb 0.00 in0.0 mm 0.00 in0.0 mm 0.00 in0.0 mm
07:15 PM 22.5°F-5.3°C 7.6°F-13.6°C 52% 2.2 mph NNE3.5 kmh NNE 3.2 mph5.1 kmh 30.63 in1037.3 mb 0.00 in0.0 mm 0.00 in0.0 mm 0.00 in0.0 mm
07:16 PM 22.5°F-5.3°C 7.6°F-13.6°C 52% 1.7 mph SSE2.7 kmh SSE 3.2 mph5.1 kmh 30.63 in1037.3 mb 0.00 in0.0 mm 0.00 in0.0 mm 0.00 in0.0 mm
07:17 PM 22.5°F-5.3°C 7.1°F-13.8°C 51% 1.7 mph E2.7 kmh E 3.2 mph5.1 kmh 30.64 in1037.6 mb 0.00 in0.0 mm 0.00 in0.0 mm 0.00 in0.0 mm
07:18 PM 22.3°F-5.4°C 7.0°F-13.9°C 51% 1.1 mph E1.8 kmh E 3.2 mph5.1 kmh 30.64 in1037.6 mb 0.00 in0.0 mm 0.00 in0.0 mm 0.00 in0.0 mm
07:19 PM 22.3°F-5.4°C 7.0°F-13.9°C 51% 2.7 mph NE4.3 kmh NE 3.2 mph5.1 kmh 30.64 in1037.6 mb 0.00 in0.0 mm 0.00 in0.0 mm 0.00 in0.0 mm
07:20 PM 22.3°F-5.4°C 7.0°F-13.9°C 51% 1.1 mph NE1.8 kmh NE 3.2 mph5.1 kmh 30.64 in1037.6 mb 0.00 in0.0 mm 0.00 in0.0 mm 0.00 in0.0 mm
07:21 PM 22.3°F-5.4°C 7.4°F-13.7°C 52% 2.2 mph NE3.5 kmh NE 3.2 mph5.1 kmh 30.64 in1037.6 mb 0.00 in0.0 mm 0.00 in0.0 mm 0.00 in0.0 mm
07:22 PM 22.3°F-5.4°C 7.4°F-13.7°C 52% 1.1 mph NNW1.8 kmh NNW 3.2 mph5.1 kmh 30.64 in1037.6 mb 0.00 in0.0 mm 0.00 in0.0 mm 0.00 in0.0 mm
07:23 PM 22.1°F-5.5°C 7.6°F-13.6°C 53% 1.1 mph SSE1.8 kmh SSE 3.2 mph5.1 kmh 30.64 in1037.6 mb 0.00 in0.0 mm 0.00 in0.0 mm 0.00 in0.0 mm
07:24 PM 21.9°F-5.6°C 7.4°F-13.7°C 53% 1.7 mph ENE2.7 kmh ENE 3.2 mph5.1 kmh 30.64 in1037.6 mb 0.00 in0.0 mm 0.00 in0.0 mm 0.00 in0.0 mm
07:25 PM 21.9°F-5.6°C 7.4°F-13.7°C 53% 3.2 mph E5.1 kmh E 3.2 mph5.1 kmh 30.64 in1037.6 mb 0.00 in0.0 mm 0.00 in0.0 mm 0.00 in0.0 mm
07:26 PM 21.9°F-5.6°C 7.0°F-13.9°C 52% 2.2 mph ESE3.5 kmh ESE 3.2 mph5.1 kmh 30.64 in1037.6 mb 0.00 in0.0 mm 0.00 in0.0 mm 0.00 in0.0 mm
07:27 PM 21.9°F-5.6°C 7.0°F-13.9°C 52% 1.7 mph NE2.7 kmh NE 3.2 mph5.1 kmh 30.64 in1037.6 mb 0.00 in0.0 mm 0.00 in0.0 mm 0.00 in0.0 mm
07:28 PM 21.7°F-5.7°C 6.8°F-14.0°C 52% 2.7 mph NE4.3 kmh NE 3.2 mph5.1 kmh 30.64 in1037.6 mb 0.00 in0.0 mm 0.00 in0.0 mm 0.00 in0.0 mm
07:29 PM 21.7°F-5.7°C 6.8°F-14.0°C 52% 2.2 mph E3.5 kmh E 3.2 mph5.1 kmh 30.64 in1037.6 mb 0.00 in0.0 mm 0.00 in0.0 mm 0.00 in0.0 mm
07:30 PM 21.7°F-5.7°C 7.2°F-13.8°C 53% 2.7 mph N4.3 kmh N 3.2 mph5.1 kmh 30.64 in1037.6 mb 0.00 in0.0 mm 0.00 in0.0 mm 0.00 in0.0 mm
07:31 PM 21.7°F-5.7°C 7.7°F-13.5°C 54% 2.2 mph ESE3.5 kmh ESE 3.2 mph5.1 kmh 30.64 in1037.6 mb 0.00 in0.0 mm 0.00 in0.0 mm 0.00 in0.0 mm
07:32 PM 21.7°F-5.7°C 7.7°F-13.5°C 54% 1.7 mph S2.7 kmh S 3.2 mph5.1 kmh 30.64 in1037.6 mb 0.00 in0.0 mm 0.00 in0.0 mm 0.00 in0.0 mm
07:33 PM 21.7°F-5.7°C 8.1°F-13.3°C 55% 1.7 mph ESE2.7 kmh ESE 3.2 mph5.1 kmh 30.64 in1037.6 mb 0.00 in0.0 mm 0.00 in0.0 mm 0.00 in0.0 mm
07:34 PM 21.6°F-5.8°C 8.0°F-13.3°C 55% 1.7 mph ESE2.7 kmh ESE 3.2 mph5.1 kmh 30.64 in1037.6 mb 0.00 in0.0 mm 0.00 in0.0 mm 0.00 in0.0 mm
07:35 PM 21.6°F-5.8°C 7.6°F-13.6°C 54% 1.7 mph NE2.7 kmh NE 2.7 mph4.3 kmh 30.64 in1037.6 mb 0.00 in0.0 mm 0.00 in0.0 mm 0.00 in0.0 mm
07:36 PM 21.6°F-5.8°C 7.6°F-13.6°C 54% 1.1 mph ESE1.8 kmh ESE 2.7 mph4.3 kmh 30.64 in1037.6 mb 0.00 in0.0 mm 0.00 in0.0 mm 0.00 in0.0 mm
07:37 PM 21.4°F-5.9°C 7.4°F-13.7°C 54% 1.7 mph NE2.7 kmh NE 2.7 mph4.3 kmh 30.64 in1037.6 mb 0.00 in0.0 mm 0.00 in0.0 mm 0.00 in0.0 mm
07:38 PM 21.4°F-5.9°C 7.8°F-13.4°C 55% 1.1 mph NNE1.8 kmh NNE 2.7 mph4.3 kmh 30.64 in1037.6 mb 0.00 in0.0 mm 0.00 in0.0 mm 0.00 in0.0 mm
07:39 PM 21.4°F-5.9°C 7.8°F-13.4°C 55% 1.7 mph NNE2.7 kmh NNE 2.7 mph4.3 kmh 30.64 in1037.6 mb 0.00 in0.0 mm 0.00 in0.0 mm 0.00 in0.0 mm
07:40 PM 21.4°F-5.9°C 7.8°F-13.4°C 55% 1.7 mph ESE2.7 kmh ESE 2.7 mph4.3 kmh 30.64 in1037.6 mb 0.00 in0.0 mm 0.00 in0.0 mm 0.00 in0.0 mm
07:41 PM 21.2°F-6.0°C 7.6°F-13.6°C 55% 1.1 mph ESE1.8 kmh ESE 2.7 mph4.3 kmh 30.64 in1037.6 mb 0.00 in0.0 mm 0.00 in0.0 mm 0.00 in0.0 mm
07:42 PM 21.2°F-6.0°C 7.2°F-13.8°C 54% 1.7 mph ESE2.7 kmh ESE 2.7 mph4.3 kmh 30.64 in1037.6 mb 0.00 in0.0 mm 0.00 in0.0 mm 0.00 in0.0 mm
07:43 PM 21.0°F-6.1°C 7.0°F-13.9°C 54% 1.7 mph ENE2.7 kmh ENE 2.7 mph4.3 kmh 30.64 in1037.6 mb 0.00 in0.0 mm 0.00 in0.0 mm 0.00 in0.0 mm
07:44 PM 21.0°F-6.1°C 7.0°F-13.9°C 54% 1.1 mph ENE1.8 kmh ENE 2.7 mph4.3 kmh 30.64 in1037.6 mb 0.00 in0.0 mm 0.00 in0.0 mm 0.00 in0.0 mm
07:45 PM 21.0°F-6.1°C 7.0°F-13.9°C 54% 1.7 mph E2.7 kmh E 2.7 mph4.3 kmh 30.64 in1037.6 mb 0.00 in0.0 mm 0.00 in0.0 mm 0.00 in0.0 mm
07:46 PM 21.0°F-6.1°C 7.0°F-13.9°C 54% 1.1 mph S1.8 kmh S 2.7 mph4.3 kmh 30.64 in1037.6 mb 0.00 in0.0 mm 0.00 in0.0 mm 0.00 in0.0 mm
07:47 PM 21.0°F-6.1°C 7.0°F-13.9°C 54% 1.7 mph ENE2.7 kmh ENE 2.7 mph4.3 kmh 30.64 in1037.6 mb 0.00 in0.0 mm 0.00 in0.0 mm 0.00 in0.0 mm
07:48 PM 20.8°F-6.2°C 6.8°F-14.0°C 54% 2.7 mph NNE4.3 kmh NNE 2.7 mph4.3 kmh 30.64 in1037.6 mb 0.00 in0.0 mm 0.00 in0.0 mm 0.00 in0.0 mm
07:49 PM 20.8°F-6.2°C 6.8°F-14.0°C 54% 4.2 mph NE6.8 kmh NE 4.2 mph6.8 kmh 30.64 in1037.6 mb 0.00 in0.0 mm 0.00 in0.0 mm 0.00 in0.0 mm
07:50 PM 20.8°F-6.2°C 6.8°F-14.0°C 54% 3.2 mph NNE5.1 kmh NNE 4.2 mph6.8 kmh 30.64 in1037.6 mb 0.00 in0.0 mm 0.00 in0.0 mm 0.00 in0.0 mm
07:51 PM 21.0°F-6.1°C 7.0°F-13.9°C 54% 3.2 mph N5.1 kmh N 5.3 mph8.5 kmh 30.64 in1037.6 mb 0.00 in0.0 mm 0.00 in0.0 mm 0.00 in0.0 mm
07:52 PM 21.2°F-6.0°C 7.2°F-13.8°C 54% 3.7 mph NNE6.0 kmh NNE 5.3 mph8.5 kmh 30.64 in1037.6 mb 0.00 in0.0 mm 0.00 in0.0 mm 0.00 in0.0 mm
07:53 PM 21.2°F-6.0°C 7.2°F-13.8°C 54% 2.7 mph NE4.3 kmh NE 5.3 mph8.5 kmh 30.64 in1037.6 mb 0.00 in0.0 mm 0.00 in0.0 mm 0.00 in0.0 mm
07:54 PM 21.4°F-5.9°C 7.8°F-13.4°C 55% 4.7 mph NE7.6 kmh NE 5.3 mph8.5 kmh 30.64 in1037.6 mb 0.00 in0.0 mm 0.00 in0.0 mm 0.00 in0.0 mm
07:55 PM 21.6°F-5.8°C 8.0°F-13.3°C 55% 4.7 mph N7.6 kmh N 5.8 mph9.3 kmh 30.64 in1037.6 mb 0.00 in0.0 mm 0.00 in0.0 mm 0.00 in0.0 mm
07:56 PM 21.6°F-5.8°C 8.0°F-13.3°C 55% 4.7 mph NNE7.6 kmh NNE 5.8 mph9.3 kmh 30.64 in1037.6 mb 0.00 in0.0 mm 0.00 in0.0 mm 0.00 in0.0 mm
07:57 PM 21.9°F-5.6°C 7.8°F-13.4°C 54% 3.7 mph NNE6.0 kmh NNE 5.8 mph9.3 kmh 30.64 in1037.6 mb 0.00 in0.0 mm 0.00 in0.0 mm 0.00 in0.0 mm
07:58 PM 21.9°F-5.6°C 7.8°F-13.4°C 54% 5.3 mph ENE8.5 kmh ENE 5.8 mph9.3 kmh 30.64 in1037.6 mb 0.00 in0.0 mm 0.00 in0.0 mm 0.00 in0.0 mm
07:59 PM 21.9°F